Darstellungsparameter: Aktuell verwendete Einstellungen:
Skalierung der Graphiken ... ?
xyx+y,   Skalierungsfaktor:      Skalierung: Modus: x, Faktor: 1
Darstellungszeitraum ... ?
Vom - - bis: - -   Zeitraum: 03.07.2010 - 02.10.2010
Min/Max/Avg-Anzeige ... ?
Zeige MMA aktuell
Zeige MMA Monat
Zeige MMA alles
Zeige --A aktuell
Zeige --A Monat
Zeige --A alles
Keine MMA-Anzeige
MMA:
Average (ber die Originaldaten)
MMA-Basis: 23.02.2003 - 30.09.2020
Quicknavigation für Darstellung... ?
Tage:      1T, 2T, 3T, 5T -1T -2T -3T -5T +1T +2T +3T +5T
Wochen: 1W, 2W, 3W -1W -2W -3W +1W +2W +3W
Monate: 1M, 3M, 6M -1M -3M -6M +1M +3M +6M
Jahre:    1J, 3J, 5J, 10J -1J -3J -5J -10J +1J +3J +5J +10J
Nutze für die Darstellung ... ?
Originaldaten oder Mittelwerte auf ...
Stundenbasis Tagesbasis Wochenbasis
Monatsbasis Jahresbasis      Datenbasis: Original-Daten
Darstellen als:
Statistik (Auto) Statistik J:M      Darstellung:
Zur Graphik,    zurück zur Übersicht aller Sensoren.
 
Tabellarische Datenbersicht: ?
 
Sensor: Nr:Datum:Temp:Abs-Feuchte:Windchill:Wind:
Aussen-T/F 1 03-07-2010 00:04:03 25 C 8.52 g/m*3 25 C 0 km/h
2 03-07-2010 00:16:03 24.7 C 8.83 g/m*3 24.7 C 0 km/h
3 03-07-2010 00:28:03 24.4 C 9.12 g/m*3 24.4 C 0 km/h
4 03-07-2010 00:40:03 24.2 C 9.24 g/m*3 24.2 C 0 km/h
5 03-07-2010 00:52:03 24 C 9.14 g/m*3 24 C 0 km/h
6 03-07-2010 01:04:03 23.8 C 9.68 g/m*3 23.8 C 0 km/h
7 03-07-2010 01:16:03 23.6 C 9.78 g/m*3 23.6 C 0 km/h
8 03-07-2010 01:28:03 23.4 C 9.67 g/m*3 23.4 C 0 km/h
9 03-07-2010 01:40:03 23.1 C 9.92 g/m*3 23.1 C 0 km/h
10 03-07-2010 01:52:03 23 C 10.07 g/m*3 23 C 0 km/h
11 03-07-2010 02:04:04 22.8 C 10.36 g/m*3 22.8 C 0 km/h
12 03-07-2010 02:16:04 22.6 C 10.45 g/m*3 22.6 C 0 km/h
13 03-07-2010 02:28:04 22.5 C 10.39 g/m*3 22.5 C 0 km/h
14 03-07-2010 02:40:04 22.5 C 10.39 g/m*3 22.5 C 0 km/h
15 03-07-2010 02:52:04 22.2 C 10.6 g/m*3 22.2 C 0 km/h
16 03-07-2010 03:04:04 22 C 10.48 g/m*3 22 C 0 km/h
17 03-07-2010 03:16:04 21.7 C 10.68 g/m*3 21.7 C 0 km/h
18 03-07-2010 03:28:04 21.6 C 10.81 g/m*3 21.6 C 0 km/h
19 03-07-2010 03:40:04 21.4 C 10.87 g/m*3 21.4 C 0 km/h
20 03-07-2010 03:52:04 21.2 C 10.93 g/m*3 21.2 C 0 km/h
21 03-07-2010 04:04:04 21 C 10.81 g/m*3 21 C 0 km/h
22 03-07-2010 04:16:04 20.8 C 11.05 g/m*3 20.8 C 0 km/h
23 03-07-2010 04:28:04 20.8 C 11.23 g/m*3 20.8 C 0 km/h
24 03-07-2010 04:40:04 20.5 C 11.03 g/m*3 20.5 C 0 km/h
25 03-07-2010 04:52:04 20.3 C 11.08 g/m*3 20.3 C 0 km/h
Sensor: Nr:Datum:Temp:Abs-Feuchte:Windchill:Wind:
Aussen-T/F 26 03-07-2010 05:04:04 20.3 C 11.08 g/m*3 20.3 C 0 km/h
27 03-07-2010 05:16:04 20.1 C 11.13 g/m*3 20.1 C 0 km/h
28 03-07-2010 05:28:04 19.9 C 11.34 g/m*3 19.9 C 0 km/h
29 03-07-2010 05:40:04 19.9 C 11.51 g/m*3 19.9 C 0 km/h
30 03-07-2010 05:52:04 19.9 C 11.51 g/m*3 19.9 C 0 km/h
31 03-07-2010 06:04:05 20 C 11.23 g/m*3 20 C 0 km/h
32 03-07-2010 06:16:05 20 C 11.41 g/m*3 20 C 0 km/h
33 03-07-2010 06:28:05 20.2 C 11.54 g/m*3 20.2 C 0 km/h
34 03-07-2010 06:40:05 20.2 C 11.54 g/m*3 20.2 C 0 km/h
35 03-07-2010 06:52:02 20.5 C 11.74 g/m*3 20.5 C 0 km/h
36 03-07-2010 07:04:01 20.9 C 11.84 g/m*3 20.9 C 0 km/h
37 03-07-2010 07:16:02 21.1 C 11.61 g/m*3 21.1 C 0 km/h
38 03-07-2010 07:28:02 21.2 C 11.68 g/m*3 21.2 C 0 km/h
39 03-07-2010 07:40:02 21.6 C 11.76 g/m*3 21.6 C 0 km/h
40 03-07-2010 07:52:02 21.8 C 11.9 g/m*3 21.8 C 0 km/h
41 03-07-2010 08:04:02 22.1 C 11.71 g/m*3 22.1 C 0 km/h
42 03-07-2010 08:16:02 22.3 C 11.65 g/m*3 22.3 C 0 km/h
43 03-07-2010 08:28:02 22.5 C 11.78 g/m*3 22.5 C 0 km/h
44 03-07-2010 08:40:02 22.8 C 11.99 g/m*3 22.8 C 0 km/h
45 03-07-2010 08:52:02 23.2 C 11.85 g/m*3 23.2 C 0 km/h
46 03-07-2010 09:04:02 23.9 C 12.11 g/m*3 23.9 C 0 km/h
47 03-07-2010 09:16:01 24.5 C 11.86 g/m*3 24.5 C 0 km/h
48 03-07-2010 09:28:01 25.1 C 12.04 g/m*3 25.1 C 0 km/h
49 03-07-2010 09:40:02 25.8 C 12.28 g/m*3 25.8 C 0 km/h
50 03-07-2010 09:52:02 26.5 C 12.27 g/m*3 26.5 C 0 km/h
Sensor: Nr:Datum:Temp:Abs-Feuchte:Windchill:Wind:
Aussen-T/F 51 03-07-2010 10:04:02 27.3 C 12.56 g/m*3 27.3 C 0 km/h
52 03-07-2010 10:16:02 28.1 C 12.03 g/m*3 28.1 C 0 km/h
53 03-07-2010 10:28:02 29 C 12.06 g/m*3 29 C 0 km/h
54 03-07-2010 10:40:02 29.5 C 11.81 g/m*3 29.5 C 0 km/h
55 03-07-2010 10:52:02 30.3 C 12.02 g/m*3 30.3 C 0 km/h
56 03-07-2010 11:04:03 30.7 C 11.97 g/m*3 30.7 C 0 km/h
57 03-07-2010 11:16:03 30.9 C 11.78 g/m*3 30.9 C 0 km/h
58 03-07-2010 11:28:03 31.1 C 10.62 g/m*3 31.1 C 0 km/h
59 03-07-2010 11:40:02 31.6 C 10.24 g/m*3 31.6 C 0 km/h
60 03-07-2010 11:52:01 32.2 C 9.55 g/m*3 32.2 C 0 km/h
61 03-07-2010 12:04:02 32.7 C 8.76 g/m*3 32.7 C 0 km/h
62 03-07-2010 12:16:01 33.3 C 7.23 g/m*3 33.3 C 0 km/h
63 03-07-2010 12:28:01 33.1 C 7.16 g/m*3 33.1 C 0 km/h
64 03-07-2010 12:40:02 33.4 C 7.27 g/m*3 33.4 C 0 km/h
65 03-07-2010 12:52:02 34 C 7.5 g/m*3 34 C 0 km/h
66 03-07-2010 13:04:02 34 C 7.5 g/m*3 34 C 0 km/h
67 03-07-2010 13:16:01 34.3 C 7.62 g/m*3 34.3 C 0 km/h
68 03-07-2010 13:28:01 33.9 C 7.46 g/m*3 33.9 C 0 km/h
69 03-07-2010 13:40:02 32.6 C 8.36 g/m*3 32.6 C 0 km/h
70 03-07-2010 13:52:02 34.1 C 7.54 g/m*3 34.1 C 0 km/h
71 03-07-2010 14:04:02 34.2 C 7.58 g/m*3 34.2 C 0 km/h
72 03-07-2010 14:16:01 33.7 C 7.39 g/m*3 33.7 C 0 km/h
73 03-07-2010 14:28:01 33.5 C 7.31 g/m*3 33.5 C 0 km/h
74 03-07-2010 14:40:02 33.8 C 7.43 g/m*3 33.8 C 0 km/h
75 03-07-2010 14:52:02 33.4 C 7.27 g/m*3 33.4 C 0 km/h
Sensor: Nr:Datum:Temp:Abs-Feuchte:Windchill:Wind:
Aussen-T/F 76 03-07-2010 15:04:01 32.8 C 7.4 g/m*3 32.8 C 0 km/h
77 03-07-2010 15:16:02 32.3 C 8.58 g/m*3 32.3 C 0 km/h
78 03-07-2010 15:28:02 31.7 C 7.64 g/m*3 31.7 C 0 km/h
79 03-07-2010 15:40:02 31.5 C 7.56 g/m*3 31.5 C 0 km/h
80 03-07-2010 15:52:02 31.4 C 7.85 g/m*3 31.4 C 0 km/h
81 03-07-2010 16:04:03 31.2 C 8.09 g/m*3 31.2 C 0 km/h
82 03-07-2010 16:16:02 31.5 C 8.22 g/m*3 31.5 C 0 km/h
83 03-07-2010 16:28:02 31 C 8.32 g/m*3 31 C 0 km/h
84 03-07-2010 16:40:03 30.2 C 9.2 g/m*3 30.2 C 0 km/h
85 03-07-2010 16:52:02 30.1 C 9.76 g/m*3 30.1 C 0 km/h
86 03-07-2010 17:04:02 30.2 C 10.42 g/m*3 30.2 C 0 km/h
87 03-07-2010 17:16:02 29.7 C 10.14 g/m*3 29.7 C 0 km/h
88 03-07-2010 17:28:02 29.5 C 9.44 g/m*3 29.5 C 0 km/h
89 03-07-2010 17:40:02 29.5 C 9.74 g/m*3 29.5 C 0 km/h
90 03-07-2010 17:52:01 28.1 C 9.57 g/m*3 28.1 C 0 km/h
91 03-07-2010 18:04:01 27.3 C 9.94 g/m*3 27.3 C 0 km/h
92 03-07-2010 18:16:02 26.3 C 10.64 g/m*3 26.3 C 0 km/h
93 03-07-2010 18:28:02 26.2 C 11.08 g/m*3 26.2 C 0 km/h
94 03-07-2010 18:40:01 26.1 C 11.02 g/m*3 26.1 C 0 km/h
95 03-07-2010 18:52:01 26.5 C 10.76 g/m*3 26.5 C 0 km/h
96 03-07-2010 19:04:02 26.6 C 11.08 g/m*3 26.6 C 0 km/h
97 03-07-2010 19:16:02 27.1 C 11.13 g/m*3 27.1 C 0 km/h
98 03-07-2010 19:28:02 26.8 C 11.71 g/m*3 26.8 C 0 km/h
99 03-07-2010 19:40:02 27.5 C 11.64 g/m*3 27.5 C 0 km/h
100 03-07-2010 19:52:02 27.5 C 11.64 g/m*3 27.5 C 0 km/h
Sensor: Nr:Datum:Temp:Abs-Feuchte:Windchill:Wind:
Aussen-T/F 101 03-07-2010 20:04:02 27.8 C 12.1 g/m*3 27.8 C 0 km/h
102 03-07-2010 20:16:02 28.3 C 11.89 g/m*3 28.3 C 0 km/h
103 03-07-2010 20:28:02 28.2 C 12.1 g/m*3 28.2 C 0 km/h
104 03-07-2010 20:40:01 28.4 C 11.95 g/m*3 28.4 C 0 km/h
105 03-07-2010 20:52:02 27.7 C 12.3 g/m*3 27.7 C 0 km/h
106 03-07-2010 21:04:01 27.3 C 12.82 g/m*3 27.3 C 0 km/h
107 03-07-2010 21:16:02 26.6 C 13.09 g/m*3 26.6 C 0 km/h
108 03-07-2010 21:28:02 26.1 C 13.46 g/m*3 26.1 C 0 km/h
109 03-07-2010 21:40:02 25.8 C 13.72 g/m*3 25.8 C 0 km/h
110 03-07-2010 21:52:02 25.4 C 13.89 g/m*3 25.4 C 0 km/h
111 03-07-2010 22:04:03 25.6 C 14.05 g/m*3 25.6 C 0 km/h
112 03-07-2010 22:16:02 25.4 C 14.36 g/m*3 25.4 C 0 km/h
113 03-07-2010 22:28:02 25 C 14.04 g/m*3 25 C 0 km/h
114 03-07-2010 22:40:02 24.6 C 13.95 g/m*3 24.6 C 0 km/h
115 03-07-2010 22:52:01 24.5 C 13.88 g/m*3 24.5 C 0 km/h
116 03-07-2010 23:04:02 24.2 C 13.64 g/m*3 24.2 C 0 km/h
117 03-07-2010 23:16:01 24.1 C 14 g/m*3 24.1 C 0 km/h
118 03-07-2010 23:28:01 24.1 C 13.78 g/m*3 24.1 C 0 km/h
119 03-07-2010 23:40:02 24 C 13.71 g/m*3 24 C 0 km/h
120 03-07-2010 23:52:01 23.8 C 13.77 g/m*3 23.8 C 0 km/h
121 04-07-2010 00:04:02 23.7 C 13.9 g/m*3 23.7 C 0 km/h
122 04-07-2010 00:16:01 23.5 C 13.96 g/m*3 23.5 C 0 km/h
123 04-07-2010 00:28:01 23.4 C 14.09 g/m*3 23.4 C 0 km/h
124 04-07-2010 00:40:02 23.4 C 14.09 g/m*3 23.4 C 0 km/h
125 04-07-2010 00:52:01 23.3 C 14.01 g/m*3 23.3 C 0 km/h
Sensor: Nr:Datum:Temp:Abs-Feuchte:Windchill:Wind:
Aussen-T/F 126 04-07-2010 01:04:02 23.2 C 13.93 g/m*3 23.2 C 0 km/h
127 04-07-2010 01:16:01 23.1 C 13.85 g/m*3 23.1 C 0 km/h
128 04-07-2010 01:28:01 22.9 C 13.9 g/m*3 22.9 C 0 km/h
129 04-07-2010 01:41:02 22.7 C 13.74 g/m*3 22.7 C 0 km/h
130 04-07-2010 01:53:02 22.7 C 13.54 g/m*3 22.7 C 0 km/h
131 04-07-2010 02:05:02 22.6 C 13.66 g/m*3 22.6 C 0 km/h
132 04-07-2010 02:17:02 22.4 C 13.5 g/m*3 22.4 C 0 km/h
133 04-07-2010 02:29:02 22.4 C 13.7 g/m*3 22.4 C 0 km/h
134 04-07-2010 02:41:02 22.3 C 13.62 g/m*3 22.3 C 0 km/h
135 04-07-2010 02:53:02 22.2 C 13.55 g/m*3 22.2 C 0 km/h
136 04-07-2010 03:05:02 22.2 C 13.74 g/m*3 22.2 C 0 km/h
137 04-07-2010 03:17:02 22.2 C 13.94 g/m*3 22.2 C 0 km/h
138 04-07-2010 03:29:02 22.2 C 13.74 g/m*3 22.2 C 0 km/h
139 04-07-2010 03:41:02 22.2 C 13.74 g/m*3 22.2 C 0 km/h
140 04-07-2010 03:53:02 22 C 13.78 g/m*3 22 C 0 km/h
141 04-07-2010 04:05:02 21.8 C 14.01 g/m*3 21.8 C 0 km/h
142 04-07-2010 04:17:02 21.7 C 13.93 g/m*3 21.7 C 0 km/h
143 04-07-2010 04:29:02 21.7 C 13.93 g/m*3 21.7 C 0 km/h
144 04-07-2010 04:41:02 21.6 C 13.85 g/m*3 21.6 C 0 km/h
145 04-07-2010 04:53:02 21.3 C 13.79 g/m*3 21.3 C 0 km/h
146 04-07-2010 05:05:02 21.1 C 13.82 g/m*3 21.1 C 0 km/h
147 04-07-2010 05:17:02 21 C 13.92 g/m*3 21 C 0 km/h
148 04-07-2010 05:29:02 21 C 13.92 g/m*3 21 C 0 km/h
149 04-07-2010 05:41:03 21.2 C 14.08 g/m*3 21.2 C 0 km/h
150 04-07-2010 05:53:03 21.3 C 13.98 g/m*3 21.3 C 0 km/h
Sensor: Nr:Datum:Temp:Abs-Feuchte:Windchill:Wind:
Aussen-T/F 151 04-07-2010 06:05:03 21.5 C 13.95 g/m*3 21.5 C 0 km/h
152 04-07-2010 06:17:03 21.5 C 13.95 g/m*3 21.5 C 0 km/h
153 04-07-2010 06:29:03 21.6 C 14.03 g/m*3 21.6 C 0 km/h
154 04-07-2010 06:41:03 21.8 C 14.01 g/m*3 21.8 C 0 km/h
155 04-07-2010 06:53:03 21.8 C 14.01 g/m*3 21.8 C 0 km/h
156 04-07-2010 07:05:03 22 C 13.97 g/m*3 22 C 0 km/h
157 04-07-2010 07:17:03 22.1 C 13.86 g/m*3 22.1 C 0 km/h
158 04-07-2010 07:29:03 22.1 C 13.86 g/m*3 22.1 C 0 km/h
159 04-07-2010 07:41:03 22.5 C 13.98 g/m*3 22.5 C 0 km/h
160 04-07-2010 07:53:03 23 C 13.77 g/m*3 23 C 0 km/h
161 04-07-2010 08:05:03 23.2 C 13.72 g/m*3 23.2 C 0 km/h
162 04-07-2010 08:17:03 22.9 C 13.49 g/m*3 22.9 C 0 km/h
163 04-07-2010 08:29:03 23 C 13.36 g/m*3 23 C 0 km/h
164 04-07-2010 08:41:03 23.4 C 13.46 g/m*3 23.4 C 0 km/h
165 04-07-2010 08:53:03 23.3 C 13.17 g/m*3 23.3 C 0 km/h
166 04-07-2010 09:05:03 23.4 C 12.83 g/m*3 23.4 C 0 km/h
167 04-07-2010 09:17:03 23.4 C 12.83 g/m*3 23.4 C 0 km/h
168 04-07-2010 09:29:03 23.9 C 13.2 g/m*3 23.9 C 0 km/h
169 04-07-2010 09:41:03 23.6 C 12.76 g/m*3 23.6 C 0 km/h
170 04-07-2010 09:53:04 23.4 C 13.04 g/m*3 23.4 C 0 km/h
171 04-07-2010 10:05:04 23.9 C 12.76 g/m*3 23.9 C 0 km/h
172 04-07-2010 10:17:02 24.1 C 12.91 g/m*3 24.1 C 0 km/h
173 04-07-2010 10:29:02 24.2 C 12.54 g/m*3 24.2 C 0 km/h
174 04-07-2010 10:41:03 24.8 C 12.52 g/m*3 24.8 C 0 km/h
175 04-07-2010 10:53:02 25.1 C 12.27 g/m*3 25.1 C 0 km/h
Sensor: Nr:Datum:Temp:Abs-Feuchte:Windchill:Wind:
Aussen-T/F 176 04-07-2010 11:05:01 24.3 C 12.17 g/m*3 24.3 C 0 km/h
177 04-07-2010 11:17:02 25.4 C 12.24 g/m*3 25.4 C 0 km/h
178 04-07-2010 11:29:02 25.5 C 12.31 g/m*3 25.5 C 0 km/h
179 04-07-2010 11:41:02 27.1 C 11.9 g/m*3 27.1 C 0 km/h
180 04-07-2010 11:53:02 27.8 C 11.57 g/m*3 27.8 C 0 km/h
181 04-07-2010 12:05:03 27 C 11.32 g/m*3 27 C 0 km/h
182 04-07-2010 12:17:02 26.4 C 11.45 g/m*3 26.4 C 0 km/h
183 04-07-2010 12:29:02 27.6 C 11.44 g/m*3 27.6 C 0 km/h
184 04-07-2010 12:41:02 29.4 C 10.27 g/m*3 29.4 C 0 km/h
185 04-07-2010 12:53:02 29.3 C 10.22 g/m*3 29.3 C 0 km/h
186 04-07-2010 13:05:02 29.5 C 10.33 g/m*3 29.5 C 0 km/h
187 04-07-2010 13:17:01 29.3 C 10.22 g/m*3 29.3 C 0 km/h
188 04-07-2010 13:29:01 31.2 C 9.7 g/m*3 31.2 C 0 km/h
189 04-07-2010 13:41:02 31.2 C 8.73 g/m*3 31.2 C 0 km/h
190 04-07-2010 13:53:02 30.5 C 9.03 g/m*3 30.5 C 0 km/h
191 04-07-2010 14:05:02 31 C 9.28 g/m*3 31 C 0 km/h
192 04-07-2010 14:17:02 31 C 8.96 g/m*3 31 C 0 km/h
193 04-07-2010 14:29:02 30.5 C 9.66 g/m*3 30.5 C 0 km/h
194 04-07-2010 14:41:02 30 C 9.7 g/m*3 30 C 0 km/h
195 04-07-2010 14:53:02 30.3 C 9.86 g/m*3 30.3 C 0 km/h
196 04-07-2010 15:05:02 31.5 C 8.88 g/m*3 31.5 C 0 km/h
197 04-07-2010 15:17:02 32.1 C 8.48 g/m*3 32.1 C 0 km/h
198 04-07-2010 15:29:02 32 C 8.44 g/m*3 32 C 0 km/h
199 04-07-2010 15:41:02 32.3 C 8.23 g/m*3 32.3 C 0 km/h
200 04-07-2010 15:53:02 32 C 8.44 g/m*3 32 C 0 km/h
Sensor: Nr:Datum:Temp:Abs-Feuchte:Windchill:Wind:
Aussen-T/F 201 04-07-2010 16:05:02 32.4 C 7.93 g/m*3 32.4 C 0 km/h
202 04-07-2010 16:17:03 31.8 C 8.02 g/m*3 31.8 C 0 km/h
203 04-07-2010 16:29:03 32.2 C 7.85 g/m*3 32.2 C 0 km/h
204 04-07-2010 16:41:02 32.3 C 7.89 g/m*3 32.3 C 0 km/h
205 04-07-2010 16:53:02 32.4 C 7.59 g/m*3 32.4 C 0 km/h
206 04-07-2010 17:05:02 32.1 C 7.81 g/m*3 32.1 C 0 km/h
207 04-07-2010 17:17:02 31.8 C 7.68 g/m*3 31.8 C 0 km/h
208 04-07-2010 17:29:02 32.8 C 7.4 g/m*3 32.8 C 0 km/h
209 04-07-2010 17:41:02 32.8 C 7.4 g/m*3 32.8 C 0 km/h
210 04-07-2010 17:53:02 32.9 C 7.44 g/m*3 32.9 C 0 km/h
211 04-07-2010 18:05:02 32.9 C 7.44 g/m*3 32.9 C 0 km/h
212 04-07-2010 18:17:02 32.9 C 7.44 g/m*3 32.9 C 0 km/h
213 04-07-2010 18:29:03 32.3 C 7.55 g/m*3 32.3 C 0 km/h
214 04-07-2010 18:41:01 31.9 C 7.72 g/m*3 31.9 C 0 km/h
215 04-07-2010 18:53:02 32.5 C 7.63 g/m*3 32.5 C 0 km/h
216 04-07-2010 19:05:01 31.2 C 8.41 g/m*3 31.2 C 0 km/h
217 04-07-2010 19:17:02 30 C 9.1 g/m*3 30 C 0 km/h
218 04-07-2010 19:29:02 30.1 C 9.45 g/m*3 30.1 C 0 km/h
219 04-07-2010 19:41:02 31.3 C 8.78 g/m*3 31.3 C 0 km/h
220 04-07-2010 19:53:02 32 C 7.76 g/m*3 32 C 0 km/h
221 04-07-2010 20:05:01 31.5 C 8.55 g/m*3 31.5 C 0 km/h
222 04-07-2010 20:17:01 31.6 C 8.26 g/m*3 31.6 C 0 km/h
223 04-07-2010 20:29:01 31.7 C 8.64 g/m*3 31.7 C 0 km/h
224 04-07-2010 20:41:02 30.8 C 8.86 g/m*3 30.8 C 0 km/h
225 04-07-2010 20:53:02 29.7 C 9.55 g/m*3 29.7 C 0 km/h
Sensor: Nr:Datum:Temp:Abs-Feuchte:Windchill:Wind:
Aussen-T/F 226 04-07-2010 21:05:01 28.3 C 9.4 g/m*3 28.3 C 0 km/h
227 04-07-2010 21:17:02 27.8 C 9.68 g/m*3 27.8 C 0 km/h
228 04-07-2010 21:29:02 27.9 C 10.01 g/m*3 27.9 C 0 km/h
229 04-07-2010 21:41:02 27.4 C 9.74 g/m*3 27.4 C 0 km/h
230 04-07-2010 21:53:01 27.3 C 9.42 g/m*3 27.3 C 0 km/h
231 04-07-2010 22:05:02 26.9 C 9.73 g/m*3 26.9 C 0 km/h
232 04-07-2010 22:17:01 26.6 C 9.82 g/m*3 26.6 C 0 km/h
233 04-07-2010 22:29:01 26.4 C 9.96 g/m*3 26.4 C 0 km/h
234 04-07-2010 22:41:02 26.2 C 9.35 g/m*3 26.2 C 0 km/h
235 04-07-2010 22:54:03 26.1 C 9.06 g/m*3 26.1 C 0 km/h
236 04-07-2010 23:06:03 26.1 C 9.06 g/m*3 26.1 C 0 km/h
237 04-07-2010 23:18:03 26.1 C 9.3 g/m*3 26.1 C 0 km/h
238 04-07-2010 23:30:03 25.9 C 9.44 g/m*3 25.9 C 0 km/h
239 04-07-2010 23:42:03 25.7 C 9.58 g/m*3 25.7 C 0 km/h
240 04-07-2010 23:54:03 25.2 C 8.85 g/m*3 25.2 C 0 km/h
241 05-07-2010 00:06:03 24.7 C 8.6 g/m*3 24.7 C 0 km/h
242 05-07-2010 00:18:03 24.5 C 8.06 g/m*3 24.5 C 0 km/h
243 05-07-2010 00:30:03 24.4 C 8.46 g/m*3 24.4 C 0 km/h
244 05-07-2010 00:42:03 24.1 C 7.88 g/m*3 24.1 C 0 km/h
245 05-07-2010 00:54:03 24 C 7.83 g/m*3 24 C 0 km/h
246 05-07-2010 01:06:03 23.9 C 7.57 g/m*3 23.9 C 0 km/h
247 05-07-2010 01:18:04 23.8 C 7.1 g/m*3 23.8 C 0 km/h
248 05-07-2010 01:30:04 23.3 C 6.9 g/m*3 23.3 C 0 km/h
249 05-07-2010 01:42:04 22.9 C 7.15 g/m*3 22.9 C 0 km/h
250 05-07-2010 01:54:04 22.4 C 6.95 g/m*3 22.4 C 0 km/h
Sensor: Nr:Datum:Temp:Abs-Feuchte:Windchill:Wind:
Aussen-T/F 251 05-07-2010 02:06:04 22.5 C 7.19 g/m*3 22.5 C 0 km/h
252 05-07-2010 02:18:04 22.2 C 7.07 g/m*3 22.2 C 0 km/h
253 05-07-2010 02:30:04 21.9 C 6.95 g/m*3 21.9 C 0 km/h
254 05-07-2010 02:42:04 21.7 C 7.25 g/m*3 21.7 C 0 km/h
255 05-07-2010 02:54:04 21.4 C 6.94 g/m*3 21.4 C 0 km/h
256 05-07-2010 03:06:04 21.5 C 7.17 g/m*3 21.5 C 0 km/h
257 05-07-2010 03:18:04 21.2 C 7.04 g/m*3 21.2 C 0 km/h
258 05-07-2010 03:30:04 20.8 C 6.7 g/m*3 20.8 C 0 km/h
259 05-07-2010 03:42:04 20.8 C 6.52 g/m*3 20.8 C 0 km/h
260 05-07-2010 03:54:04 20.8 C 6.7 g/m*3 20.8 C 0 km/h
261 05-07-2010 04:06:04 20.5 C 6.41 g/m*3 20.5 C 0 km/h
262 05-07-2010 04:18:04 20.3 C 6.51 g/m*3 20.3 C 0 km/h
263 05-07-2010 04:30:04 20 C 6.22 g/m*3 20 C 0 km/h
264 05-07-2010 04:42:04 19.7 C 6.11 g/m*3 19.7 C 0 km/h
265 05-07-2010 04:54:04 19.3 C 6.14 g/m*3 19.3 C 0 km/h
266 05-07-2010 05:06:04 19.1 C 6.23 g/m*3 19.1 C 0 km/h
267 05-07-2010 05:18:04 18.9 C 6.32 g/m*3 18.9 C 0 km/h
268 05-07-2010 05:30:05 18.9 C 6.32 g/m*3 18.9 C 0 km/h
269 05-07-2010 05:42:05 18.8 C 6.28 g/m*3 18.8 C 0 km/h
270 05-07-2010 05:54:05 18.6 C 6.37 g/m*3 18.6 C 0 km/h
271 05-07-2010 06:06:05 18.5 C 6.33 g/m*3 18.5 C 0 km/h
272 05-07-2010 06:18:05 18.4 C 6.45 g/m*3 18.4 C 0 km/h
273 05-07-2010 06:30:05 18.4 C 6.61 g/m*3 18.4 C 0 km/h
274 05-07-2010 06:42:05 18.2 C 7.15 g/m*3 18.2 C 0 km/h
275 05-07-2010 06:54:05 18.2 C 7.31 g/m*3 18.2 C 0 km/h
Sensor: Nr:Datum:Temp:Abs-Feuchte:Windchill:Wind:
Aussen-T/F 276 05-07-2010 07:06:02 18.3 C 7.35 g/m*3 18.3 C 0 km/h
277 05-07-2010 07:18:03 18.3 C 7.66 g/m*3 18.3 C 0 km/h
278 05-07-2010 07:30:03 18.4 C 7.55 g/m*3 18.4 C 0 km/h
279 05-07-2010 07:42:02 18.5 C 7.44 g/m*3 18.5 C 0 km/h
280 05-07-2010 07:54:02 18.7 C 7.36 g/m*3 18.7 C 0 km/h
281 05-07-2010 08:06:02 18.9 C 7.45 g/m*3 18.9 C 0 km/h
282 05-07-2010 08:18:03 19.2 C 7.09 g/m*3 19.2 C 0 km/h
283 05-07-2010 08:30:03 19.4 C 6.84 g/m*3 19.4 C 0 km/h
284 05-07-2010 08:42:02 19.6 C 6.92 g/m*3 19.6 C 0 km/h
285 05-07-2010 08:54:03 19.9 C 6.7 g/m*3 19.9 C 0 km/h
286 05-07-2010 09:06:02 20.3 C 6.33 g/m*3 20.3 C 0 km/h
287 05-07-2010 09:18:02 20.8 C 6.88 g/m*3 20.8 C 0 km/h
288 05-07-2010 09:30:02 21.4 C 6.75 g/m*3 21.4 C 0 km/h
289 05-07-2010 09:42:02 21.8 C 6.72 g/m*3 21.8 C 0 km/h
290 05-07-2010 09:54:02 22.1 C 6.64 g/m*3 22.1 C 0 km/h
291 05-07-2010 10:06:01 22.7 C 6.06 g/m*3 22.7 C 0 km/h
292 05-07-2010 10:18:02 23.3 C 6.48 g/m*3 23.3 C 0 km/h
293 05-07-2010 10:30:03 23.3 C 6.48 g/m*3 23.3 C 0 km/h
294 05-07-2010 10:42:01 24.4 C 6.45 g/m*3 24.4 C 0 km/h
295 05-07-2010 10:54:02 24.8 C 6.6 g/m*3 24.8 C 0 km/h
296 05-07-2010 11:06:01 24.9 C 6.87 g/m*3 24.9 C 0 km/h
297 05-07-2010 11:18:01 26.8 C 6.62 g/m*3 26.8 C 0 km/h
298 05-07-2010 11:30:01 27.7 C 6.69 g/m*3 27.7 C 0 km/h
299 05-07-2010 11:42:01 26.5 C 6.26 g/m*3 26.5 C 0 km/h
300 05-07-2010 11:54:02 26.8 C 6.62 g/m*3 26.8 C 0 km/h
Sensor: Nr:Datum:Temp:Abs-Feuchte:Windchill:Wind:
Aussen-T/F 301 05-07-2010 12:06:02 27.4 C 6.58 g/m*3 27.4 C 0 km/h
302 05-07-2010 12:18:02 28.2 C 6.32 g/m*3 28.2 C 0 km/h
303 05-07-2010 12:30:02 28.1 C 6.56 g/m*3 28.1 C 0 km/h
304 05-07-2010 12:42:02 28.2 C 6.6 g/m*3 28.2 C 0 km/h
305 05-07-2010 12:54:02 27.8 C 6.99 g/m*3 27.8 C 0 km/h
306 05-07-2010 13:06:02 27.6 C 7.45 g/m*3 27.6 C 0 km/h
307 05-07-2010 13:18:01 29.6 C 7.42 g/m*3 29.6 C 0 km/h
308 05-07-2010 13:30:01 28.9 C 7.43 g/m*3 28.9 C 0 km/h
309 05-07-2010 13:42:02 27.1 C 7.76 g/m*3 27.1 C 0 km/h
310 05-07-2010 13:54:02 26.2 C 7.63 g/m*3 26.2 C 0 km/h
311 05-07-2010 14:06:02 26.5 C 7.51 g/m*3 26.5 C 0 km/h
312 05-07-2010 14:18:01 25.8 C 7.94 g/m*3 25.8 C 0 km/h
313 05-07-2010 14:30:01 26.1 C 8.08 g/m*3 26.1 C 0 km/h
314 05-07-2010 14:42:02 26.4 C 8.21 g/m*3 26.4 C 0 km/h
315 05-07-2010 14:54:02 26.2 C 8.37 g/m*3 26.2 C 0 km/h
316 05-07-2010 15:06:02 27.2 C 8.07 g/m*3 27.2 C 0 km/h
317 05-07-2010 15:18:02 26.5 C 8.26 g/m*3 26.5 C 0 km/h
318 05-07-2010 15:30:02 25.8 C 7.94 g/m*3 25.8 C 0 km/h
319 05-07-2010 15:42:02 25.1 C 8.33 g/m*3 25.1 C 0 km/h
320 05-07-2010 15:54:02 24.7 C 8.6 g/m*3 24.7 C 0 km/h
321 05-07-2010 16:06:02 24.2 C 8.8 g/m*3 24.2 C 0 km/h
322 05-07-2010 16:18:02 24.2 C 9.02 g/m*3 24.2 C 0 km/h
323 05-07-2010 16:30:02 25.4 C 8.95 g/m*3 25.4 C 0 km/h
324 05-07-2010 16:42:02 25.1 C 8.8 g/m*3 25.1 C 0 km/h
325 05-07-2010 16:54:02 24.9 C 8.93 g/m*3 24.9 C 0 km/h
Sensor: Nr:Datum:Temp:Abs-Feuchte:Windchill:Wind:
Aussen-T/F 326 05-07-2010 17:06:02 24.7 C 9.05 g/m*3 24.7 C 0 km/h
327 05-07-2010 17:18:02 24.2 C 9.02 g/m*3 24.2 C 0 km/h
328 05-07-2010 17:30:02 23.7 C 9.41 g/m*3 23.7 C 0 km/h
329 05-07-2010 17:42:02 22.7 C 10.71 g/m*3 22.7 C 0 km/h
330 05-07-2010 17:54:02 22 C 11.65 g/m*3 22 C 0 km/h
331 05-07-2010 18:06:02 22.9 C 11.65 g/m*3 22.9 C 0 km/h
332 05-07-2010 18:18:03 23 C 10.48 g/m*3 23 C 0 km/h
333 05-07-2010 18:30:03 21.6 C 11 g/m*3 21.6 C 0 km/h
334 05-07-2010 18:42:02 19.4 C 12.18 g/m*3 19.4 C 0 km/h
335 05-07-2010 18:54:02 18.6 C 12.73 g/m*3 18.6 C 0 km/h
336 05-07-2010 19:06:02 18.5 C 13.13 g/m*3 18.5 C 0 km/h
337 05-07-2010 19:18:02 18.9 C 13.61 g/m*3 18.9 C 0 km/h
338 05-07-2010 19:30:02 19.7 C 14.09 g/m*3 19.7 C 0 km/h
339 05-07-2010 19:42:02 19.6 C 13.51 g/m*3 19.6 C 0 km/h
340 05-07-2010 19:54:02 19.9 C 13.74 g/m*3 19.9 C 0 km/h
341 05-07-2010 20:06:02 19.9 C 13.4 g/m*3 19.9 C 0 km/h
342 05-07-2010 20:18:02 19.8 C 13.32 g/m*3 19.8 C 0 km/h
343 05-07-2010 20:30:02 19.3 C 13.1 g/m*3 19.3 C 0 km/h
344 05-07-2010 20:42:02 19.1 C 12.95 g/m*3 19.1 C 0 km/h
345 05-07-2010 20:54:02 19.1 C 12.95 g/m*3 19.1 C 0 km/h
346 05-07-2010 21:06:02 19.1 C 13.11 g/m*3 19.1 C 0 km/h
347 05-07-2010 21:18:02 19.1 C 12.95 g/m*3 19.1 C 0 km/h
348 05-07-2010 21:30:02 19 C 12.87 g/m*3 19 C 0 km/h
349 05-07-2010 21:42:01 18.9 C 12.96 g/m*3 18.9 C 0 km/h
350 05-07-2010 21:54:02 18.7 C 12.81 g/m*3 18.7 C 0 km/h
Sensor: Nr:Datum:Temp:Abs-Feuchte:Windchill:Wind:
Aussen-T/F 351 05-07-2010 22:06:01 18.7 C 12.81 g/m*3 18.7 C 0 km/h
352 05-07-2010 22:18:02 18.8 C 12.88 g/m*3 18.8 C 0 km/h
353 05-07-2010 22:30:02 18.7 C 12.81 g/m*3 18.7 C 0 km/h
354 05-07-2010 22:42:01 18.5 C 12.66 g/m*3 18.5 C 0 km/h
355 05-07-2010 22:54:01 18.4 C 12.74 g/m*3 18.4 C 0 km/h
356 05-07-2010 23:07:02 18.2 C 12.59 g/m*3 18.2 C 0 km/h
357 05-07-2010 23:19:02 18 C 12.59 g/m*3 18 C 0 km/h
358 05-07-2010 23:31:02 17.9 C 12.67 g/m*3 17.9 C 0 km/h
359 05-07-2010 23:43:02 17.7 C 12.37 g/m*3 17.7 C 0 km/h
360 05-07-2010 23:55:02 17.6 C 12.15 g/m*3 17.6 C 0 km/h
361 06-07-2010 00:07:02 17.5 C 12.08 g/m*3 17.5 C 0 km/h
362 06-07-2010 00:19:02 17.2 C 11.86 g/m*3 17.2 C 0 km/h
363 06-07-2010 00:31:02 17.1 C 11.94 g/m*3 17.1 C 0 km/h
364 06-07-2010 00:43:02 17.1 C 11.94 g/m*3 17.1 C 0 km/h
365 06-07-2010 00:55:02 17.3 C 12.08 g/m*3 17.3 C 0 km/h
366 06-07-2010 01:07:02 17.3 C 11.93 g/m*3 17.3 C 0 km/h
367 06-07-2010 01:19:02 17.1 C 11.79 g/m*3 17.1 C 0 km/h
368 06-07-2010 01:31:02 17.2 C 11.86 g/m*3 17.2 C 0 km/h
369 06-07-2010 01:43:02 17.3 C 11.79 g/m*3 17.3 C 0 km/h
370 06-07-2010 01:55:02 17.3 C 11.49 g/m*3 17.3 C 0 km/h
371 06-07-2010 02:07:02 17.1 C 11.21 g/m*3 17.1 C 0 km/h
372 06-07-2010 02:19:02 17.3 C 11.49 g/m*3 17.3 C 0 km/h
373 06-07-2010 02:31:02 16.9 C 11.22 g/m*3 16.9 C 0 km/h
374 06-07-2010 02:43:02 16.6 C 11.16 g/m*3 16.6 C 0 km/h
375 06-07-2010 02:55:02 16.3 C 11.24 g/m*3 16.3 C 0 km/h
Sensor: Nr:Datum:Temp:Abs-Feuchte:Windchill:Wind:
Aussen-T/F 376 06-07-2010 03:07:02 16.4 C 11.31 g/m*3 16.4 C 0 km/h
377 06-07-2010 03:19:03 16.4 C 11.17 g/m*3 16.4 C 0 km/h
378 06-07-2010 03:31:03 16.5 C 10.95 g/m*3 16.5 C 0 km/h
379 06-07-2010 03:43:03 16.4 C 10.75 g/m*3 16.4 C 0 km/h
380 06-07-2010 03:55:03 16 C 10.22 g/m*3 16 C 0 km/h
381 06-07-2010 04:07:03 15.7 C 10.3 g/m*3 15.7 C 0 km/h
382 06-07-2010 04:19:03 15.4 C 10.12 g/m*3 15.4 C 0 km/h
383 06-07-2010 04:31:03 15.1 C 10.06 g/m*3 15.1 C 0 km/h
384 06-07-2010 04:43:03 15 C 10 g/m*3 15 C 0 km/h
385 06-07-2010 04:55:03 14.8 C 10.01 g/m*3 14.8 C 0 km/h
386 06-07-2010 05:07:03 14.8 C 10.13 g/m*3 14.8 C 0 km/h
387 06-07-2010 05:19:03 15 C 10.39 g/m*3 15 C 0 km/h
388 06-07-2010 05:31:03 15 C 10.26 g/m*3 15 C 0 km/h
389 06-07-2010 05:43:03 14.8 C 10.26 g/m*3 14.8 C 0 km/h
390 06-07-2010 05:55:03 14.7 C 10.2 g/m*3 14.7 C 0 km/h
391 06-07-2010 06:07:03 14.7 C 10.2 g/m*3 14.7 C 0 km/h
392 06-07-2010 06:19:03 14.6 C 10.01 g/m*3 14.6 C 0 km/h
393 06-07-2010 06:31:03 14.6 C 10.01 g/m*3 14.6 C 0 km/h
394 06-07-2010 06:43:03 14.7 C 9.69 g/m*3 14.7 C 0 km/h
395 06-07-2010 06:55:03 14.7 C 9.69 g/m*3 14.7 C 0 km/h
396 06-07-2010 07:07:02 14.8 C 9.75 g/m*3 14.8 C 0 km/h
397 06-07-2010 07:19:02 14.9 C 9.81 g/m*3 14.9 C 0 km/h
398 06-07-2010 07:31:02 15.1 C 9.68 g/m*3 15.1 C 0 km/h
399 06-07-2010 07:43:02 15.2 C 9.61 g/m*3 15.2 C 0 km/h
400 06-07-2010 07:55:02 15.4 C 9.72 g/m*3 15.4 C 0 km/h
Sensor: Nr:Datum:Temp:Abs-Feuchte:Windchill:Wind:
Aussen-T/F 401 06-07-2010 08:07:02 15.5 C 9.65 g/m*3 15.5 C 0 km/h
402 06-07-2010 08:19:02 15.7 C 9.5 g/m*3 15.7 C 0 km/h
403 06-07-2010 08:31:01 15.8 C 9.29 g/m*3 15.8 C 0 km/h
404 06-07-2010 08:43:01 16.1 C 9.05 g/m*3 16.1 C 0 km/h
405 06-07-2010 08:55:02 16.4 C 8.65 g/m*3 16.4 C 0 km/h
406 06-07-2010 09:07:01 16.8 C 8.72 g/m*3 16.8 C 0 km/h
407 06-07-2010 09:19:01 17.3 C 8.54 g/m*3 17.3 C 0 km/h
408 06-07-2010 09:31:02 17.5 C 8.05 g/m*3 17.5 C 0 km/h
409 06-07-2010 09:43:02 18 C 7.99 g/m*3 18 C 0 km/h
410 06-07-2010 09:55:02 18.1 C 8.03 g/m*3 18.1 C 0 km/h
411 06-07-2010 10:07:01 19 C 7.66 g/m*3 19 C 0 km/h
412 06-07-2010 10:19:01 19.4 C 7.51 g/m*3 19.4 C 0 km/h
413 06-07-2010 10:31:02 20.2 C 7.34 g/m*3 20.2 C 0 km/h
414 06-07-2010 10:43:02 20.4 C 7.08 g/m*3 20.4 C 0 km/h
415 06-07-2010 10:55:02 21.1 C 6.63 g/m*3 21.1 C 0 km/h
416 06-07-2010 11:07:02 20.9 C 6.92 g/m*3 20.9 C 0 km/h
417 06-07-2010 11:19:02 20.7 C 6.66 g/m*3 20.7 C 0 km/h
418 06-07-2010 11:31:02 22 C 6.79 g/m*3 22 C 0 km/h
419 06-07-2010 11:43:03 21.3 C 6.34 g/m*3 21.3 C 0 km/h
420 06-07-2010 11:55:02 22.5 C 6.19 g/m*3 22.5 C 0 km/h
421 06-07-2010 12:07:02 21.9 C 6.18 g/m*3 21.9 C 0 km/h
422 06-07-2010 12:19:02 22.7 C 5.25 g/m*3 22.7 C 0 km/h
423 06-07-2010 12:31:02 23.3 C 5.23 g/m*3 23.3 C 0 km/h
424 06-07-2010 12:43:02 22.5 C 5.39 g/m*3 22.5 C 0 km/h
425 06-07-2010 12:55:02 24.7 C 5.43 g/m*3 24.7 C 0 km/h
Sensor: Nr:Datum:Temp:Abs-Feuchte:Windchill:Wind:
Aussen-T/F 426 06-07-2010 13:07:02 23.6 C 5.32 g/m*3 23.6 C 0 km/h
427 06-07-2010 13:19:02 24.5 C 4.92 g/m*3 24.5 C 0 km/h
428 06-07-2010 13:31:02 27 C 5.15 g/m*3 27 C 0 km/h
429 06-07-2010 13:43:02 23.4 C 4.63 g/m*3 23.4 C 0 km/h
430 06-07-2010 13:55:02 24.5 C 5.15 g/m*3 24.5 C 0 km/h
431 06-07-2010 14:07:02 24.1 C 4.59 g/m*3 24.1 C 0 km/h
432 06-07-2010 14:19:02 23.6 C 4.68 g/m*3 23.6 C 0 km/h
433 06-07-2010 14:31:02 23.8 C 5.16 g/m*3 23.8 C 0 km/h
434 06-07-2010 14:43:02 25.3 C 4.68 g/m*3 25.3 C 0 km/h
435 06-07-2010 14:55:02 24.6 C 4.5 g/m*3 24.6 C 0 km/h
436 06-07-2010 15:07:02 24.2 C 4.4 g/m*3 24.2 C 0 km/h
437 06-07-2010 15:19:02 24.8 C 4.55 g/m*3 24.8 C 0 km/h
438 06-07-2010 15:31:01 23.7 C 4.28 g/m*3 23.7 C 0 km/h
439 06-07-2010 15:43:01 24.9 C 4.58 g/m*3 24.9 C 0 km/h
440 06-07-2010 15:55:02 25 C 4.6 g/m*3 25 C 0 km/h
441 06-07-2010 16:07:01 25.2 C 4.66 g/m*3 25.2 C 0 km/h
442 06-07-2010 16:19:01 25.4 C 4.71 g/m*3 25.4 C 0 km/h
443 06-07-2010 16:31:02 26.6 C 5.03 g/m*3 26.6 C 0 km/h
444 06-07-2010 16:43:02 25.7 C 4.79 g/m*3 25.7 C 0 km/h
445 06-07-2010 16:55:02 26.3 C 4.95 g/m*3 26.3 C 0 km/h
446 06-07-2010 17:07:01 27.3 C 5.23 g/m*3 27.3 C 0 km/h
447 06-07-2010 17:19:02 26.3 C 4.95 g/m*3 26.3 C 0 km/h
448 06-07-2010 17:31:02 26.7 C 5.06 g/m*3 26.7 C 0 km/h
449 06-07-2010 17:43:02 27.1 C 5.18 g/m*3 27.1 C 0 km/h
450 06-07-2010 17:55:01 27.2 C 5.2 g/m*3 27.2 C 0 km/h
Sensor: Nr:Datum:Temp:Abs-Feuchte:Windchill:Wind:
Aussen-T/F 451 06-07-2010 18:07:02 25.1 C 4.63 g/m*3 25.1 C 0 km/h
452 06-07-2010 18:19:01 25.3 C 4.68 g/m*3 25.3 C 0 km/h
453 06-07-2010 18:31:02 25.5 C 4.73 g/m*3 25.5 C 0 km/h
454 06-07-2010 18:43:02 25.3 C 4.68 g/m*3 25.3 C 0 km/h
455 06-07-2010 18:55:02 26.1 C 4.9 g/m*3 26.1 C 0 km/h
456 06-07-2010 19:07:02 26 C 4.87 g/m*3 26 C 0 km/h
457 06-07-2010 19:19:01 25.8 C 5.06 g/m*3 25.8 C 0 km/h
458 06-07-2010 19:31:02 25.1 C 4.63 g/m*3 25.1 C 0 km/h
459 06-07-2010 19:43:03 24.1 C 4.59 g/m*3 24.1 C 0 km/h
460 06-07-2010 19:55:02 24.3 C 4.87 g/m*3 24.3 C 0 km/h
461 06-07-2010 20:07:02 24.7 C 4.98 g/m*3 24.7 C 0 km/h
462 06-07-2010 20:19:01 25.2 C 4.89 g/m*3 25.2 C 0 km/h
463 06-07-2010 20:31:02 24.3 C 5.09 g/m*3 24.3 C 0 km/h
464 06-07-2010 20:43:02 23.7 C 5.78 g/m*3 23.7 C 0 km/h
465 06-07-2010 20:55:02 23.6 C 5.74 g/m*3 23.6 C 0 km/h
466 06-07-2010 21:07:02 23 C 5.96 g/m*3 23 C 0 km/h
467 06-07-2010 21:19:02 22.3 C 6.32 g/m*3 22.3 C 0 km/h
468 06-07-2010 21:31:02 21.2 C 6.12 g/m*3 21.2 C 0 km/h
469 06-07-2010 21:43:02 20.5 C 6.41 g/m*3 20.5 C 0 km/h
470 06-07-2010 21:55:02 19.8 C 6.32 g/m*3 19.8 C 0 km/h
471 06-07-2010 22:07:02 19.3 C 6.3 g/m*3 19.3 C 0 km/h
472 06-07-2010 22:19:02 19.1 C 6.39 g/m*3 19.1 C 0 km/h
473 06-07-2010 22:31:02 18.9 C 6.48 g/m*3 18.9 C 0 km/h
474 06-07-2010 22:43:02 18.6 C 6.68 g/m*3 18.6 C 0 km/h
475 06-07-2010 22:56:03 18.3 C 6.72 g/m*3 18.3 C 0 km/h
Sensor: Nr:Datum:Temp:Abs-Feuchte:Windchill:Wind:
Aussen-T/F 476 06-07-2010 23:08:03 18.1 C 6.95 g/m*3 18.1 C 0 km/h
477 06-07-2010 23:20:03 17.8 C 7.13 g/m*3 17.8 C 0 km/h
478 06-07-2010 23:32:03 17.7 C 6.79 g/m*3 17.7 C 0 km/h
479 06-07-2010 23:44:03 17.5 C 6.56 g/m*3 17.5 C 0 km/h
480 06-07-2010 23:56:03 17.3 C 6.63 g/m*3 17.3 C 0 km/h
481 07-07-2010 00:08:03 16.8 C 6.72 g/m*3 16.8 C 0 km/h
482 07-07-2010 00:20:03 16.7 C 6.82 g/m*3 16.7 C 0 km/h
483 07-07-2010 00:32:03 16.5 C 6.74 g/m*3 16.5 C 0 km/h
484 07-07-2010 00:44:03 16.4 C 6.98 g/m*3 16.4 C 0 km/h
485 07-07-2010 00:56:03 16.1 C 7.13 g/m*3 16.1 C 0 km/h
486 07-07-2010 01:08:04 15.8 C 7.27 g/m*3 15.8 C 0 km/h
487 07-07-2010 01:20:04 15.7 C 7.36 g/m*3 15.7 C 0 km/h
488 07-07-2010 01:32:04 15.6 C 7.45 g/m*3 15.6 C 0 km/h
489 07-07-2010 01:44:04 15.3 C 7.44 g/m*3 15.3 C 0 km/h
490 07-07-2010 01:56:04 15.2 C 7.53 g/m*3 15.2 C 0 km/h
491 07-07-2010 02:08:04 15.2 C 7.53 g/m*3 15.2 C 0 km/h
492 07-07-2010 02:20:04 15 C 7.69 g/m*3 15 C 0 km/h
493 07-07-2010 02:32:04 14.8 C 7.73 g/m*3 14.8 C 0 km/h
494 07-07-2010 02:44:04 14.6 C 7.63 g/m*3 14.6 C 0 km/h
495 07-07-2010 02:56:04 14.4 C 7.79 g/m*3 14.4 C 0 km/h
496 07-07-2010 03:08:04 14.1 C 7.77 g/m*3 14.1 C 0 km/h
497 07-07-2010 03:20:04 13.9 C 7.79 g/m*3 13.9 C 0 km/h
498 07-07-2010 03:32:04 14 C 7.72 g/m*3 14 C 0 km/h
499 07-07-2010 03:44:04 13.9 C 7.79 g/m*3 13.9 C 0 km/h
500 07-07-2010 03:56:04 13.7 C 7.82 g/m*3 13.7 C 0 km/h
Sensor: Nr:Datum:Temp:Abs-Feuchte:Windchill:Wind:
Aussen-T/F 501 07-07-2010 04:08:04 13.5 C 7.72 g/m*3 13.5 C 0 km/h
502 07-07-2010 04:20:04 13.4 C 7.67 g/m*3 13.4 C 0 km/h
503 07-07-2010 04:32:04 13.3 C 7.74 g/m*3 13.3 C 0 km/h
504 07-07-2010 04:44:04 13.2 C 7.81 g/m*3 13.2 C 0 km/h
505 07-07-2010 04:56:04 13.1 C 7.76 g/m*3 13.1 C 0 km/h
506 07-07-2010 05:08:04 13 C 7.83 g/m*3 13 C 0 km/h
507 07-07-2010 05:20:04 12.9 C 8 g/m*3 12.9 C 0 km/h
508 07-07-2010 05:32:05 12.8 C 7.95 g/m*3 12.8 C 0 km/h
509 07-07-2010 05:44:05 12.6 C 8.08 g/m*3 12.6 C 0 km/h
510 07-07-2010 05:56:05 12.5 C 8.14 g/m*3 12.5 C 0 km/h
511 07-07-2010 06:08:05 12.5 C 8.14 g/m*3 12.5 C 0 km/h
512 07-07-2010 06:20:03 12.6 C 8.19 g/m*3 12.6 C 0 km/h
513 07-07-2010 06:32:03 12.7 C 8.24 g/m*3 12.7 C 0 km/h
514 07-07-2010 06:44:03 12.8 C 8.29 g/m*3 12.8 C 0 km/h
515 07-07-2010 06:56:02 12.9 C 8.34 g/m*3 12.9 C 0 km/h
516 07-07-2010 07:08:02 13 C 8.39 g/m*3 13 C 0 km/h
517 07-07-2010 07:20:03 13.2 C 8.38 g/m*3 13.2 C 0 km/h
518 07-07-2010 07:32:02 13.3 C 8.32 g/m*3 13.3 C 0 km/h
519 07-07-2010 07:44:02 13.4 C 8.37 g/m*3 13.4 C 0 km/h
520 07-07-2010 07:56:03 13.8 C 8.46 g/m*3 13.8 C 0 km/h
521 07-07-2010 08:08:02 14.1 C 8.37 g/m*3 14.1 C 0 km/h
522 07-07-2010 08:20:02 14.3 C 8.23 g/m*3 14.3 C 0 km/h
523 07-07-2010 08:32:02 14.7 C 8.44 g/m*3 14.7 C 0 km/h
524 07-07-2010 08:44:02 15.1 C 8.39 g/m*3 15.1 C 0 km/h
525 07-07-2010 08:56:02 15.6 C 8.11 g/m*3 15.6 C 0 km/h
Sensor: Nr:Datum:Temp:Abs-Feuchte:Windchill:Wind:
Aussen-T/F 526 07-07-2010 09:08:02 16.2 C 8.14 g/m*3 16.2 C 0 km/h
527 07-07-2010 09:20:02 16.9 C 8.2 g/m*3 16.9 C 0 km/h
528 07-07-2010 09:32:02 17.7 C 8.15 g/m*3 17.7 C 0 km/h
529 07-07-2010 09:44:02 18.4 C 8.02 g/m*3 18.4 C 0 km/h
530 07-07-2010 09:56:02 19.1 C 8.03 g/m*3 19.1 C 0 km/h
531 07-07-2010 10:08:01 19.8 C 8.03 g/m*3 19.8 C 0 km/h
532 07-07-2010 10:20:01 20.3 C 8.09 g/m*3 20.3 C 0 km/h
533 07-07-2010 10:32:02 21.3 C 8.2 g/m*3 21.3 C 0 km/h
534 07-07-2010 10:44:02 21.7 C 8.01 g/m*3 21.7 C 0 km/h
535 07-07-2010 10:56:02 22.1 C 7.42 g/m*3 22.1 C 0 km/h
536 07-07-2010 11:08:02 23 C 6.58 g/m*3 23 C 0 km/h
537 07-07-2010 11:20:02 23 C 6.17 g/m*3 23 C 0 km/h
538 07-07-2010 11:32:02 23.5 C 5.92 g/m*3 23.5 C 0 km/h
539 07-07-2010 11:44:02 23.9 C 5.62 g/m*3 23.9 C 0 km/h
540 07-07-2010 11:56:01 24.7 C 5.66 g/m*3 24.7 C 0 km/h
541 07-07-2010 12:08:02 25.4 C 5.41 g/m*3 25.4 C 0 km/h
542 07-07-2010 12:20:01 26.1 C 5.14 g/m*3 26.1 C 0 km/h
543 07-07-2010 12:32:01 26.5 C 5.26 g/m*3 26.5 C 0 km/h
544 07-07-2010 12:44:01 28 C 5.44 g/m*3 28 C 0 km/h
545 07-07-2010 12:56:02 27.9 C 5.41 g/m*3 27.9 C 0 km/h
546 07-07-2010 13:08:02 28.1 C 5.47 g/m*3 28.1 C 0 km/h
547 07-07-2010 13:20:01 28.4 C 5.56 g/m*3 28.4 C 0 km/h
548 07-07-2010 13:32:02 30.1 C 6.1 g/m*3 30.1 C 0 km/h
549 07-07-2010 13:44:02 30.5 C 6.23 g/m*3 30.5 C 0 km/h
550 07-07-2010 13:56:02 29.8 C 6 g/m*3 29.8 C 0 km/h
Sensor: Nr:Datum:Temp:Abs-Feuchte:Windchill:Wind:
Aussen-T/F 551 07-07-2010 14:08:02 28.2 C 5.5 g/m*3 28.2 C 0 km/h
552 07-07-2010 14:20:01 27.7 C 5.35 g/m*3 27.7 C 0 km/h
553 07-07-2010 14:32:02 28.1 C 5.47 g/m*3 28.1 C 0 km/h
554 07-07-2010 14:44:02 28.9 C 5.71 g/m*3 28.9 C 0 km/h
555 07-07-2010 14:56:02 28.8 C 5.68 g/m*3 28.8 C 0 km/h
556 07-07-2010 15:08:02 29.3 C 5.84 g/m*3 29.3 C 0 km/h
557 07-07-2010 15:20:02 30.1 C 6.1 g/m*3 30.1 C 0 km/h
558 07-07-2010 15:32:02 30.1 C 6.1 g/m*3 30.1 C 0 km/h
559 07-07-2010 15:44:02 31 C 6.4 g/m*3 31 C 0 km/h
560 07-07-2010 15:56:02 31.5 C 6.57 g/m*3 31.5 C 0 km/h
561 07-07-2010 16:08:02 31.8 C 6.68 g/m*3 31.8 C 0 km/h
562 07-07-2010 16:20:02 31.9 C 6.72 g/m*3 31.9 C 0 km/h
563 07-07-2010 16:32:02 31.7 C 6.64 g/m*3 31.7 C 0 km/h
564 07-07-2010 16:44:02 32 C 6.75 g/m*3 32 C 0 km/h
565 07-07-2010 16:56:01 32.4 C 6.9 g/m*3 32.4 C 0 km/h
566 07-07-2010 17:08:02 32.5 C 6.93 g/m*3 32.5 C 0 km/h
567 07-07-2010 17:20:02 32.1 C 6.79 g/m*3 32.1 C 0 km/h
568 07-07-2010 17:32:02 32.7 C 7.01 g/m*3 32.7 C 0 km/h
569 07-07-2010 17:44:02 32.6 C 6.97 g/m*3 32.6 C 0 km/h
570 07-07-2010 17:56:02 32.8 C 7.04 g/m*3 32.8 C 0 km/h
571 07-07-2010 18:08:02 33 C 7.12 g/m*3 33 C 0 km/h
572 07-07-2010 18:20:02 33.2 C 7.2 g/m*3 33.2 C 0 km/h
573 07-07-2010 18:32:01 32.8 C 7.04 g/m*3 32.8 C 0 km/h
574 07-07-2010 18:44:01 32.8 C 7.04 g/m*3 32.8 C 0 km/h
575 07-07-2010 18:56:02 32.6 C 6.97 g/m*3 32.6 C 0 km/h
Sensor: Nr:Datum:Temp:Abs-Feuchte:Windchill:Wind:
Aussen-T/F 576 07-07-2010 19:08:02 32.5 C 6.93 g/m*3 32.5 C 0 km/h
577 07-07-2010 19:20:02 32.5 C 6.93 g/m*3 32.5 C 0 km/h
578 07-07-2010 19:32:02 32.5 C 6.93 g/m*3 32.5 C 0 km/h
579 07-07-2010 19:44:02 32.4 C 6.9 g/m*3 32.4 C 0 km/h
580 07-07-2010 19:56:02 32.1 C 6.79 g/m*3 32.1 C 0 km/h
581 07-07-2010 20:08:01 32 C 6.75 g/m*3 32 C 0 km/h
582 07-07-2010 20:20:02 31.7 C 6.64 g/m*3 31.7 C 0 km/h
583 07-07-2010 20:32:02 31.3 C 6.5 g/m*3 31.3 C 0 km/h
584 07-07-2010 20:44:02 30.9 C 6.37 g/m*3 30.9 C 0 km/h
585 07-07-2010 20:56:02 30.4 C 6.2 g/m*3 30.4 C 0 km/h
586 07-07-2010 21:08:02 29.1 C 6.35 g/m*3 29.1 C 0 km/h
587 07-07-2010 21:20:02 27.5 C 6.61 g/m*3 27.5 C 0 km/h
588 07-07-2010 21:32:02 26.5 C 6.76 g/m*3 26.5 C 0 km/h
589 07-07-2010 21:44:03 25.9 C 6.78 g/m*3 25.9 C 0 km/h
590 07-07-2010 21:56:01 25.3 C 6.79 g/m*3 25.3 C 0 km/h
591 07-07-2010 22:08:02 24.9 C 6.87 g/m*3 24.9 C 0 km/h
592 07-07-2010 22:20:01 24.6 C 6.75 g/m*3 24.6 C 0 km/h
593 07-07-2010 22:32:01 24.4 C 6.9 g/m*3 24.4 C 0 km/h
594 07-07-2010 22:44:01 24.1 C 6.78 g/m*3 24.1 C 0 km/h
595 07-07-2010 22:56:01 24 C 6.96 g/m*3 24 C 0 km/h
596 07-07-2010 23:08:01 23.8 C 7.1 g/m*3 23.8 C 0 km/h
597 07-07-2010 23:20:02 23.7 C 6.84 g/m*3 23.7 C 0 km/h
598 07-07-2010 23:32:01 23.7 C 7.06 g/m*3 23.7 C 0 km/h
599 07-07-2010 23:44:01 23.7 C 7.27 g/m*3 23.7 C 0 km/h
600 07-07-2010 23:56:01 23.6 C 7.23 g/m*3 23.6 C 0 km/h
Sensor: Nr:Datum:Temp:Abs-Feuchte:Windchill:Wind:
Aussen-T/F 601 08-07-2010 00:08:01 23.3 C 7.32 g/m*3 23.3 C 0 km/h
602 08-07-2010 00:21:04 22.8 C 7.52 g/m*3 22.8 C 0 km/h
603 08-07-2010 00:33:04 22.3 C 7.7 g/m*3 22.3 C 0 km/h
604 08-07-2010 00:45:04 22 C 7.96 g/m*3 22 C 0 km/h
605 08-07-2010 00:57:04 21.5 C 8.11 g/m*3 21.5 C 0 km/h
606 08-07-2010 01:09:04 21.1 C 7.92 g/m*3 21.1 C 0 km/h
607 08-07-2010 01:21:04 20.8 C 7.97 g/m*3 20.8 C 0 km/h
608 08-07-2010 01:33:04 20.4 C 7.96 g/m*3 20.4 C 0 km/h
609 08-07-2010 01:45:04 20.3 C 8.09 g/m*3 20.3 C 0 km/h
610 08-07-2010 01:57:04 20.1 C 8 g/m*3 20.1 C 0 km/h
611 08-07-2010 02:09:04 20 C 8.3 g/m*3 20 C 0 km/h
612 08-07-2010 02:21:04 19.9 C 8.42 g/m*3 19.9 C 0 km/h
613 08-07-2010 02:33:04 19.8 C 8.2 g/m*3 19.8 C 0 km/h
614 08-07-2010 02:45:04 19.7 C 7.98 g/m*3 19.7 C 0 km/h
615 08-07-2010 02:57:05 19.5 C 8.06 g/m*3 19.5 C 0 km/h
616 08-07-2010 03:09:05 19.4 C 8.01 g/m*3 19.4 C 0 km/h
617 08-07-2010 03:21:05 19.6 C 8.1 g/m*3 19.6 C 0 km/h
618 08-07-2010 03:33:05 19.6 C 8.1 g/m*3 19.6 C 0 km/h
619 08-07-2010 03:45:05 19.3 C 8.29 g/m*3 19.3 C 0 km/h
620 08-07-2010 03:57:05 19.1 C 8.2 g/m*3 19.1 C 0 km/h
621 08-07-2010 04:09:05 18.8 C 8.21 g/m*3 18.8 C 0 km/h
622 08-07-2010 04:21:05 18.7 C 8.33 g/m*3 18.7 C 0 km/h
623 08-07-2010 04:33:05 18.4 C 8.18 g/m*3 18.4 C 0 km/h
624 08-07-2010 04:45:05 18.4 C 8.65 g/m*3 18.4 C 0 km/h
625 08-07-2010 04:57:05 18.3 C 8.76 g/m*3 18.3 C 0 km/h
Sensor: Nr:Datum:Temp:Abs-Feuchte:Windchill:Wind:
Aussen-T/F 626 08-07-2010 05:09:05 18.1 C 8.5 g/m*3 18.1 C 0 km/h
627 08-07-2010 05:21:05 17.9 C 8.4 g/m*3 17.9 C 0 km/h
628 08-07-2010 05:33:05 17.8 C 8.5 g/m*3 17.8 C 0 km/h
629 08-07-2010 05:45:05 17.6 C 8.4 g/m*3 17.6 C 0 km/h
630 08-07-2010 05:57:05 17.5 C 8.2 g/m*3 17.5 C 0 km/h
631 08-07-2010 06:09:05 17.4 C 8.15 g/m*3 17.4 C 0 km/h
632 08-07-2010 06:21:03 17.3 C 8.4 g/m*3 17.3 C 0 km/h
633 08-07-2010 06:33:03 17.3 C 8.4 g/m*3 17.3 C 0 km/h
634 08-07-2010 06:45:02 17.4 C 8.74 g/m*3 17.4 C 0 km/h
635 08-07-2010 06:57:02 17.5 C 8.8 g/m*3 17.5 C 0 km/h
636 08-07-2010 07:09:02 17.7 C 8.9 g/m*3 17.7 C 0 km/h
637 08-07-2010 07:21:02 17.7 C 8.9 g/m*3 17.7 C 0 km/h
638 08-07-2010 07:33:01 17.9 C 9.01 g/m*3 17.9 C 0 km/h
639 08-07-2010 07:45:02 18.1 C 8.96 g/m*3 18.1 C 0 km/h
640 08-07-2010 07:57:02 18.2 C 8.86 g/m*3 18.2 C 0 km/h
641 08-07-2010 08:09:01 18.5 C 9.02 g/m*3 18.5 C 0 km/h
642 08-07-2010 08:21:02 18.7 C 8.81 g/m*3 18.7 C 0 km/h
643 08-07-2010 08:33:01 19.1 C 8.85 g/m*3 19.1 C 0 km/h
644 08-07-2010 08:45:02 19.4 C 8.84 g/m*3 19.4 C 0 km/h
645 08-07-2010 08:57:02 19.9 C 8.93 g/m*3 19.9 C 0 km/h
646 08-07-2010 09:09:02 20.6 C 9.13 g/m*3 20.6 C 0 km/h
647 08-07-2010 09:21:02 21.3 C 9.32 g/m*3 21.3 C 0 km/h
648 08-07-2010 09:33:02 22.3 C 9.08 g/m*3 22.3 C 0 km/h
649 08-07-2010 09:45:02 23.1 C 9.1 g/m*3 23.1 C 0 km/h
650 08-07-2010 09:57:03 23.9 C 9.09 g/m*3 23.9 C 0 km/h
Sensor: Nr:Datum:Temp:Abs-Feuchte:Windchill:Wind:
Aussen-T/F 651 08-07-2010 10:09:01 24.6 C 9.23 g/m*3 24.6 C 0 km/h
652 08-07-2010 10:21:01 25.3 C 8.66 g/m*3 25.3 C 0 km/h
653 08-07-2010 10:33:02 26 C 9.01 g/m*3 26 C 0 km/h
654 08-07-2010 10:45:02 26.5 C 9.01 g/m*3 26.5 C 0 km/h
655 08-07-2010 10:57:02 27.4 C 8.68 g/m*3 27.4 C 0 km/h
656 08-07-2010 11:09:02 27.8 C 6.99 g/m*3 27.8 C 0 km/h
657 08-07-2010 11:21:01 28.6 C 7.03 g/m*3 28.6 C 0 km/h
658 08-07-2010 11:33:02 29.3 C 7.01 g/m*3 29.3 C 0 km/h
659 08-07-2010 11:45:02 29.9 C 7.54 g/m*3 29.9 C 0 km/h
660 08-07-2010 11:57:02 30.3 C 6.78 g/m*3 30.3 C 0 km/h
661 08-07-2010 12:09:02 30.8 C 6.33 g/m*3 30.8 C 0 km/h
662 08-07-2010 12:21:01 31.4 C 6.54 g/m*3 31.4 C 0 km/h
663 08-07-2010 12:33:02 31.8 C 6.68 g/m*3 31.8 C 0 km/h
664 08-07-2010 12:45:02 31.9 C 6.72 g/m*3 31.9 C 0 km/h
665 08-07-2010 12:57:02 31.6 C 6.61 g/m*3 31.6 C 0 km/h
666 08-07-2010 13:09:02 32.1 C 6.79 g/m*3 32.1 C 0 km/h
667 08-07-2010 13:21:01 32.8 C 7.04 g/m*3 32.8 C 0 km/h
668 08-07-2010 13:33:02 33 C 7.12 g/m*3 33 C 0 km/h
669 08-07-2010 13:45:01 33.3 C 7.23 g/m*3 33.3 C 0 km/h
670 08-07-2010 13:57:01 33.2 C 7.2 g/m*3 33.2 C 0 km/h
671 08-07-2010 14:09:02 32.5 C 6.93 g/m*3 32.5 C 0 km/h
672 08-07-2010 14:21:01 32.3 C 6.86 g/m*3 32.3 C 0 km/h
673 08-07-2010 14:33:02 32.3 C 6.86 g/m*3 32.3 C 0 km/h
674 08-07-2010 14:45:01 32.3 C 6.86 g/m*3 32.3 C 0 km/h
675 08-07-2010 14:57:01 32.4 C 6.9 g/m*3 32.4 C 0 km/h
Sensor: Nr:Datum:Temp:Abs-Feuchte:Windchill:Wind:
Aussen-T/F 676 08-07-2010 15:09:02 32.7 C 7.01 g/m*3 32.7 C 0 km/h
677 08-07-2010 15:21:01 32.9 C 7.08 g/m*3 32.9 C 0 km/h
678 08-07-2010 15:33:01 33.3 C 7.23 g/m*3 33.3 C 0 km/h
679 08-07-2010 15:45:01 33.7 C 7.39 g/m*3 33.7 C 0 km/h
680 08-07-2010 15:57:01 33.7 C 7.39 g/m*3 33.7 C 0 km/h
681 08-07-2010 16:09:02 33.8 C 7.43 g/m*3 33.8 C 0 km/h
682 08-07-2010 16:21:02 33.8 C 7.43 g/m*3 33.8 C 0 km/h
683 08-07-2010 16:33:01 33.9 C 7.46 g/m*3 33.9 C 0 km/h
684 08-07-2010 16:45:01 33.3 C 7.23 g/m*3 33.3 C 0 km/h
685 08-07-2010 16:57:01 33.3 C 7.23 g/m*3 33.3 C 0 km/h
686 08-07-2010 17:09:01 33.3 C 7.23 g/m*3 33.3 C 0 km/h
687 08-07-2010 17:21:02 33.5 C 7.31 g/m*3 33.5 C 0 km/h
688 08-07-2010 17:33:01 34.2 C 7.58 g/m*3 34.2 C 0 km/h
689 08-07-2010 17:45:03 34.6 C 7.74 g/m*3 34.6 C 0 km/h
690 08-07-2010 17:57:03 34.2 C 7.58 g/m*3 34.2 C 0 km/h
691 08-07-2010 18:09:02 34.7 C 7.78 g/m*3 34.7 C 0 km/h
692 08-07-2010 18:21:02 34 C 7.5 g/m*3 34 C 0 km/h
693 08-07-2010 18:33:02 34.2 C 7.58 g/m*3 34.2 C 0 km/h
694 08-07-2010 18:45:02 34.4 C 7.66 g/m*3 34.4 C 0 km/h
695 08-07-2010 18:57:02 34.6 C 7.74 g/m*3 34.6 C 0 km/h
696 08-07-2010 19:09:02 34.5 C 7.7 g/m*3 34.5 C 0 km/h
697 08-07-2010 19:21:02 34.4 C 7.66 g/m*3 34.4 C 0 km/h
698 08-07-2010 19:33:02 34.1 C 7.54 g/m*3 34.1 C 0 km/h
699 08-07-2010 19:45:02 33.9 C 7.46 g/m*3 33.9 C 0 km/h
700 08-07-2010 19:57:03 33.8 C 7.43 g/m*3 33.8 C 0 km/h
Sensor: Nr:Datum:Temp:Abs-Feuchte:Windchill:Wind:
Aussen-T/F 701 08-07-2010 20:09:01 33.7 C 7.39 g/m*3 33.7 C 0 km/h
702 08-07-2010 20:21:01 33.3 C 7.23 g/m*3 33.3 C 0 km/h
703 08-07-2010 20:33:02 33 C 7.12 g/m*3 33 C 0 km/h
704 08-07-2010 20:45:02 32.7 C 7.01 g/m*3 32.7 C 0 km/h
705 08-07-2010 20:57:02 32.3 C 7.2 g/m*3 32.3 C 0 km/h
706 08-07-2010 21:09:02 31.4 C 7.52 g/m*3 31.4 C 0 km/h
707 08-07-2010 21:21:02 30.4 C 8.37 g/m*3 30.4 C 0 km/h
708 08-07-2010 21:33:02 29.9 C 8.45 g/m*3 29.9 C 0 km/h
709 08-07-2010 21:45:02 29.3 C 8.47 g/m*3 29.3 C 0 km/h
710 08-07-2010 21:57:02 28.9 C 8.57 g/m*3 28.9 C 0 km/h
711 08-07-2010 22:09:03 28.4 C 8.06 g/m*3 28.4 C 0 km/h
712 08-07-2010 22:21:02 28.3 C 8.29 g/m*3 28.3 C 0 km/h
713 08-07-2010 22:33:02 28 C 8.16 g/m*3 28 C 0 km/h
714 08-07-2010 22:46:02 27.8 C 8.34 g/m*3 27.8 C 0 km/h
715 08-07-2010 22:58:02 27.6 C 8.25 g/m*3 27.6 C 0 km/h
716 08-07-2010 23:10:02 27.5 C 8.2 g/m*3 27.5 C 0 km/h
717 08-07-2010 23:22:02 27.2 C 8.33 g/m*3 27.2 C 0 km/h
718 08-07-2010 23:34:03 27 C 7.98 g/m*3 27 C 0 km/h
719 08-07-2010 23:46:03 27 C 7.98 g/m*3 27 C 0 km/h
720 08-07-2010 23:58:03 26.9 C 7.93 g/m*3 26.9 C 0 km/h
721 09-07-2010 00:10:03 26.8 C 7.89 g/m*3 26.8 C 0 km/h
722 09-07-2010 00:22:03 26.2 C 8.12 g/m*3 26.2 C 0 km/h
723 09-07-2010 00:34:03 25.5 C 8.29 g/m*3 25.5 C 0 km/h
724 09-07-2010 00:46:03 25.3 C 8.66 g/m*3 25.3 C 0 km/h
725 09-07-2010 00:58:03 24.5 C 8.95 g/m*3 24.5 C 0 km/h
Sensor: Nr:Datum:Temp:Abs-Feuchte:Windchill:Wind:
Aussen-T/F 726 09-07-2010 01:10:03 24.3 C 8.85 g/m*3 24.3 C 0 km/h
727 09-07-2010 01:22:03 24.1 C 8.75 g/m*3 24.1 C 0 km/h
728 09-07-2010 01:34:03 23.7 C 8.77 g/m*3 23.7 C 0 km/h
729 09-07-2010 01:46:03 23.5 C 8.88 g/m*3 23.5 C 0 km/h
730 09-07-2010 01:58:03 23.3 C 8.78 g/m*3 23.3 C 0 km/h
731 09-07-2010 02:10:03 23 C 8.84 g/m*3 23 C 0 km/h
732 09-07-2010 02:22:03 22.8 C 9.14 g/m*3 22.8 C 0 km/h
733 09-07-2010 02:34:03 22.4 C 9.14 g/m*3 22.4 C 0 km/h
734 09-07-2010 02:46:03 22 C 8.73 g/m*3 22 C 0 km/h
735 09-07-2010 02:58:03 21.8 C 8.83 g/m*3 21.8 C 0 km/h
736 09-07-2010 03:10:03 21.7 C 8.97 g/m*3 21.7 C 0 km/h
737 09-07-2010 03:22:03 21.4 C 9.37 g/m*3 21.4 C 0 km/h
738 09-07-2010 03:34:03 21.3 C 9.32 g/m*3 21.3 C 0 km/h
739 09-07-2010 03:46:04 21 C 9.16 g/m*3 21 C 0 km/h
740 09-07-2010 03:58:04 20.8 C 9.23 g/m*3 20.8 C 0 km/h
741 09-07-2010 04:10:04 20.5 C 9.43 g/m*3 20.5 C 0 km/h
742 09-07-2010 04:22:04 20.3 C 9.32 g/m*3 20.3 C 0 km/h
743 09-07-2010 04:34:04 20.2 C 9.44 g/m*3 20.2 C 0 km/h
744 09-07-2010 04:46:04 20 C 9.51 g/m*3 20 C 0 km/h
745 09-07-2010 04:58:04 19.8 C 9.57 g/m*3 19.8 C 0 km/h
746 09-07-2010 05:10:04 19.4 C 9.51 g/m*3 19.4 C 0 km/h
747 09-07-2010 05:22:04 19.3 C 9.45 g/m*3 19.3 C 0 km/h
748 09-07-2010 05:34:04 19.2 C 9.4 g/m*3 19.2 C 0 km/h
749 09-07-2010 05:46:04 19.1 C 9.51 g/m*3 19.1 C 0 km/h
750 09-07-2010 05:58:04 19.1 C 9.51 g/m*3 19.1 C 0 km/h
Sensor: Nr:Datum:Temp:Abs-Feuchte:Windchill:Wind:
Aussen-T/F 751 09-07-2010 06:10:04 19 C 9.78 g/m*3 19 C 0 km/h
752 09-07-2010 06:22:04 19.1 C 9.84 g/m*3 19.1 C 0 km/h
753 09-07-2010 06:34:04 18.9 C 10.04 g/m*3 18.9 C 0 km/h
754 09-07-2010 06:46:04 19.1 C 10 g/m*3 19.1 C 0 km/h
755 09-07-2010 06:58:04 19.2 C 10.22 g/m*3 19.2 C 0 km/h
756 09-07-2010 07:10:02 19.3 C 10.12 g/m*3 19.3 C 0 km/h
757 09-07-2010 07:22:02 19.4 C 10.18 g/m*3 19.4 C 0 km/h
758 09-07-2010 07:34:02 19.9 C 10.31 g/m*3 19.9 C 0 km/h
759 09-07-2010 07:46:02 20.3 C 9.85 g/m*3 20.3 C 0 km/h
760 09-07-2010 07:58:02 20.6 C 10.02 g/m*3 20.6 C 0 km/h
761 09-07-2010 08:10:01 20.8 C 9.96 g/m*3 20.8 C 0 km/h
762 09-07-2010 08:22:01 21.3 C 10.07 g/m*3 21.3 C 0 km/h
763 09-07-2010 08:34:02 21.5 C 9.99 g/m*3 21.5 C 0 km/h
764 09-07-2010 08:46:02 21.8 C 9.98 g/m*3 21.8 C 0 km/h
765 09-07-2010 08:58:02 22.1 C 9.76 g/m*3 22.1 C 0 km/h
766 09-07-2010 09:10:02 22.6 C 10.04 g/m*3 22.6 C 0 km/h
767 09-07-2010 09:22:02 23.3 C 10.04 g/m*3 23.3 C 0 km/h
768 09-07-2010 09:34:02 24.1 C 10.06 g/m*3 24.1 C 0 km/h
769 09-07-2010 09:46:02 25 C 10.13 g/m*3 25 C 0 km/h
770 09-07-2010 09:58:02 25.8 C 10.35 g/m*3 25.8 C 0 km/h
771 09-07-2010 10:10:02 26.5 C 10.26 g/m*3 26.5 C 0 km/h
772 09-07-2010 10:22:02 27.3 C 10.2 g/m*3 27.3 C 0 km/h
773 09-07-2010 10:34:02 27.8 C 10.49 g/m*3 27.8 C 0 km/h
774 09-07-2010 10:46:01 28.8 C 10.23 g/m*3 28.8 C 0 km/h
775 09-07-2010 10:58:01 29.3 C 10.22 g/m*3 29.3 C 0 km/h
Sensor: Nr:Datum:Temp:Abs-Feuchte:Windchill:Wind:
Aussen-T/F 776 09-07-2010 11:10:02 30 C 10.01 g/m*3 30 C 0 km/h
777 09-07-2010 11:22:01 30.2 C 10.42 g/m*3 30.2 C 0 km/h
778 09-07-2010 11:34:01 30.8 C 9.5 g/m*3 30.8 C 0 km/h
779 09-07-2010 11:46:01 31.3 C 8.46 g/m*3 31.3 C 0 km/h
780 09-07-2010 11:58:01 31.8 C 7.35 g/m*3 31.8 C 0 km/h
781 09-07-2010 12:10:02 32.3 C 6.86 g/m*3 32.3 C 0 km/h
782 09-07-2010 12:22:01 32.7 C 7.01 g/m*3 32.7 C 0 km/h
783 09-07-2010 12:34:01 33.2 C 7.2 g/m*3 33.2 C 0 km/h
784 09-07-2010 12:46:01 33.6 C 7.35 g/m*3 33.6 C 0 km/h
785 09-07-2010 12:58:01 33.9 C 7.46 g/m*3 33.9 C 0 km/h
786 09-07-2010 13:10:02 34.2 C 7.58 g/m*3 34.2 C 0 km/h
787 09-07-2010 13:22:02 34.2 C 7.58 g/m*3 34.2 C 0 km/h
788 09-07-2010 13:34:01 34.6 C 7.74 g/m*3 34.6 C 0 km/h
789 09-07-2010 13:46:01 35 C 7.91 g/m*3 35 C 0 km/h
790 09-07-2010 13:58:01 34.8 C 7.82 g/m*3 34.8 C 0 km/h
791 09-07-2010 14:10:02 33.9 C 7.46 g/m*3 33.9 C 0 km/h
792 09-07-2010 14:22:02 33.5 C 7.31 g/m*3 33.5 C 0 km/h
793 09-07-2010 14:34:01 33.1 C 7.16 g/m*3 33.1 C 0 km/h
794 09-07-2010 14:46:01 33 C 7.12 g/m*3 33 C 0 km/h
795 09-07-2010 14:58:01 32.8 C 7.04 g/m*3 32.8 C 0 km/h
796 09-07-2010 15:10:02 33.2 C 7.2 g/m*3 33.2 C 0 km/h
797 09-07-2010 15:22:02 33.2 C 7.2 g/m*3 33.2 C 0 km/h
798 09-07-2010 15:34:01 33.8 C 7.43 g/m*3 33.8 C 0 km/h
799 09-07-2010 15:46:02 33.9 C 7.46 g/m*3 33.9 C 0 km/h
800 09-07-2010 15:58:02 33.3 C 7.23 g/m*3 33.3 C 0 km/h
Sensor: Nr:Datum:Temp:Abs-Feuchte:Windchill:Wind:
Aussen-T/F 801 09-07-2010 16:10:01 33.2 C 7.2 g/m*3 33.2 C 0 km/h
802 09-07-2010 16:22:02 32.9 C 7.08 g/m*3 32.9 C 0 km/h
803 09-07-2010 16:34:01 32.1 C 7.13 g/m*3 32.1 C 0 km/h
804 09-07-2010 16:46:03 31.8 C 8.35 g/m*3 31.8 C 0 km/h
805 09-07-2010 16:58:03 31.4 C 8.83 g/m*3 31.4 C 0 km/h
806 09-07-2010 17:10:02 31.2 C 8.73 g/m*3 31.2 C 0 km/h
807 09-07-2010 17:22:02 31.8 C 8.35 g/m*3 31.8 C 0 km/h
808 09-07-2010 17:34:02 32.8 C 7.04 g/m*3 32.8 C 0 km/h
809 09-07-2010 17:46:02 32.7 C 7.36 g/m*3 32.7 C 0 km/h
810 09-07-2010 17:58:02 33.1 C 7.16 g/m*3 33.1 C 0 km/h
811 09-07-2010 18:10:02 33.2 C 7.2 g/m*3 33.2 C 0 km/h
812 09-07-2010 18:22:02 33.4 C 7.27 g/m*3 33.4 C 0 km/h
813 09-07-2010 18:34:02 33.1 C 7.16 g/m*3 33.1 C 0 km/h
814 09-07-2010 18:46:02 33.6 C 7.35 g/m*3 33.6 C 0 km/h
815 09-07-2010 18:58:02 33.8 C 7.43 g/m*3 33.8 C 0 km/h
816 09-07-2010 19:10:03 33.6 C 7.35 g/m*3 33.6 C 0 km/h
817 09-07-2010 19:22:03 33.5 C 7.31 g/m*3 33.5 C 0 km/h
818 09-07-2010 19:34:03 33.5 C 7.31 g/m*3 33.5 C 0 km/h
819 09-07-2010 19:46:01 33.5 C 7.31 g/m*3 33.5 C 0 km/h
820 09-07-2010 19:58:01 33.3 C 7.23 g/m*3 33.3 C 0 km/h
821 09-07-2010 20:10:01 33.1 C 7.16 g/m*3 33.1 C 0 km/h
822 09-07-2010 20:22:00 32.9 C 7.08 g/m*3 32.9 C 0 km/h
823 09-07-2010 20:34:01 32.1 C 7.47 g/m*3 32.1 C 0 km/h
824 09-07-2010 20:46:01 31.3 C 7.81 g/m*3 31.3 C 0 km/h
825 09-07-2010 20:58:01 30.8 C 8.23 g/m*3 30.8 C 0 km/h
Sensor: Nr:Datum:Temp:Abs-Feuchte:Windchill:Wind:
Aussen-T/F 826 09-07-2010 21:10:02 30.4 C 8.37 g/m*3 30.4 C 0 km/h
827 09-07-2010 21:22:01 30.2 C 8.58 g/m*3 30.2 C 0 km/h
828 09-07-2010 21:34:01 30 C 8.79 g/m*3 30 C 0 km/h
829 09-07-2010 21:46:02 29.6 C 8.9 g/m*3 29.6 C 0 km/h
830 09-07-2010 21:58:02 29.5 C 8.85 g/m*3 29.5 C 0 km/h
831 09-07-2010 22:10:02 29.2 C 9 g/m*3 29.2 C 0 km/h
832 09-07-2010 22:22:02 28.9 C 9.43 g/m*3 28.9 C 0 km/h
833 09-07-2010 22:34:02 28.9 C 9.71 g/m*3 28.9 C 0 km/h
834 09-07-2010 22:47:03 28.6 C 9.84 g/m*3 28.6 C 0 km/h
835 09-07-2010 22:59:03 28.3 C 9.4 g/m*3 28.3 C 0 km/h
836 09-07-2010 23:11:03 28 C 9.25 g/m*3 28 C 0 km/h
837 09-07-2010 23:23:04 27.9 C 9.47 g/m*3 27.9 C 0 km/h
838 09-07-2010 23:35:04 27.8 C 9.68 g/m*3 27.8 C 0 km/h
839 09-07-2010 23:47:04 27.6 C 9.84 g/m*3 27.6 C 0 km/h
840 09-07-2010 23:59:04 27.6 C 9.84 g/m*3 27.6 C 0 km/h
841 10-07-2010 00:11:04 27 C 9.78 g/m*3 27 C 0 km/h
842 10-07-2010 00:23:04 26.6 C 10.07 g/m*3 26.6 C 0 km/h
843 10-07-2010 00:35:04 26.3 C 10.15 g/m*3 26.3 C 0 km/h
844 10-07-2010 00:47:04 25.9 C 10.17 g/m*3 25.9 C 0 km/h
845 10-07-2010 00:59:04 25.7 C 10.29 g/m*3 25.7 C 0 km/h
846 10-07-2010 01:11:04 25.3 C 10.3 g/m*3 25.3 C 0 km/h
847 10-07-2010 01:23:04 25.2 C 10.48 g/m*3 25.2 C 0 km/h
848 10-07-2010 01:35:04 24.8 C 10.7 g/m*3 24.8 C 0 km/h
849 10-07-2010 01:47:04 24.8 C 10.7 g/m*3 24.8 C 0 km/h
850 10-07-2010 01:59:04 24.7 C 10.64 g/m*3 24.7 C 0 km/h
Sensor: Nr:Datum:Temp:Abs-Feuchte:Windchill:Wind:
Aussen-T/F 851 10-07-2010 02:11:04 24.5 C 10.52 g/m*3 24.5 C 0 km/h
852 10-07-2010 02:23:04 24.5 C 10.74 g/m*3 24.5 C 0 km/h
853 10-07-2010 02:35:04 24.2 C 10.78 g/m*3 24.2 C 0 km/h
854 10-07-2010 02:47:04 24.1 C 10.94 g/m*3 24.1 C 0 km/h
855 10-07-2010 02:59:04 23.7 C 10.91 g/m*3 23.7 C 0 km/h
856 10-07-2010 03:11:04 23.5 C 11.21 g/m*3 23.5 C 0 km/h
857 10-07-2010 03:23:04 23.2 C 11.23 g/m*3 23.2 C 0 km/h
858 10-07-2010 03:35:05 23.1 C 11.58 g/m*3 23.1 C 0 km/h
859 10-07-2010 03:47:05 22.9 C 11.44 g/m*3 22.9 C 0 km/h
860 10-07-2010 03:59:05 22.8 C 11.58 g/m*3 22.8 C 0 km/h
861 10-07-2010 04:11:05 22.7 C 11.52 g/m*3 22.7 C 0 km/h
862 10-07-2010 04:23:05 22.5 C 11.39 g/m*3 22.5 C 0 km/h
863 10-07-2010 04:35:05 22.3 C 11.45 g/m*3 22.3 C 0 km/h
864 10-07-2010 04:47:05 22.2 C 11.58 g/m*3 22.2 C 0 km/h
865 10-07-2010 04:59:05 22 C 11.45 g/m*3 22 C 0 km/h
866 10-07-2010 05:11:05 21.8 C 11.7 g/m*3 21.8 C 0 km/h
867 10-07-2010 05:23:05 21.8 C 11.7 g/m*3 21.8 C 0 km/h
868 10-07-2010 05:35:05 21.7 C 11.64 g/m*3 21.7 C 0 km/h
869 10-07-2010 05:47:05 21.6 C 11.57 g/m*3 21.6 C 0 km/h
870 10-07-2010 05:59:05 21.3 C 11.74 g/m*3 21.3 C 0 km/h
871 10-07-2010 06:11:05 21.2 C 11.86 g/m*3 21.2 C 0 km/h
872 10-07-2010 06:23:05 21.1 C 11.98 g/m*3 21.1 C 0 km/h
873 10-07-2010 06:35:03 21.3 C 11.93 g/m*3 21.3 C 0 km/h
874 10-07-2010 06:47:02 21.3 C 11.93 g/m*3 21.3 C 0 km/h
875 10-07-2010 06:59:02 21.6 C 12.14 g/m*3 21.6 C 0 km/h
Sensor: Nr:Datum:Temp:Abs-Feuchte:Windchill:Wind:
Aussen-T/F 876 10-07-2010 07:11:02 21.6 C 11.95 g/m*3 21.6 C 0 km/h
877 10-07-2010 07:23:01 21.6 C 12.14 g/m*3 21.6 C 0 km/h
878 10-07-2010 07:35:01 21.8 C 12.47 g/m*3 21.8 C 0 km/h
879 10-07-2010 07:47:01 22.1 C 12.3 g/m*3 22.1 C 0 km/h
880 10-07-2010 07:59:01 22.4 C 12.31 g/m*3 22.4 C 0 km/h
881 10-07-2010 08:11:01 22.7 C 12.32 g/m*3 22.7 C 0 km/h
882 10-07-2010 08:23:02 23 C 11.92 g/m*3 23 C 0 km/h
883 10-07-2010 08:35:01 23.3 C 11.92 g/m*3 23.3 C 0 km/h
884 10-07-2010 08:47:02 23.7 C 11.98 g/m*3 23.7 C 0 km/h
885 10-07-2010 08:59:02 24.2 C 11.88 g/m*3 24.2 C 0 km/h
886 10-07-2010 09:11:02 24.6 C 11.93 g/m*3 24.6 C 0 km/h
887 10-07-2010 09:23:02 25.2 C 11.87 g/m*3 25.2 C 0 km/h
888 10-07-2010 09:35:02 25.9 C 11.62 g/m*3 25.9 C 0 km/h
889 10-07-2010 09:47:02 26.8 C 11.45 g/m*3 26.8 C 0 km/h
890 10-07-2010 09:59:02 27.7 C 11.77 g/m*3 27.7 C 0 km/h
891 10-07-2010 10:11:02 28.1 C 11.48 g/m*3 28.1 C 0 km/h
892 10-07-2010 10:23:02 28.9 C 12 g/m*3 28.9 C 0 km/h
893 10-07-2010 10:35:02 29.8 C 11.7 g/m*3 29.8 C 0 km/h
894 10-07-2010 10:47:02 30 C 11.22 g/m*3 30 C 0 km/h
895 10-07-2010 10:59:02 30.4 C 11.16 g/m*3 30.4 C 0 km/h
896 10-07-2010 11:11:02 30.9 C 10.5 g/m*3 30.9 C 0 km/h
897 10-07-2010 11:23:02 31.2 C 9.7 g/m*3 31.2 C 0 km/h
898 10-07-2010 11:35:02 31.3 C 8.78 g/m*3 31.3 C 0 km/h
899 10-07-2010 11:47:02 31.8 C 8.68 g/m*3 31.8 C 0 km/h
900 10-07-2010 11:59:02 32.1 C 8.48 g/m*3 32.1 C 0 km/h
Sensor: Nr:Datum:Temp:Abs-Feuchte:Windchill:Wind:
Aussen-T/F 901 10-07-2010 12:11:02 32.6 C 8.02 g/m*3 32.6 C 0 km/h
902 10-07-2010 12:23:02 32.9 C 7.08 g/m*3 32.9 C 0 km/h
903 10-07-2010 12:35:02 33.5 C 7.31 g/m*3 33.5 C 0 km/h
904 10-07-2010 12:47:02 34 C 7.5 g/m*3 34 C 0 km/h
905 10-07-2010 12:59:02 34.1 C 7.54 g/m*3 34.1 C 0 km/h
906 10-07-2010 13:11:02 34.2 C 7.58 g/m*3 34.2 C 0 km/h
907 10-07-2010 13:23:02 34.8 C 7.82 g/m*3 34.8 C 0 km/h
908 10-07-2010 13:35:02 35.1 C 7.95 g/m*3 35.1 C 0 km/h
909 10-07-2010 13:47:02 35.1 C 7.95 g/m*3 35.1 C 0 km/h
910 10-07-2010 13:59:02 34.8 C 7.82 g/m*3 34.8 C 0 km/h
911 10-07-2010 14:11:02 34.5 C 7.7 g/m*3 34.5 C 0 km/h
912 10-07-2010 14:23:01 34.6 C 7.74 g/m*3 34.6 C 0 km/h
913 10-07-2010 14:35:02 34.6 C 7.74 g/m*3 34.6 C 0 km/h
914 10-07-2010 14:47:01 34.3 C 7.62 g/m*3 34.3 C 0 km/h
915 10-07-2010 14:59:01 34.2 C 7.58 g/m*3 34.2 C 0 km/h
916 10-07-2010 15:11:02 34.8 C 7.82 g/m*3 34.8 C 0 km/h
917 10-07-2010 15:23:02 35.1 C 7.95 g/m*3 35.1 C 0 km/h
918 10-07-2010 15:35:01 35.2 C 7.99 g/m*3 35.2 C 0 km/h
919 10-07-2010 15:47:02 35.4 C 8.07 g/m*3 35.4 C 0 km/h
920 10-07-2010 15:59:02 35.5 C 8.11 g/m*3 35.5 C 0 km/h
921 10-07-2010 16:11:01 35.4 C 8.07 g/m*3 35.4 C 0 km/h
922 10-07-2010 16:23:02 35.6 C 8.16 g/m*3 35.6 C 0 km/h
923 10-07-2010 16:35:01 35.7 C 8.2 g/m*3 35.7 C 0 km/h
924 10-07-2010 16:47:03 35.7 C 8.2 g/m*3 35.7 C 0 km/h
925 10-07-2010 16:59:03 35.7 C 8.2 g/m*3 35.7 C 0 km/h
Sensor: Nr:Datum:Temp:Abs-Feuchte:Windchill:Wind:
Aussen-T/F 926 10-07-2010 17:11:02 35.7 C 8.2 g/m*3 35.7 C 0 km/h
927 10-07-2010 17:23:03 35.9 C 8.28 g/m*3 35.9 C 0 km/h
928 10-07-2010 17:35:02 35.8 C 8.24 g/m*3 35.8 C 0 km/h
929 10-07-2010 17:47:03 36 C 8.33 g/m*3 36 C 0 km/h
930 10-07-2010 17:59:03 35.6 C 8.16 g/m*3 35.6 C 0 km/h
931 10-07-2010 18:11:02 35.8 C 8.24 g/m*3 35.8 C 0 km/h
932 10-07-2010 18:23:02 36 C 8.33 g/m*3 36 C 0 km/h
933 10-07-2010 18:35:02 35.9 C 8.28 g/m*3 35.9 C 0 km/h
934 10-07-2010 18:47:02 36 C 8.33 g/m*3 36 C 0 km/h
935 10-07-2010 18:59:02 35.9 C 8.28 g/m*3 35.9 C 0 km/h
936 10-07-2010 19:11:01 35.7 C 8.2 g/m*3 35.7 C 0 km/h
937 10-07-2010 19:23:02 35.6 C 8.16 g/m*3 35.6 C 0 km/h
938 10-07-2010 19:35:01 35.4 C 8.07 g/m*3 35.4 C 0 km/h
939 10-07-2010 19:47:02 35.3 C 8.03 g/m*3 35.3 C 0 km/h
940 10-07-2010 19:59:02 34.9 C 7.87 g/m*3 34.9 C 0 km/h
941 10-07-2010 20:11:01 34.5 C 7.7 g/m*3 34.5 C 0 km/h
942 10-07-2010 20:23:01 34 C 7.5 g/m*3 34 C 0 km/h
943 10-07-2010 20:35:02 33.6 C 8.08 g/m*3 33.6 C 0 km/h
944 10-07-2010 20:47:02 33.1 C 8.59 g/m*3 33.1 C 0 km/h
945 10-07-2010 20:59:03 32.7 C 9.11 g/m*3 32.7 C 0 km/h
946 10-07-2010 21:11:01 32.2 C 9.21 g/m*3 32.2 C 0 km/h
947 10-07-2010 21:23:02 31.6 C 9.58 g/m*3 31.6 C 0 km/h
948 10-07-2010 21:35:02 31.2 C 9.38 g/m*3 31.2 C 0 km/h
949 10-07-2010 21:47:01 30.8 C 9.5 g/m*3 30.8 C 0 km/h
950 10-07-2010 21:59:01 30.7 C 9.45 g/m*3 30.7 C 0 km/h
Sensor: Nr:Datum:Temp:Abs-Feuchte:Windchill:Wind:
Aussen-T/F 951 10-07-2010 22:11:01 30.5 C 9.97 g/m*3 30.5 C 0 km/h
952 10-07-2010 22:23:01 30.4 C 9.92 g/m*3 30.4 C 0 km/h
953 10-07-2010 22:35:02 30.4 C 9.92 g/m*3 30.4 C 0 km/h
954 10-07-2010 22:47:02 30.5 C 9.97 g/m*3 30.5 C 0 km/h
955 10-07-2010 22:59:02 30.4 C 9.92 g/m*3 30.4 C 0 km/h
956 10-07-2010 23:11:02 30.6 C 9.4 g/m*3 30.6 C 0 km/h
957 10-07-2010 23:23:02 30.2 C 9.81 g/m*3 30.2 C 0 km/h
958 10-07-2010 23:35:02 30.1 C 10.06 g/m*3 30.1 C 0 km/h
959 10-07-2010 23:47:02 30.1 C 9.76 g/m*3 30.1 C 0 km/h
960 10-07-2010 23:59:02 30 C 10.01 g/m*3 30 C 0 km/h
961 11-07-2010 00:11:03 29.9 C 9.95 g/m*3 29.9 C 0 km/h
962 11-07-2010 00:23:02 30 C 9.7 g/m*3 30 C 0 km/h
963 11-07-2010 00:36:04 29.7 C 9.85 g/m*3 29.7 C 0 km/h
964 11-07-2010 00:48:04 29.8 C 9.9 g/m*3 29.8 C 0 km/h
965 11-07-2010 01:00:04 29.8 C 9.9 g/m*3 29.8 C 0 km/h
966 11-07-2010 01:12:04 29.6 C 9.79 g/m*3 29.6 C 0 km/h
967 11-07-2010 01:24:04 29.5 C 10.03 g/m*3 29.5 C 0 km/h
968 11-07-2010 01:36:04 28.3 C 10.23 g/m*3 28.3 C 0 km/h
969 11-07-2010 01:48:04 25.4 C 14.83 g/m*3 25.4 C 0 km/h
970 11-07-2010 02:00:04 24 C 16.1 g/m*3 24 C 0 km/h
971 11-07-2010 02:12:04 24.5 C 15.44 g/m*3 24.5 C 0 km/h
972 11-07-2010 02:24:04 25 C 14.73 g/m*3 25 C 0 km/h
973 11-07-2010 02:36:04 23.7 C 16.47 g/m*3 23.7 C 0 km/h
974 11-07-2010 02:48:04 22.9 C 16.55 g/m*3 22.9 C 0 km/h
975 11-07-2010 03:00:04 23.2 C 16.42 g/m*3 23.2 C 0 km/h
Sensor: Nr:Datum:Temp:Abs-Feuchte:Windchill:Wind:
Aussen-T/F 976 11-07-2010 03:12:04 23.6 C 16.59 g/m*3 23.6 C 0 km/h
977 11-07-2010 03:24:04 23.7 C 16.47 g/m*3 23.7 C 0 km/h
978 11-07-2010 03:36:05 23.3 C 15.89 g/m*3 23.3 C 0 km/h
979 11-07-2010 03:48:05 23.1 C 15.92 g/m*3 23.1 C 0 km/h
980 11-07-2010 04:00:05 22.5 C 16.18 g/m*3 22.5 C 0 km/h
981 11-07-2010 04:12:05 22.1 C 16.4 g/m*3 22.1 C 0 km/h
982 11-07-2010 04:24:05 21.9 C 16.6 g/m*3 21.9 C 0 km/h
983 11-07-2010 04:36:05 21.6 C 16.31 g/m*3 21.6 C 0 km/h
984 11-07-2010 04:48:05 21.8 C 16.69 g/m*3 21.8 C 0 km/h
985 11-07-2010 05:00:05 21.9 C 16.6 g/m*3 21.9 C 0 km/h
986 11-07-2010 05:12:05 22 C 16.11 g/m*3 22 C 0 km/h
987 11-07-2010 05:24:05 22.2 C 16.3 g/m*3 22.2 C 0 km/h
988 11-07-2010 05:36:05 21.9 C 16.02 g/m*3 21.9 C 0 km/h
989 11-07-2010 05:48:05 22 C 16.11 g/m*3 22 C 0 km/h
990 11-07-2010 06:00:05 21.9 C 16.21 g/m*3 21.9 C 0 km/h
991 11-07-2010 06:12:05 21.8 C 16.12 g/m*3 21.8 C 0 km/h
992 11-07-2010 06:24:05 21.8 C 16.12 g/m*3 21.8 C 0 km/h
993 11-07-2010 06:36:05 21.7 C 16.02 g/m*3 21.7 C 0 km/h
994 11-07-2010 06:48:05 22 C 15.91 g/m*3 22 C 0 km/h
995 11-07-2010 07:00:05 22.5 C 15.98 g/m*3 22.5 C 0 km/h
996 11-07-2010 07:12:05 22.6 C 15.47 g/m*3 22.6 C 0 km/h
997 11-07-2010 07:24:05 22.8 C 15.65 g/m*3 22.8 C 0 km/h
998 11-07-2010 07:36:05 22.8 C 15.65 g/m*3 22.8 C 0 km/h
999 11-07-2010 07:48:06 23.1 C 15.92 g/m*3 23.1 C 0 km/h
1000 11-07-2010 08:00:06 23.5 C 15.65 g/m*3 23.5 C 0 km/h
Sensor: Nr:Datum:Temp:Abs-Feuchte:Windchill:Wind:
Aussen-T/F 1001 11-07-2010 08:12:06 24 C 15.45 g/m*3 24 C 0 km/h
1002 11-07-2010 08:24:06 24.5 C 15.44 g/m*3 24.5 C 0 km/h
1003 11-07-2010 08:36:06 24.7 C 15.39 g/m*3 24.7 C 0 km/h
1004 11-07-2010 08:48:02 24.4 C 15.36 g/m*3 24.4 C 0 km/h
1005 11-07-2010 09:00:02 23.8 C 15.06 g/m*3 23.8 C 0 km/h
1006 11-07-2010 09:12:02 23.9 C 15.36 g/m*3 23.9 C 0 km/h
1007 11-07-2010 09:24:03 24.4 C 14.91 g/m*3 24.4 C 0 km/h
1008 11-07-2010 09:36:02 24.7 C 14.49 g/m*3 24.7 C 0 km/h
1009 11-07-2010 09:48:03 25.3 C 14.05 g/m*3 25.3 C 0 km/h
1010 11-07-2010 10:00:03 25.9 C 13.56 g/m*3 25.9 C 0 km/h
1011 11-07-2010 10:12:02 26.3 C 12.87 g/m*3 26.3 C 0 km/h
1012 11-07-2010 10:24:02 26.9 C 13.05 g/m*3 26.9 C 0 km/h
1013 11-07-2010 10:36:02 27.1 C 12.42 g/m*3 27.1 C 0 km/h
1014 11-07-2010 10:53:34 27.8 C 12.64 g/m*3 27.8 C 0 km/h
1015 11-07-2010 11:05:34 27.8 C 12.64 g/m*3 27.8 C 0 km/h
1016 11-07-2010 11:17:34 28 C 12.24 g/m*3 28 C 0 km/h
1017 11-07-2010 11:29:34 28.4 C 12.51 g/m*3 28.4 C 0 km/h
1018 11-07-2010 11:41:34 29.1 C 12.13 g/m*3 29.1 C 0 km/h
1019 11-07-2010 11:53:35 29.4 C 11.74 g/m*3 29.4 C 0 km/h
1020 11-07-2010 12:05:35 30.3 C 11.4 g/m*3 30.3 C 0 km/h
1021 11-07-2010 12:17:35 30.3 C 10.79 g/m*3 30.3 C 0 km/h
1022 11-07-2010 12:29:35 30.8 C 10.76 g/m*3 30.8 C 0 km/h
1023 11-07-2010 12:41:35 30.7 C 10.39 g/m*3 30.7 C 0 km/h
1024 11-07-2010 12:53:35 30.1 C 10.67 g/m*3 30.1 C 0 km/h
1025 11-07-2010 13:05:35 31.5 C 9.86 g/m*3 31.5 C 0 km/h
Sensor: Nr:Datum:Temp:Abs-Feuchte:Windchill:Wind:
Aussen-T/F 1026 11-07-2010 13:17:35 32.1 C 8.82 g/m*3 32.1 C 0 km/h
1027 11-07-2010 13:29:35 30.7 C 9.76 g/m*3 30.7 C 0 km/h
1028 11-07-2010 13:41:35 31.7 C 8.97 g/m*3 31.7 C 0 km/h
1029 11-07-2010 13:53:35 32.3 C 8.23 g/m*3 32.3 C 0 km/h
1030 11-07-2010 14:05:35 32.1 C 8.48 g/m*3 32.1 C 0 km/h
1031 11-07-2010 14:17:35 32.1 C 8.48 g/m*3 32.1 C 0 km/h
1032 11-07-2010 14:29:35 31.8 C 8.35 g/m*3 31.8 C 0 km/h
1033 11-07-2010 14:41:35 32 C 8.44 g/m*3 32 C 0 km/h
1034 11-07-2010 14:53:35 32.3 C 7.89 g/m*3 32.3 C 0 km/h
1035 11-07-2010 15:05:35 32.3 C 7.55 g/m*3 32.3 C 0 km/h
1036 11-07-2010 15:17:35 32.8 C 7.75 g/m*3 32.8 C 0 km/h
1037 11-07-2010 15:29:35 33 C 7.48 g/m*3 33 C 0 km/h
1038 11-07-2010 15:41:35 33 C 7.48 g/m*3 33 C 0 km/h
1039 11-07-2010 15:53:35 33.1 C 7.52 g/m*3 33.1 C 0 km/h
1040 11-07-2010 16:05:36 33.7 C 7.39 g/m*3 33.7 C 0 km/h
1041 11-07-2010 16:17:36 33.7 C 7.39 g/m*3 33.7 C 0 km/h
1042 11-07-2010 16:29:36 33.7 C 7.39 g/m*3 33.7 C 0 km/h
1043 11-07-2010 16:41:36 33.8 C 7.43 g/m*3 33.8 C 0 km/h
1044 11-07-2010 16:53:36 33.6 C 7.35 g/m*3 33.6 C 0 km/h
1045 11-07-2010 17:05:36 34 C 7.5 g/m*3 34 C 0 km/h
1046 11-07-2010 17:17:36 34 C 7.5 g/m*3 34 C 0 km/h
1047 11-07-2010 17:29:36 34.5 C 7.7 g/m*3 34.5 C 0 km/h
1048 11-07-2010 17:41:36 34.6 C 7.74 g/m*3 34.6 C 0 km/h
1049 11-07-2010 17:53:36 34.2 C 7.58 g/m*3 34.2 C 0 km/h
1050 11-07-2010 18:05:36 34.1 C 7.54 g/m*3 34.1 C 0 km/h
Sensor: Nr:Datum:Temp:Abs-Feuchte:Windchill:Wind:
Aussen-T/F 1051 11-07-2010 18:17:36 34.1 C 7.54 g/m*3 34.1 C 0 km/h
1052 11-07-2010 18:29:36 34 C 7.5 g/m*3 34 C 0 km/h
1053 11-07-2010 18:41:36 34.2 C 7.58 g/m*3 34.2 C 0 km/h
1054 11-07-2010 18:53:36 34.2 C 7.58 g/m*3 34.2 C 0 km/h
1055 11-07-2010 19:05:36 34.3 C 7.62 g/m*3 34.3 C 0 km/h
1056 11-07-2010 19:17:36 34.2 C 7.58 g/m*3 34.2 C 0 km/h
1057 11-07-2010 19:29:36 33.8 C 7.43 g/m*3 33.8 C 0 km/h
1058 11-07-2010 19:41:36 33.8 C 7.43 g/m*3 33.8 C 0 km/h
1059 11-07-2010 19:53:36 33.5 C 7.31 g/m*3 33.5 C 0 km/h
1060 11-07-2010 20:05:37 33.7 C 7.39 g/m*3 33.7 C 0 km/h
1061 11-07-2010 20:17:37 33.7 C 7.39 g/m*3 33.7 C 0 km/h
1062 11-07-2010 20:29:37 33.4 C 7.63 g/m*3 33.4 C 0 km/h
1063 11-07-2010 20:41:37 33.1 C 8.23 g/m*3 33.1 C 0 km/h
1064 11-07-2010 20:53:37 32.6 C 8.71 g/m*3 32.6 C 0 km/h
1065 11-07-2010 21:05:37 31.9 C 9.4 g/m*3 31.9 C 0 km/h
1066 11-07-2010 21:17:37 31.2 C 9.7 g/m*3 31.2 C 0 km/h
1067 11-07-2010 21:29:37 30.7 C 10.08 g/m*3 30.7 C 0 km/h
1068 11-07-2010 21:41:37 30.4 C 10.54 g/m*3 30.4 C 0 km/h
1069 11-07-2010 21:53:37 30.2 C 10.73 g/m*3 30.2 C 0 km/h
1070 11-07-2010 22:05:37 30.1 C 10.67 g/m*3 30.1 C 0 km/h
1071 11-07-2010 22:17:37 30 C 10.92 g/m*3 30 C 0 km/h
1072 11-07-2010 22:29:37 29.9 C 10.86 g/m*3 29.9 C 0 km/h
1073 11-07-2010 22:41:37 29.7 C 11.04 g/m*3 29.7 C 0 km/h
1074 11-07-2010 22:53:37 29.4 C 10.86 g/m*3 29.4 C 0 km/h
1075 11-07-2010 23:05:37 29.1 C 10.97 g/m*3 29.1 C 0 km/h
Sensor: Nr:Datum:Temp:Abs-Feuchte:Windchill:Wind:
Aussen-T/F 1076 11-07-2010 23:17:37 28.6 C 11.24 g/m*3 28.6 C 0 km/h
1077 11-07-2010 23:29:37 28.4 C 11.12 g/m*3 28.4 C 0 km/h
1078 11-07-2010 23:41:37 28.5 C 11.18 g/m*3 28.5 C 0 km/h
1079 11-07-2010 23:53:37 28.1 C 11.21 g/m*3 28.1 C 0 km/h
1080 12-07-2010 00:05:37 27.8 C 11.57 g/m*3 27.8 C 0 km/h
1081 12-07-2010 00:17:38 27.4 C 11.84 g/m*3 27.4 C 0 km/h
1082 12-07-2010 00:29:38 27.2 C 11.71 g/m*3 27.2 C 0 km/h
1083 12-07-2010 00:41:38 27 C 11.84 g/m*3 27 C 0 km/h
1084 12-07-2010 00:53:38 26.8 C 12.22 g/m*3 26.8 C 0 km/h
1085 12-07-2010 01:05:38 26.5 C 12.27 g/m*3 26.5 C 0 km/h
1086 12-07-2010 01:17:38 26.2 C 12.06 g/m*3 26.2 C 0 km/h
1087 12-07-2010 01:29:38 26 C 12.17 g/m*3 26 C 0 km/h
1088 12-07-2010 01:41:38 25.7 C 12.69 g/m*3 25.7 C 0 km/h
1089 12-07-2010 01:53:38 25.7 C 12.45 g/m*3 25.7 C 0 km/h
1090 12-07-2010 02:05:38 25.6 C 12.38 g/m*3 25.6 C 0 km/h
1091 12-07-2010 02:17:38 25.3 C 12.41 g/m*3 25.3 C 0 km/h
1092 12-07-2010 02:29:38 25.2 C 12.57 g/m*3 25.2 C 0 km/h
1093 12-07-2010 02:41:38 24.9 C 13.05 g/m*3 24.9 C 0 km/h
1094 12-07-2010 02:53:38 24.6 C 13.05 g/m*3 24.6 C 0 km/h
1095 12-07-2010 03:05:38 24.6 C 13.05 g/m*3 24.6 C 0 km/h
1096 12-07-2010 03:17:38 24.2 C 13.2 g/m*3 24.2 C 0 km/h
1097 12-07-2010 03:29:38 24 C 13.05 g/m*3 24 C 0 km/h
1098 12-07-2010 03:41:38 24.1 C 13.13 g/m*3 24.1 C 0 km/h
1099 12-07-2010 03:53:38 24 C 13.05 g/m*3 24 C 0 km/h
1100 12-07-2010 04:05:38 23.7 C 13.05 g/m*3 23.7 C 0 km/h
Sensor: Nr:Datum:Temp:Abs-Feuchte:Windchill:Wind:
Aussen-T/F 1101 12-07-2010 04:17:39 23.4 C 13.04 g/m*3 23.4 C 0 km/h
1102 12-07-2010 04:29:39 23.3 C 13.17 g/m*3 23.3 C 0 km/h
1103 12-07-2010 04:41:39 23.2 C 12.89 g/m*3 23.2 C 0 km/h
1104 12-07-2010 04:53:39 23 C 13.15 g/m*3 23 C 0 km/h
1105 12-07-2010 05:05:39 22.9 C 13.28 g/m*3 22.9 C 0 km/h
1106 12-07-2010 05:17:39 22.6 C 13.26 g/m*3 22.6 C 0 km/h
1107 12-07-2010 05:29:39 22.7 C 13.13 g/m*3 22.7 C 0 km/h
1108 12-07-2010 05:41:39 22.6 C 13.06 g/m*3 22.6 C 0 km/h
1109 12-07-2010 05:53:39 22.5 C 13.18 g/m*3 22.5 C 0 km/h
1110 12-07-2010 06:05:39 22.4 C 13.11 g/m*3 22.4 C 0 km/h
1111 12-07-2010 06:17:39 22.4 C 13.5 g/m*3 22.4 C 0 km/h
1112 12-07-2010 06:29:39 22.4 C 13.31 g/m*3 22.4 C 0 km/h
1113 12-07-2010 06:41:39 22.7 C 13.54 g/m*3 22.7 C 0 km/h
1114 12-07-2010 06:53:39 22.8 C 13.41 g/m*3 22.8 C 0 km/h
1115 12-07-2010 07:05:39 22.8 C 13.61 g/m*3 22.8 C 0 km/h
1116 12-07-2010 07:17:39 22.7 C 13.54 g/m*3 22.7 C 0 km/h
1117 12-07-2010 07:29:39 22.9 C 13.69 g/m*3 22.9 C 0 km/h
1118 12-07-2010 07:41:39 23 C 13.57 g/m*3 23 C 0 km/h
1119 12-07-2010 07:53:39 22.9 C 13.69 g/m*3 22.9 C 0 km/h
1120 12-07-2010 08:05:39 23.1 C 13.64 g/m*3 23.1 C 0 km/h
1121 12-07-2010 08:17:39 23.4 C 13.46 g/m*3 23.4 C 0 km/h
1122 12-07-2010 08:29:40 23.7 C 13.48 g/m*3 23.7 C 0 km/h
1123 12-07-2010 08:41:40 24.3 C 13.72 g/m*3 24.3 C 0 km/h
1124 12-07-2010 08:53:40 24.8 C 13.88 g/m*3 24.8 C 0 km/h
1125 12-07-2010 09:05:40 25.4 C 13.65 g/m*3 25.4 C 0 km/h
Sensor: Nr:Datum:Temp:Abs-Feuchte:Windchill:Wind:
Aussen-T/F 1126 12-07-2010 09:17:40 26.1 C 13.71 g/m*3 26.1 C 0 km/h
1127 12-07-2010 09:29:40 26.7 C 13.67 g/m*3 26.7 C 0 km/h
1128 12-07-2010 09:41:40 27.3 C 13.34 g/m*3 27.3 C 0 km/h
1129 12-07-2010 09:53:40 28.1 C 13.4 g/m*3 28.1 C 0 km/h
1130 12-07-2010 10:05:40 28.9 C 13.43 g/m*3 28.9 C 0 km/h
1131 12-07-2010 10:17:40 29.7 C 12.83 g/m*3 29.7 C 0 km/h
1132 12-07-2010 10:29:40 30 C 12.74 g/m*3 30 C 0 km/h
1133 12-07-2010 10:41:40 30.3 C 12.02 g/m*3 30.3 C 0 km/h
1134 12-07-2010 10:53:40 30.9 C 11.46 g/m*3 30.9 C 0 km/h
1135 12-07-2010 11:05:40 31.4 C 11.12 g/m*3 31.4 C 0 km/h
1136 12-07-2010 11:17:40 31.5 C 10.52 g/m*3 31.5 C 0 km/h
1137 12-07-2010 11:29:40 31.9 C 10.41 g/m*3 31.9 C 0 km/h
1138 12-07-2010 11:41:40 32 C 8.78 g/m*3 32 C 0 km/h
1139 12-07-2010 11:53:40 32.1 C 8.82 g/m*3 32.1 C 0 km/h
1140 12-07-2010 12:05:40 32.3 C 8.58 g/m*3 32.3 C 0 km/h
1141 12-07-2010 12:17:40 32.4 C 8.62 g/m*3 32.4 C 0 km/h
1142 12-07-2010 12:29:41 32.8 C 8.45 g/m*3 32.8 C 0 km/h
1143 12-07-2010 12:41:41 31.8 C 7.35 g/m*3 31.8 C 0 km/h
1144 12-07-2010 12:53:41 25.9 C 7.51 g/m*3 25.9 C 0 km/h
1145 12-07-2010 13:05:41 25.1 C 14.58 g/m*3 25.1 C 0 km/h
1146 12-07-2010 13:17:41 27.9 C 11.09 g/m*3 27.9 C 0 km/h
1147 12-07-2010 13:29:41 28.3 C 11.06 g/m*3 28.3 C 0 km/h
1148 12-07-2010 13:41:41 29.2 C 11.91 g/m*3 29.2 C 0 km/h
1149 12-07-2010 13:53:41 30.1 C 9.15 g/m*3 30.1 C 0 km/h
1150 12-07-2010 14:05:41 30.3 C 9.55 g/m*3 30.3 C 0 km/h
Sensor: Nr:Datum:Temp:Abs-Feuchte:Windchill:Wind:
Aussen-T/F 1151 12-07-2010 14:17:41 30.5 C 10.59 g/m*3 30.5 C 0 km/h
1152 12-07-2010 14:29:41 30.7 C 10.08 g/m*3 30.7 C 0 km/h
1153 12-07-2010 14:41:41 31 C 8.32 g/m*3 31 C 0 km/h
1154 12-07-2010 14:53:41 31 C 8.64 g/m*3 31 C 0 km/h
1155 12-07-2010 15:05:41 31.1 C 9.65 g/m*3 31.1 C 0 km/h
1156 12-07-2010 15:17:41 31.5 C 8.55 g/m*3 31.5 C 0 km/h
1157 12-07-2010 15:29:41 32 C 7.43 g/m*3 32 C 0 km/h
1158 12-07-2010 15:41:41 31.8 C 7.01 g/m*3 31.8 C 0 km/h
1159 12-07-2010 15:53:41 31.7 C 6.98 g/m*3 31.7 C 0 km/h
1160 12-07-2010 16:05:41 32.3 C 6.86 g/m*3 32.3 C 0 km/h
1161 12-07-2010 16:17:41 32 C 6.75 g/m*3 32 C 0 km/h
1162 12-07-2010 16:29:42 31.9 C 6.72 g/m*3 31.9 C 0 km/h
1163 12-07-2010 16:41:42 31.8 C 6.68 g/m*3 31.8 C 0 km/h
1164 12-07-2010 16:53:42 31.5 C 6.57 g/m*3 31.5 C 0 km/h
1165 12-07-2010 17:05:42 31.4 C 6.54 g/m*3 31.4 C 0 km/h
1166 12-07-2010 17:17:42 31.7 C 6.64 g/m*3 31.7 C 0 km/h
1167 12-07-2010 17:29:42 32 C 6.75 g/m*3 32 C 0 km/h
1168 12-07-2010 17:41:42 31.6 C 6.61 g/m*3 31.6 C 0 km/h
1169 12-07-2010 17:53:42 31 C 6.4 g/m*3 31 C 0 km/h
1170 12-07-2010 18:05:42 30.6 C 6.58 g/m*3 30.6 C 0 km/h
1171 12-07-2010 18:17:42 30.3 C 7.4 g/m*3 30.3 C 0 km/h
1172 12-07-2010 18:29:42 30 C 7.58 g/m*3 30 C 0 km/h
1173 12-07-2010 18:41:42 30 C 7.58 g/m*3 30 C 0 km/h
1174 12-07-2010 18:53:42 30 C 7.88 g/m*3 30 C 0 km/h
1175 12-07-2010 19:05:42 29.5 C 7.67 g/m*3 29.5 C 0 km/h
Sensor: Nr:Datum:Temp:Abs-Feuchte:Windchill:Wind:
Aussen-T/F 1176 12-07-2010 19:17:42 29 C 7.47 g/m*3 29 C 0 km/h
1177 12-07-2010 19:29:42 28.6 C 7.87 g/m*3 28.6 C 0 km/h
1178 12-07-2010 19:41:42 28.2 C 7.7 g/m*3 28.2 C 0 km/h
1179 12-07-2010 19:53:42 28.1 C 7.38 g/m*3 28.1 C 0 km/h
1180 12-07-2010 20:05:42 27.8 C 7.53 g/m*3 27.8 C 0 km/h
1181 12-07-2010 20:17:42 27.6 C 7.71 g/m*3 27.6 C 0 km/h
1182 12-07-2010 20:29:42 27 C 7.72 g/m*3 27 C 0 km/h
1183 12-07-2010 20:41:43 26.4 C 7.97 g/m*3 26.4 C 0 km/h
1184 12-07-2010 20:53:43 26 C 8.28 g/m*3 26 C 0 km/h
1185 12-07-2010 21:05:43 26 C 8.52 g/m*3 26 C 0 km/h
1186 12-07-2010 21:17:43 25.8 C 8.67 g/m*3 25.8 C 0 km/h
1187 12-07-2010 21:29:43 25.7 C 8.86 g/m*3 25.7 C 0 km/h
1188 12-07-2010 21:41:43 25.7 C 9.34 g/m*3 25.7 C 0 km/h
1189 12-07-2010 21:53:43 25.4 C 9.42 g/m*3 25.4 C 0 km/h
1190 12-07-2010 22:05:43 24.9 C 9.61 g/m*3 24.9 C 0 km/h
1191 12-07-2010 22:17:43 24.9 C 9.16 g/m*3 24.9 C 0 km/h
1192 12-07-2010 22:29:43 24.2 C 9.02 g/m*3 24.2 C 0 km/h
1193 12-07-2010 22:41:43 24.6 C 9.23 g/m*3 24.6 C 0 km/h
1194 12-07-2010 22:53:43 24.5 C 9.18 g/m*3 24.5 C 0 km/h
1195 12-07-2010 23:05:43 24.3 C 9.29 g/m*3 24.3 C 0 km/h
1196 12-07-2010 23:17:43 24 C 9.57 g/m*3 24 C 0 km/h
1197 12-07-2010 23:29:43 23.4 C 9.67 g/m*3 23.4 C 0 km/h
1198 12-07-2010 23:41:43 23 C 9.87 g/m*3 23 C 0 km/h
1199 12-07-2010 23:53:43 22.7 C 10.1 g/m*3 22.7 C 0 km/h
1200 13-07-2010 00:05:43 22.6 C 10.25 g/m*3 22.6 C 0 km/h
Sensor: Nr:Datum:Temp:Abs-Feuchte:Windchill:Wind:
Aussen-T/F 1201 13-07-2010 00:17:43 22.5 C 10.39 g/m*3 22.5 C 0 km/h
1202 13-07-2010 00:29:43 22.3 C 10.27 g/m*3 22.3 C 0 km/h
1203 13-07-2010 00:41:44 22.1 C 10.35 g/m*3 22.1 C 0 km/h
1204 13-07-2010 00:53:44 22 C 10.48 g/m*3 22 C 0 km/h
1205 13-07-2010 01:05:44 21.6 C 10.62 g/m*3 21.6 C 0 km/h
1206 13-07-2010 01:17:44 21.5 C 10.56 g/m*3 21.5 C 0 km/h
1207 13-07-2010 01:29:44 21.4 C 10.69 g/m*3 21.4 C 0 km/h
1208 13-07-2010 01:41:44 21.3 C 10.81 g/m*3 21.3 C 0 km/h
1209 13-07-2010 01:53:44 21.3 C 10.81 g/m*3 21.3 C 0 km/h
1210 13-07-2010 02:05:44 21 C 10.62 g/m*3 21 C 0 km/h
1211 13-07-2010 02:17:44 20.8 C 10.86 g/m*3 20.8 C 0 km/h
1212 13-07-2010 02:29:44 20.7 C 10.98 g/m*3 20.7 C 0 km/h
1213 13-07-2010 02:41:44 20.5 C 11.03 g/m*3 20.5 C 0 km/h
1214 13-07-2010 02:53:44 20.3 C 11.08 g/m*3 20.3 C 0 km/h
1215 13-07-2010 03:05:44 20.2 C 11.02 g/m*3 20.2 C 0 km/h
1216 13-07-2010 03:17:44 20 C 11.06 g/m*3 20 C 0 km/h
1217 13-07-2010 03:29:44 19.8 C 11.27 g/m*3 19.8 C 0 km/h
1218 13-07-2010 03:41:44 19.7 C 11.38 g/m*3 19.7 C 0 km/h
1219 13-07-2010 03:53:44 19.7 C 11.38 g/m*3 19.7 C 0 km/h
1220 13-07-2010 04:05:44 19.8 C 11.44 g/m*3 19.8 C 0 km/h
1221 13-07-2010 04:17:44 19.8 C 11.44 g/m*3 19.8 C 0 km/h
1222 13-07-2010 04:29:44 19.7 C 11.38 g/m*3 19.7 C 0 km/h
1223 13-07-2010 04:41:44 19.7 C 11.89 g/m*3 19.7 C 0 km/h
1224 13-07-2010 04:53:45 19.1 C 12.13 g/m*3 19.1 C 0 km/h
1225 13-07-2010 05:05:45 18.9 C 12.31 g/m*3 18.9 C 0 km/h
Sensor: Nr:Datum:Temp:Abs-Feuchte:Windchill:Wind:
Aussen-T/F 1226 13-07-2010 05:17:45 18.7 C 12.33 g/m*3 18.7 C 0 km/h
1227 13-07-2010 05:29:45 18.7 C 12.33 g/m*3 18.7 C 0 km/h
1228 13-07-2010 05:41:45 18.7 C 12.17 g/m*3 18.7 C 0 km/h
1229 13-07-2010 05:53:45 18.6 C 12.1 g/m*3 18.6 C 0 km/h
1230 13-07-2010 06:05:45 18.7 C 12.17 g/m*3 18.7 C 0 km/h
1231 13-07-2010 06:17:45 18.8 C 12.08 g/m*3 18.8 C 0 km/h
1232 13-07-2010 06:29:45 18.8 C 12.08 g/m*3 18.8 C 0 km/h
1233 13-07-2010 06:41:45 18.8 C 12.08 g/m*3 18.8 C 0 km/h
1234 13-07-2010 06:53:45 18.9 C 12.15 g/m*3 18.9 C 0 km/h
1235 13-07-2010 07:05:45 19.2 C 12.04 g/m*3 19.2 C 0 km/h
1236 13-07-2010 07:17:45 19.5 C 12.08 g/m*3 19.5 C 0 km/h
1237 13-07-2010 07:29:45 19.7 C 12.06 g/m*3 19.7 C 0 km/h
1238 13-07-2010 07:41:45 19.7 C 12.06 g/m*3 19.7 C 0 km/h
1239 13-07-2010 07:53:45 20 C 11.92 g/m*3 20 C 0 km/h
1240 13-07-2010 08:05:45 20.4 C 12.03 g/m*3 20.4 C 0 km/h
1241 13-07-2010 08:17:45 20.5 C 12.1 g/m*3 20.5 C 0 km/h
1242 13-07-2010 08:29:45 21 C 12.09 g/m*3 21 C 0 km/h
1243 13-07-2010 08:41:45 21.5 C 11.88 g/m*3 21.5 C 0 km/h
1244 13-07-2010 08:53:45 21.2 C 11.68 g/m*3 21.2 C 0 km/h
1245 13-07-2010 09:05:46 21.4 C 12 g/m*3 21.4 C 0 km/h
1246 13-07-2010 09:17:46 21.9 C 12.16 g/m*3 21.9 C 0 km/h
1247 13-07-2010 09:29:46 22.7 C 11.72 g/m*3 22.7 C 0 km/h
1248 13-07-2010 09:41:46 23.3 C 11.5 g/m*3 23.3 C 0 km/h
1249 13-07-2010 09:53:46 23.9 C 11.47 g/m*3 23.9 C 0 km/h
1250 13-07-2010 10:05:46 24.4 C 11.57 g/m*3 24.4 C 0 km/h
Sensor: Nr:Datum:Temp:Abs-Feuchte:Windchill:Wind:
Aussen-T/F 1251 13-07-2010 10:17:46 24.8 C 11.15 g/m*3 24.8 C 0 km/h
1252 13-07-2010 10:29:46 24.2 C 11 g/m*3 24.2 C 0 km/h
1253 13-07-2010 10:41:46 24.5 C 10.97 g/m*3 24.5 C 0 km/h
1254 13-07-2010 10:53:46 25.1 C 10.65 g/m*3 25.1 C 0 km/h
1255 13-07-2010 11:05:46 25.4 C 10.59 g/m*3 25.4 C 0 km/h
1256 13-07-2010 11:17:46 25.7 C 10.29 g/m*3 25.7 C 0 km/h
1257 13-07-2010 11:29:46 25.4 C 10.12 g/m*3 25.4 C 0 km/h
1258 13-07-2010 11:41:46 25.7 C 10.29 g/m*3 25.7 C 0 km/h
1259 13-07-2010 11:53:46 28.3 C 9.95 g/m*3 28.3 C 0 km/h
1260 13-07-2010 12:05:46 29.5 C 8.85 g/m*3 29.5 C 0 km/h
1261 13-07-2010 12:17:46 30 C 9.1 g/m*3 30 C 0 km/h
1262 13-07-2010 12:29:46 29.4 C 8.51 g/m*3 29.4 C 0 km/h
1263 13-07-2010 12:41:46 28.8 C 8.52 g/m*3 28.8 C 0 km/h
1264 13-07-2010 12:53:46 29.5 C 7.97 g/m*3 29.5 C 0 km/h
1265 13-07-2010 13:05:46 29.1 C 7.8 g/m*3 29.1 C 0 km/h
1266 13-07-2010 13:17:47 28.5 C 8.66 g/m*3 28.5 C 0 km/h
1267 13-07-2010 13:29:47 28.9 C 8 g/m*3 28.9 C 0 km/h
1268 13-07-2010 13:41:47 29.7 C 7.76 g/m*3 29.7 C 0 km/h
1269 13-07-2010 13:53:47 30.4 C 7.75 g/m*3 30.4 C 0 km/h
1270 13-07-2010 14:05:47 29.4 C 8.22 g/m*3 29.4 C 0 km/h
1271 13-07-2010 14:17:47 28.7 C 8.76 g/m*3 28.7 C 0 km/h
1272 13-07-2010 14:29:47 28.1 C 8.48 g/m*3 28.1 C 0 km/h
1273 13-07-2010 14:41:47 29 C 8.62 g/m*3 29 C 0 km/h
1274 13-07-2010 14:53:47 30 C 7.58 g/m*3 30 C 0 km/h
1275 13-07-2010 15:05:47 30.4 C 7.75 g/m*3 30.4 C 0 km/h
Sensor: Nr:Datum:Temp:Abs-Feuchte:Windchill:Wind:
Aussen-T/F 1276 13-07-2010 15:17:47 31.1 C 7.72 g/m*3 31.1 C 0 km/h
1277 13-07-2010 15:29:47 30.6 C 6.89 g/m*3 30.6 C 0 km/h
1278 13-07-2010 15:41:47 30.5 C 7.17 g/m*3 30.5 C 0 km/h
1279 13-07-2010 15:53:47 31 C 7.04 g/m*3 31 C 0 km/h
1280 13-07-2010 16:05:47 31.2 C 6.47 g/m*3 31.2 C 0 km/h
1281 13-07-2010 16:17:47 31 C 6.72 g/m*3 31 C 0 km/h
1282 13-07-2010 16:29:47 30.8 C 7.28 g/m*3 30.8 C 0 km/h
1283 13-07-2010 16:41:47 30.8 C 7.28 g/m*3 30.8 C 0 km/h
1284 13-07-2010 16:53:47 31.5 C 6.57 g/m*3 31.5 C 0 km/h
1285 13-07-2010 17:05:47 31.8 C 6.68 g/m*3 31.8 C 0 km/h
1286 13-07-2010 17:17:47 31.5 C 6.57 g/m*3 31.5 C 0 km/h
1287 13-07-2010 17:29:48 31.8 C 6.68 g/m*3 31.8 C 0 km/h
1288 13-07-2010 17:41:48 31.8 C 6.68 g/m*3 31.8 C 0 km/h
1289 13-07-2010 17:53:48 31.8 C 6.68 g/m*3 31.8 C 0 km/h
1290 13-07-2010 18:05:48 32.1 C 6.79 g/m*3 32.1 C 0 km/h
1291 13-07-2010 18:17:48 31.8 C 6.68 g/m*3 31.8 C 0 km/h
1292 13-07-2010 18:29:48 31.7 C 6.64 g/m*3 31.7 C 0 km/h
1293 13-07-2010 18:41:48 32.1 C 6.79 g/m*3 32.1 C 0 km/h
1294 13-07-2010 18:53:48 31.6 C 6.61 g/m*3 31.6 C 0 km/h
1295 13-07-2010 19:05:48 31.4 C 6.54 g/m*3 31.4 C 0 km/h
1296 13-07-2010 19:17:48 31.4 C 6.54 g/m*3 31.4 C 0 km/h
1297 13-07-2010 19:29:48 31.4 C 6.54 g/m*3 31.4 C 0 km/h
1298 13-07-2010 19:41:48 31.4 C 6.54 g/m*3 31.4 C 0 km/h
1299 13-07-2010 19:53:48 31.2 C 6.47 g/m*3 31.2 C 0 km/h
1300 13-07-2010 20:05:48 31.4 C 6.54 g/m*3 31.4 C 0 km/h
Sensor: Nr:Datum:Temp:Abs-Feuchte:Windchill:Wind:
Aussen-T/F 1301 13-07-2010 20:17:48 31.4 C 6.54 g/m*3 31.4 C 0 km/h
1302 13-07-2010 20:29:48 31.2 C 6.79 g/m*3 31.2 C 0 km/h
1303 13-07-2010 20:41:48 31 C 6.72 g/m*3 31 C 0 km/h
1304 13-07-2010 20:53:48 30.6 C 7.2 g/m*3 30.6 C 0 km/h
1305 13-07-2010 21:05:48 29.8 C 7.8 g/m*3 29.8 C 0 km/h
1306 13-07-2010 21:17:48 28.6 C 7.87 g/m*3 28.6 C 0 km/h
1307 13-07-2010 21:29:48 27.6 C 7.98 g/m*3 27.6 C 0 km/h
1308 13-07-2010 21:41:49 26.8 C 8.14 g/m*3 26.8 C 0 km/h
1309 13-07-2010 21:53:49 26.4 C 8.21 g/m*3 26.4 C 0 km/h
1310 13-07-2010 22:05:49 25.9 C 8.47 g/m*3 25.9 C 0 km/h
1311 13-07-2010 22:17:49 25.5 C 8.52 g/m*3 25.5 C 0 km/h
1312 13-07-2010 22:29:49 25.4 C 8.48 g/m*3 25.4 C 0 km/h
1313 13-07-2010 22:41:49 25.4 C 8.71 g/m*3 25.4 C 0 km/h
1314 13-07-2010 22:53:49 25.1 C 8.8 g/m*3 25.1 C 0 km/h
1315 13-07-2010 23:05:49 24.7 C 9.05 g/m*3 24.7 C 0 km/h
1316 13-07-2010 23:17:49 24.6 C 9 g/m*3 24.6 C 0 km/h
1317 13-07-2010 23:29:49 24.4 C 9.12 g/m*3 24.4 C 0 km/h
1318 13-07-2010 23:41:49 24.1 C 9.19 g/m*3 24.1 C 0 km/h
1319 13-07-2010 23:53:49 24.3 C 9.29 g/m*3 24.3 C 0 km/h
1320 14-07-2010 00:05:49 24.1 C 9.19 g/m*3 24.1 C 0 km/h
1321 14-07-2010 00:17:49 23.8 C 9.68 g/m*3 23.8 C 0 km/h
1322 14-07-2010 00:29:49 23.6 C 9.57 g/m*3 23.6 C 0 km/h
1323 14-07-2010 00:41:49 23.4 C 9.67 g/m*3 23.4 C 0 km/h
1324 14-07-2010 00:53:49 23.5 C 9.94 g/m*3 23.5 C 0 km/h
1325 14-07-2010 01:05:49 23.6 C 10 g/m*3 23.6 C 0 km/h
Sensor: Nr:Datum:Temp:Abs-Feuchte:Windchill:Wind:
Aussen-T/F 1326 14-07-2010 01:17:49 23.6 C 10 g/m*3 23.6 C 0 km/h
1327 14-07-2010 01:29:49 23.1 C 9.92 g/m*3 23.1 C 0 km/h
1328 14-07-2010 01:41:50 22.9 C 10.01 g/m*3 22.9 C 0 km/h
1329 14-07-2010 01:53:50 22.6 C 10.04 g/m*3 22.6 C 0 km/h
1330 14-07-2010 02:05:50 22.7 C 10.3 g/m*3 22.7 C 0 km/h
1331 14-07-2010 02:17:50 22.7 C 10.1 g/m*3 22.7 C 0 km/h
1332 14-07-2010 02:29:50 22.7 C 10.51 g/m*3 22.7 C 0 km/h
1333 14-07-2010 02:41:50 22.5 C 10.39 g/m*3 22.5 C 0 km/h
1334 14-07-2010 02:53:50 22.1 C 10.35 g/m*3 22.1 C 0 km/h
1335 14-07-2010 03:05:50 22 C 10.29 g/m*3 22 C 0 km/h
1336 14-07-2010 03:17:50 21.8 C 10.55 g/m*3 21.8 C 0 km/h
1337 14-07-2010 03:29:50 21.5 C 10.75 g/m*3 21.5 C 0 km/h
1338 14-07-2010 03:41:50 21.3 C 10.62 g/m*3 21.3 C 0 km/h
1339 14-07-2010 03:53:50 21.3 C 10.81 g/m*3 21.3 C 0 km/h
1340 14-07-2010 04:05:50 21.2 C 10.93 g/m*3 21.2 C 0 km/h
1341 14-07-2010 04:17:50 20.8 C 11.05 g/m*3 20.8 C 0 km/h
1342 14-07-2010 04:29:50 20.7 C 11.16 g/m*3 20.7 C 0 km/h
1343 14-07-2010 04:41:50 20.5 C 11.03 g/m*3 20.5 C 0 km/h
1344 14-07-2010 04:53:50 20.4 C 10.97 g/m*3 20.4 C 0 km/h
1345 14-07-2010 05:05:50 20.2 C 11.02 g/m*3 20.2 C 0 km/h
1346 14-07-2010 05:17:50 20.1 C 11.13 g/m*3 20.1 C 0 km/h
1347 14-07-2010 05:29:50 20.1 C 11.13 g/m*3 20.1 C 0 km/h
1348 14-07-2010 05:41:50 20.1 C 11.13 g/m*3 20.1 C 0 km/h
1349 14-07-2010 05:53:51 20 C 11.23 g/m*3 20 C 0 km/h
1350 14-07-2010 06:05:51 20 C 11.06 g/m*3 20 C 0 km/h
Sensor: Nr:Datum:Temp:Abs-Feuchte:Windchill:Wind:
Aussen-T/F 1351 14-07-2010 06:17:51 20.3 C 11.43 g/m*3 20.3 C 0 km/h
1352 14-07-2010 06:29:51 20.3 C 11.26 g/m*3 20.3 C 0 km/h
1353 14-07-2010 06:41:51 20.5 C 11.39 g/m*3 20.5 C 0 km/h
1354 14-07-2010 06:53:51 20.4 C 11.32 g/m*3 20.4 C 0 km/h
1355 14-07-2010 07:05:51 20.3 C 11.43 g/m*3 20.3 C 0 km/h
1356 14-07-2010 07:17:51 20.3 C 11.43 g/m*3 20.3 C 0 km/h
1357 14-07-2010 07:29:51 20.4 C 11.68 g/m*3 20.4 C 0 km/h
1358 14-07-2010 07:41:51 20.7 C 11.7 g/m*3 20.7 C 0 km/h
1359 14-07-2010 07:53:51 21.2 C 11.68 g/m*3 21.2 C 0 km/h
1360 14-07-2010 08:05:51 21.5 C 11.69 g/m*3 21.5 C 0 km/h
1361 14-07-2010 08:17:51 21.5 C 11.69 g/m*3 21.5 C 0 km/h
1362 14-07-2010 08:29:51 21.7 C 11.83 g/m*3 21.7 C 0 km/h
1363 14-07-2010 08:41:51 22 C 11.65 g/m*3 22 C 0 km/h
1364 14-07-2010 08:53:51 22.4 C 11.92 g/m*3 22.4 C 0 km/h
1365 14-07-2010 09:05:51 22.9 C 12.06 g/m*3 22.9 C 0 km/h
1366 14-07-2010 09:17:51 24 C 12.18 g/m*3 24 C 0 km/h
1367 14-07-2010 09:29:51 25.2 C 11.64 g/m*3 25.2 C 0 km/h
1368 14-07-2010 09:41:51 25.3 C 11.71 g/m*3 25.3 C 0 km/h
1369 14-07-2010 09:53:52 25.9 C 11.86 g/m*3 25.9 C 0 km/h
1370 14-07-2010 10:05:52 26.5 C 11.51 g/m*3 26.5 C 0 km/h
1371 14-07-2010 10:17:52 27.1 C 10.61 g/m*3 27.1 C 0 km/h
1372 14-07-2010 10:29:52 27.8 C 10.22 g/m*3 27.8 C 0 km/h
1373 14-07-2010 10:41:52 28.7 C 10.17 g/m*3 28.7 C 0 km/h
1374 14-07-2010 10:53:52 29.3 C 9.63 g/m*3 29.3 C 0 km/h
1375 14-07-2010 11:05:52 30 C 9.4 g/m*3 30 C 0 km/h
Sensor: Nr:Datum:Temp:Abs-Feuchte:Windchill:Wind:
Aussen-T/F 1376 14-07-2010 11:17:52 30.3 C 9.25 g/m*3 30.3 C 0 km/h
1377 14-07-2010 11:29:52 30.4 C 9.3 g/m*3 30.4 C 0 km/h
1378 14-07-2010 11:41:52 30.5 C 9.03 g/m*3 30.5 C 0 km/h
1379 14-07-2010 11:53:52 30.8 C 9.18 g/m*3 30.8 C 0 km/h
1380 14-07-2010 12:05:52 31.2 C 8.41 g/m*3 31.2 C 0 km/h
1381 14-07-2010 12:17:52 31.5 C 8.22 g/m*3 31.5 C 0 km/h
1382 14-07-2010 12:29:52 31.3 C 8.13 g/m*3 31.3 C 0 km/h
1383 14-07-2010 12:41:52 31.5 C 7.89 g/m*3 31.5 C 0 km/h
1384 14-07-2010 12:53:52 31.7 C 8.31 g/m*3 31.7 C 0 km/h
1385 14-07-2010 13:05:52 31.7 C 7.64 g/m*3 31.7 C 0 km/h
1386 14-07-2010 13:17:52 32.3 C 7.2 g/m*3 32.3 C 0 km/h
1387 14-07-2010 13:29:52 33.5 C 7.31 g/m*3 33.5 C 0 km/h
1388 14-07-2010 13:41:52 32.6 C 7.32 g/m*3 32.6 C 0 km/h
1389 14-07-2010 13:53:52 32 C 7.43 g/m*3 32 C 0 km/h
1390 14-07-2010 14:05:53 32.5 C 6.93 g/m*3 32.5 C 0 km/h
1391 14-07-2010 14:17:53 33.3 C 7.23 g/m*3 33.3 C 0 km/h
1392 14-07-2010 14:29:53 32.8 C 7.04 g/m*3 32.8 C 0 km/h
1393 14-07-2010 14:41:53 32.8 C 7.04 g/m*3 32.8 C 0 km/h
1394 14-07-2010 14:53:53 33.3 C 7.23 g/m*3 33.3 C 0 km/h
1395 14-07-2010 15:05:53 33 C 7.12 g/m*3 33 C 0 km/h
1396 14-07-2010 15:17:53 32.9 C 7.08 g/m*3 32.9 C 0 km/h
1397 14-07-2010 15:29:53 33.1 C 7.16 g/m*3 33.1 C 0 km/h
1398 14-07-2010 15:41:53 33.5 C 7.31 g/m*3 33.5 C 0 km/h
1399 14-07-2010 15:53:53 33.8 C 7.43 g/m*3 33.8 C 0 km/h
1400 14-07-2010 16:05:53 33.9 C 7.46 g/m*3 33.9 C 0 km/h
Sensor: Nr:Datum:Temp:Abs-Feuchte:Windchill:Wind:
Aussen-T/F 1401 14-07-2010 16:17:53 34.1 C 7.54 g/m*3 34.1 C 0 km/h
1402 14-07-2010 16:29:53 34.6 C 7.74 g/m*3 34.6 C 0 km/h
1403 14-07-2010 16:41:53 34.6 C 7.74 g/m*3 34.6 C 0 km/h
1404 14-07-2010 16:53:53 34.8 C 7.82 g/m*3 34.8 C 0 km/h
1405 14-07-2010 17:05:53 34.8 C 7.82 g/m*3 34.8 C 0 km/h
1406 14-07-2010 17:17:53 34.6 C 7.74 g/m*3 34.6 C 0 km/h
1407 14-07-2010 17:29:53 34.6 C 7.74 g/m*3 34.6 C 0 km/h
1408 14-07-2010 17:41:53 34.1 C 7.54 g/m*3 34.1 C 0 km/h
1409 14-07-2010 17:53:53 34.4 C 7.66 g/m*3 34.4 C 0 km/h
1410 14-07-2010 18:05:54 34.4 C 7.66 g/m*3 34.4 C 0 km/h
1411 14-07-2010 18:17:54 34.8 C 7.82 g/m*3 34.8 C 0 km/h
1412 14-07-2010 18:29:54 35 C 7.91 g/m*3 35 C 0 km/h
1413 14-07-2010 18:41:54 34.8 C 7.82 g/m*3 34.8 C 0 km/h
1414 14-07-2010 18:53:54 34.3 C 7.62 g/m*3 34.3 C 0 km/h
1415 14-07-2010 19:05:54 33.5 C 7.31 g/m*3 33.5 C 0 km/h
1416 14-07-2010 19:17:54 27.6 C 9.31 g/m*3 27.6 C 0 km/h
1417 14-07-2010 19:29:54 24.1 C 14 g/m*3 24.1 C 0 km/h
1418 14-07-2010 19:41:54 22.2 C 15.51 g/m*3 22.2 C 0 km/h
1419 14-07-2010 19:53:54 21.8 C 16.12 g/m*3 21.8 C 0 km/h
1420 14-07-2010 20:05:54 21.8 C 16.12 g/m*3 21.8 C 0 km/h
1421 14-07-2010 20:17:54 22.5 C 17.18 g/m*3 22.5 C 0 km/h
1422 14-07-2010 20:29:54 22.6 C 16.87 g/m*3 22.6 C 0 km/h
1423 14-07-2010 20:41:54 22.5 C 16.38 g/m*3 22.5 C 0 km/h
1424 14-07-2010 20:53:54 22.3 C 15.99 g/m*3 22.3 C 0 km/h
1425 14-07-2010 21:05:54 22 C 15.53 g/m*3 22 C 0 km/h
Sensor: Nr:Datum:Temp:Abs-Feuchte:Windchill:Wind:
Aussen-T/F 1426 14-07-2010 21:17:54 22 C 15.53 g/m*3 22 C 0 km/h
1427 14-07-2010 21:29:54 21.8 C 15.35 g/m*3 21.8 C 0 km/h
1428 14-07-2010 21:41:54 21.4 C 15.19 g/m*3 21.4 C 0 km/h
1429 14-07-2010 21:53:54 21.5 C 15.46 g/m*3 21.5 C 0 km/h
1430 14-07-2010 22:05:54 21.6 C 15.36 g/m*3 21.6 C 0 km/h
1431 14-07-2010 22:17:55 21.6 C 14.98 g/m*3 21.6 C 0 km/h
1432 14-07-2010 22:29:55 21.4 C 14.44 g/m*3 21.4 C 0 km/h
1433 14-07-2010 22:41:55 21.5 C 14.33 g/m*3 21.5 C 0 km/h
1434 14-07-2010 22:53:55 21.4 C 14.25 g/m*3 21.4 C 0 km/h
1435 14-07-2010 23:05:55 21.5 C 14.14 g/m*3 21.5 C 0 km/h
1436 14-07-2010 23:17:55 21.4 C 14.06 g/m*3 21.4 C 0 km/h
1437 14-07-2010 23:29:55 21.4 C 14.06 g/m*3 21.4 C 0 km/h
1438 14-07-2010 23:41:55 21.2 C 13.9 g/m*3 21.2 C 0 km/h
1439 14-07-2010 23:53:55 20.9 C 13.84 g/m*3 20.9 C 0 km/h
1440 15-07-2010 00:05:55 21 C 13.92 g/m*3 21 C 0 km/h
1441 15-07-2010 00:17:55 21 C 13.56 g/m*3 21 C 0 km/h
1442 15-07-2010 00:29:55 21.2 C 13.53 g/m*3 21.2 C 0 km/h
1443 15-07-2010 00:41:55 21.1 C 13.45 g/m*3 21.1 C 0 km/h
1444 15-07-2010 00:53:55 20.9 C 12.75 g/m*3 20.9 C 0 km/h
1445 15-07-2010 01:05:55 20.6 C 12.35 g/m*3 20.6 C 0 km/h
1446 15-07-2010 01:17:55 20.2 C 11.89 g/m*3 20.2 C 0 km/h
1447 15-07-2010 01:29:55 20.1 C 11.65 g/m*3 20.1 C 0 km/h
1448 15-07-2010 01:41:55 20 C 11.41 g/m*3 20 C 0 km/h
1449 15-07-2010 01:53:55 19.9 C 11.51 g/m*3 19.9 C 0 km/h
1450 15-07-2010 02:05:55 19.7 C 11.55 g/m*3 19.7 C 0 km/h
Sensor: Nr:Datum:Temp:Abs-Feuchte:Windchill:Wind:
Aussen-T/F 1451 15-07-2010 02:17:55 19.7 C 11.55 g/m*3 19.7 C 0 km/h
1452 15-07-2010 02:29:56 19.5 C 11.58 g/m*3 19.5 C 0 km/h
1453 15-07-2010 02:41:56 19.5 C 11.75 g/m*3 19.5 C 0 km/h
1454 15-07-2010 02:53:56 19.5 C 11.75 g/m*3 19.5 C 0 km/h
1455 15-07-2010 03:05:56 19.4 C 11.35 g/m*3 19.4 C 0 km/h
1456 15-07-2010 03:17:56 19.3 C 10.95 g/m*3 19.3 C 0 km/h
1457 15-07-2010 03:29:56 19.3 C 10.95 g/m*3 19.3 C 0 km/h
1458 15-07-2010 03:41:56 19.3 C 10.95 g/m*3 19.3 C 0 km/h
1459 15-07-2010 03:53:56 19.3 C 11.11 g/m*3 19.3 C 0 km/h
1460 15-07-2010 04:05:56 19.2 C 11.05 g/m*3 19.2 C 0 km/h
1461 15-07-2010 04:17:56 19.1 C 10.98 g/m*3 19.1 C 0 km/h
1462 15-07-2010 04:29:56 19 C 10.92 g/m*3 19 C 0 km/h
1463 15-07-2010 04:41:56 18.8 C 11.11 g/m*3 18.8 C 0 km/h
1464 15-07-2010 04:53:56 18.6 C 11.14 g/m*3 18.6 C 0 km/h
1465 15-07-2010 05:05:56 18.6 C 11.14 g/m*3 18.6 C 0 km/h
1466 15-07-2010 05:17:56 18.6 C 11.14 g/m*3 18.6 C 0 km/h
1467 15-07-2010 05:29:56 18.7 C 11.21 g/m*3 18.7 C 0 km/h
1468 15-07-2010 05:41:56 18.9 C 11.34 g/m*3 18.9 C 0 km/h
1469 15-07-2010 05:53:56 19 C 11.08 g/m*3 19 C 0 km/h
1470 15-07-2010 06:05:56 19 C 11.08 g/m*3 19 C 0 km/h
1471 15-07-2010 06:17:56 19 C 10.76 g/m*3 19 C 0 km/h
1472 15-07-2010 06:29:56 18.9 C 11.02 g/m*3 18.9 C 0 km/h
1473 15-07-2010 06:41:56 18.8 C 11.11 g/m*3 18.8 C 0 km/h
1474 15-07-2010 06:53:57 18.8 C 10.95 g/m*3 18.8 C 0 km/h
1475 15-07-2010 07:05:57 19.4 C 11.01 g/m*3 19.4 C 0 km/h
Sensor: Nr:Datum:Temp:Abs-Feuchte:Windchill:Wind:
Aussen-T/F 1476 15-07-2010 07:17:57 18.7 C 11.53 g/m*3 18.7 C 0 km/h
1477 15-07-2010 07:29:57 18.4 C 12.11 g/m*3 18.4 C 0 km/h
1478 15-07-2010 07:41:57 18.1 C 12.36 g/m*3 18.1 C 0 km/h
1479 15-07-2010 07:53:57 17.9 C 12.37 g/m*3 17.9 C 0 km/h
1480 15-07-2010 08:05:57 18.2 C 12.28 g/m*3 18.2 C 0 km/h
1481 15-07-2010 08:17:57 18.4 C 12.11 g/m*3 18.4 C 0 km/h
1482 15-07-2010 08:29:57 18.3 C 11.57 g/m*3 18.3 C 0 km/h
1483 15-07-2010 08:41:57 18.5 C 11.23 g/m*3 18.5 C 0 km/h
1484 15-07-2010 08:53:57 18.7 C 11.21 g/m*3 18.7 C 0 km/h
1485 15-07-2010 09:05:57 19 C 10.27 g/m*3 19 C 0 km/h
1486 15-07-2010 09:17:57 19.2 C 9.4 g/m*3 19.2 C 0 km/h
1487 15-07-2010 09:29:57 19.5 C 8.89 g/m*3 19.5 C 0 km/h
1488 15-07-2010 09:41:57 19.9 C 8.42 g/m*3 19.9 C 0 km/h
1489 15-07-2010 09:53:57 20.3 C 8.27 g/m*3 20.3 C 0 km/h
1490 15-07-2010 10:05:57 20.5 C 7.65 g/m*3 20.5 C 0 km/h
1491 15-07-2010 10:17:57 20.9 C 7.83 g/m*3 20.9 C 0 km/h
1492 15-07-2010 10:29:57 21.3 C 7.64 g/m*3 21.3 C 0 km/h
1493 15-07-2010 10:41:57 21.6 C 7.59 g/m*3 21.6 C 0 km/h
1494 15-07-2010 10:53:57 21.8 C 7.1 g/m*3 21.8 C 0 km/h
1495 15-07-2010 11:05:57 21.9 C 6.95 g/m*3 21.9 C 0 km/h
1496 15-07-2010 11:17:57 21.9 C 6.95 g/m*3 21.9 C 0 km/h
1497 15-07-2010 11:29:58 22.5 C 6.99 g/m*3 22.5 C 0 km/h
1498 15-07-2010 11:41:58 22.8 C 6.71 g/m*3 22.8 C 0 km/h
1499 15-07-2010 11:53:58 22.5 C 6.19 g/m*3 22.5 C 0 km/h
1500 15-07-2010 12:05:58 23.7 C 6.2 g/m*3 23.7 C 0 km/h
Sensor: Nr:Datum:Temp:Abs-Feuchte:Windchill:Wind:
Aussen-T/F 1501 15-07-2010 12:17:58 24.4 C 5.56 g/m*3 24.4 C 0 km/h
1502 15-07-2010 12:29:58 24.7 C 5.88 g/m*3 24.7 C 0 km/h
1503 15-07-2010 12:41:58 24.7 C 5.88 g/m*3 24.7 C 0 km/h
1504 15-07-2010 12:53:58 24.6 C 5.63 g/m*3 24.6 C 0 km/h
1505 15-07-2010 13:05:58 25.2 C 5.12 g/m*3 25.2 C 0 km/h
1506 15-07-2010 13:17:58 26.1 C 5.14 g/m*3 26.1 C 0 km/h
1507 15-07-2010 13:29:58 26.4 C 5.23 g/m*3 26.4 C 0 km/h
1508 15-07-2010 13:41:58 26.3 C 4.95 g/m*3 26.3 C 0 km/h
1509 15-07-2010 13:53:58 26.7 C 5.06 g/m*3 26.7 C 0 km/h
1510 15-07-2010 14:05:58 26.2 C 4.92 g/m*3 26.2 C 0 km/h
1511 15-07-2010 14:17:58 25.6 C 4.76 g/m*3 25.6 C 0 km/h
1512 15-07-2010 14:29:58 26.3 C 4.95 g/m*3 26.3 C 0 km/h
1513 15-07-2010 14:41:58 26.6 C 5.03 g/m*3 26.6 C 0 km/h
1514 15-07-2010 14:53:58 26.4 C 4.98 g/m*3 26.4 C 0 km/h
1515 15-07-2010 15:05:58 26.4 C 4.98 g/m*3 26.4 C 0 km/h
1516 15-07-2010 15:17:58 27.7 C 5.35 g/m*3 27.7 C 0 km/h
1517 15-07-2010 15:29:58 26 C 4.87 g/m*3 26 C 0 km/h
1518 15-07-2010 15:41:59 27.2 C 5.2 g/m*3 27.2 C 0 km/h
1519 15-07-2010 15:53:59 27.2 C 5.2 g/m*3 27.2 C 0 km/h
1520 15-07-2010 16:05:59 27.6 C 5.32 g/m*3 27.6 C 0 km/h
1521 15-07-2010 16:17:59 27.5 C 5.29 g/m*3 27.5 C 0 km/h
1522 15-07-2010 16:29:59 27.9 C 5.41 g/m*3 27.9 C 0 km/h
1523 15-07-2010 16:41:59 27.9 C 5.41 g/m*3 27.9 C 0 km/h
1524 15-07-2010 16:53:59 28.2 C 5.5 g/m*3 28.2 C 0 km/h
1525 15-07-2010 17:05:59 28.6 C 5.62 g/m*3 28.6 C 0 km/h
Sensor: Nr:Datum:Temp:Abs-Feuchte:Windchill:Wind:
Aussen-T/F 1526 15-07-2010 17:17:59 27.9 C 5.41 g/m*3 27.9 C 0 km/h
1527 15-07-2010 17:29:59 28.3 C 5.53 g/m*3 28.3 C 0 km/h
1528 15-07-2010 17:41:59 28.8 C 5.68 g/m*3 28.8 C 0 km/h
1529 15-07-2010 17:53:59 28.7 C 5.65 g/m*3 28.7 C 0 km/h
1530 15-07-2010 18:05:59 28.5 C 5.59 g/m*3 28.5 C 0 km/h
1531 15-07-2010 18:17:59 29.1 C 5.78 g/m*3 29.1 C 0 km/h
1532 15-07-2010 18:29:59 27.9 C 5.41 g/m*3 27.9 C 0 km/h
1533 15-07-2010 18:41:59 26.5 C 5.01 g/m*3 26.5 C 0 km/h
1534 15-07-2010 18:52:59 27.9 C 5.41 g/m*3 27.9 C 0 km/h
1535 15-07-2010 19:04:59 27.7 C 5.35 g/m*3 27.7 C 0 km/h
1536 15-07-2010 19:16:59 27.3 C 5.23 g/m*3 27.3 C 0 km/h
1537 15-07-2010 19:28:59 28.1 C 5.47 g/m*3 28.1 C 0 km/h
1538 15-07-2010 19:40:59 26.4 C 4.98 g/m*3 26.4 C 0 km/h
1539 15-07-2010 19:53:00 26.8 C 5.09 g/m*3 26.8 C 0 km/h
1540 15-07-2010 20:05:00 26.9 C 5.12 g/m*3 26.9 C 0 km/h
1541 15-07-2010 20:17:00 26.8 C 5.09 g/m*3 26.8 C 0 km/h
1542 15-07-2010 20:29:00 26.5 C 5.01 g/m*3 26.5 C 0 km/h
1543 15-07-2010 20:41:00 26.4 C 5.23 g/m*3 26.4 C 0 km/h
1544 15-07-2010 20:53:00 26.4 C 5.73 g/m*3 26.4 C 0 km/h
1545 15-07-2010 21:05:00 25.4 C 5.89 g/m*3 25.4 C 0 km/h
1546 15-07-2010 21:17:00 24.5 C 6.04 g/m*3 24.5 C 0 km/h
1547 15-07-2010 21:29:00 23.5 C 5.92 g/m*3 23.5 C 0 km/h
1548 15-07-2010 21:41:00 22.8 C 6.3 g/m*3 22.8 C 0 km/h
1549 15-07-2010 21:53:00 22.5 C 6.19 g/m*3 22.5 C 0 km/h
1550 15-07-2010 22:05:00 22 C 6.02 g/m*3 22 C 0 km/h
Sensor: Nr:Datum:Temp:Abs-Feuchte:Windchill:Wind:
Aussen-T/F 1551 15-07-2010 22:17:00 21.8 C 6.33 g/m*3 21.8 C 0 km/h
1552 15-07-2010 22:29:00 21.5 C 6.41 g/m*3 21.5 C 0 km/h
1553 15-07-2010 22:41:00 21.1 C 6.45 g/m*3 21.1 C 0 km/h
1554 15-07-2010 22:53:00 20.9 C 6.74 g/m*3 20.9 C 0 km/h
1555 15-07-2010 23:05:00 20.5 C 6.58 g/m*3 20.5 C 0 km/h
1556 15-07-2010 23:17:00 20.2 C 6.82 g/m*3 20.2 C 0 km/h
1557 15-07-2010 23:29:00 19.9 C 6.87 g/m*3 19.9 C 0 km/h
1558 15-07-2010 23:41:00 19.7 C 6.79 g/m*3 19.7 C 0 km/h
1559 15-07-2010 23:53:00 19.3 C 6.8 g/m*3 19.3 C 0 km/h
1560 16-07-2010 00:05:01 19.1 C 6.72 g/m*3 19.1 C 0 km/h
1561 16-07-2010 00:17:01 18.8 C 6.93 g/m*3 18.8 C 0 km/h
1562 16-07-2010 00:29:01 18.6 C 6.84 g/m*3 18.6 C 0 km/h
1563 16-07-2010 00:41:01 18.3 C 7.04 g/m*3 18.3 C 0 km/h
1564 16-07-2010 00:53:01 18.2 C 6.99 g/m*3 18.2 C 0 km/h
1565 16-07-2010 01:05:01 18.1 C 7.11 g/m*3 18.1 C 0 km/h
1566 16-07-2010 01:17:01 17.9 C 7.18 g/m*3 17.9 C 0 km/h
1567 16-07-2010 01:29:01 17.7 C 7.24 g/m*3 17.7 C 0 km/h
1568 16-07-2010 01:41:01 17.6 C 7.5 g/m*3 17.6 C 0 km/h
1569 16-07-2010 01:53:01 17.5 C 7.45 g/m*3 17.5 C 0 km/h
1570 16-07-2010 02:05:01 17.1 C 7.57 g/m*3 17.1 C 0 km/h
1571 16-07-2010 02:17:01 16.9 C 7.77 g/m*3 16.9 C 0 km/h
1572 16-07-2010 02:29:01 16.8 C 8.01 g/m*3 16.8 C 0 km/h
1573 16-07-2010 02:41:01 16.5 C 8 g/m*3 16.5 C 0 km/h
1574 16-07-2010 02:53:01 16.4 C 8.1 g/m*3 16.4 C 0 km/h
1575 16-07-2010 03:05:01 16.3 C 8.05 g/m*3 16.3 C 0 km/h
Sensor: Nr:Datum:Temp:Abs-Feuchte:Windchill:Wind:
Aussen-T/F 1576 16-07-2010 03:17:01 16.1 C 8.09 g/m*3 16.1 C 0 km/h
1577 16-07-2010 03:29:01 16 C 8.17 g/m*3 16 C 0 km/h
1578 16-07-2010 03:41:01 15.8 C 8.21 g/m*3 15.8 C 0 km/h
1579 16-07-2010 03:53:01 15.6 C 7.98 g/m*3 15.6 C 0 km/h
1580 16-07-2010 04:05:01 15.5 C 8.06 g/m*3 15.5 C 0 km/h
1581 16-07-2010 04:17:01 15.4 C 8.15 g/m*3 15.4 C 0 km/h
1582 16-07-2010 04:29:02 15.2 C 8.31 g/m*3 15.2 C 0 km/h
1583 16-07-2010 04:41:02 15 C 8.08 g/m*3 15 C 0 km/h
1584 16-07-2010 04:53:02 15 C 8.21 g/m*3 15 C 0 km/h
1585 16-07-2010 05:05:02 14.8 C 8.36 g/m*3 14.8 C 0 km/h
1586 16-07-2010 05:17:02 14.7 C 8.31 g/m*3 14.7 C 0 km/h
1587 16-07-2010 05:29:02 14.6 C 8.13 g/m*3 14.6 C 0 km/h
1588 16-07-2010 05:41:02 14.6 C 8.26 g/m*3 14.6 C 0 km/h
1589 16-07-2010 05:53:02 14.5 C 8.46 g/m*3 14.5 C 0 km/h
1590 16-07-2010 06:05:02 14.4 C 8.41 g/m*3 14.4 C 0 km/h
1591 16-07-2010 06:17:02 14.3 C 8.48 g/m*3 14.3 C 0 km/h
1592 16-07-2010 06:29:02 14.4 C 8.65 g/m*3 14.4 C 0 km/h
1593 16-07-2010 06:41:02 14.5 C 8.71 g/m*3 14.5 C 0 km/h
1594 16-07-2010 06:53:02 14.7 C 8.81 g/m*3 14.7 C 0 km/h
1595 16-07-2010 07:05:02 14.8 C 8.87 g/m*3 14.8 C 0 km/h
1596 16-07-2010 07:17:02 14.9 C 8.92 g/m*3 14.9 C 0 km/h
1597 16-07-2010 07:29:02 15.2 C 8.83 g/m*3 15.2 C 0 km/h
1598 16-07-2010 07:41:02 15.3 C 8.88 g/m*3 15.3 C 0 km/h
1599 16-07-2010 07:53:02 15.6 C 8.91 g/m*3 15.6 C 0 km/h
1600 16-07-2010 08:05:02 15.9 C 8.94 g/m*3 15.9 C 0 km/h
Sensor: Nr:Datum:Temp:Abs-Feuchte:Windchill:Wind:
Aussen-T/F 1601 16-07-2010 08:17:02 16.2 C 8.83 g/m*3 16.2 C 0 km/h
1602 16-07-2010 08:29:02 16.6 C 9.04 g/m*3 16.6 C 0 km/h
1603 16-07-2010 08:41:03 17 C 8.97 g/m*3 17 C 0 km/h
1604 16-07-2010 08:53:03 17.4 C 9.19 g/m*3 17.4 C 0 km/h
1605 16-07-2010 09:05:03 18.1 C 9.27 g/m*3 18.1 C 0 km/h
1606 16-07-2010 09:17:03 19 C 9.45 g/m*3 19 C 0 km/h
1607 16-07-2010 09:29:03 19.6 C 9.45 g/m*3 19.6 C 0 km/h
1608 16-07-2010 09:41:03 20.4 C 9.2 g/m*3 20.4 C 0 km/h
1609 16-07-2010 09:53:03 21.3 C 9.32 g/m*3 21.3 C 0 km/h
1610 16-07-2010 10:05:03 22.1 C 9.17 g/m*3 22.1 C 0 km/h
1611 16-07-2010 10:17:03 23 C 9.25 g/m*3 23 C 0 km/h
1612 16-07-2010 10:29:03 23.8 C 9.25 g/m*3 23.8 C 0 km/h
1613 16-07-2010 10:41:03 24.2 C 8.14 g/m*3 24.2 C 0 km/h
1614 16-07-2010 10:53:03 24.9 C 7.55 g/m*3 24.9 C 0 km/h
1615 16-07-2010 11:05:03 25.6 C 7.14 g/m*3 25.6 C 0 km/h
1616 16-07-2010 11:17:03 26 C 5.11 g/m*3 26 C 0 km/h
1617 16-07-2010 11:29:03 26.3 C 5.69 g/m*3 26.3 C 0 km/h
1618 16-07-2010 11:41:03 26.5 C 5.51 g/m*3 26.5 C 0 km/h
1619 16-07-2010 11:53:03 26.9 C 5.63 g/m*3 26.9 C 0 km/h
1620 16-07-2010 12:05:03 27.3 C 5.49 g/m*3 27.3 C 0 km/h
1621 16-07-2010 12:17:03 27.9 C 5.41 g/m*3 27.9 C 0 km/h
1622 16-07-2010 12:29:03 28.6 C 5.62 g/m*3 28.6 C 0 km/h
1623 16-07-2010 12:41:03 29.2 C 5.81 g/m*3 29.2 C 0 km/h
1624 16-07-2010 12:53:04 29.7 C 5.97 g/m*3 29.7 C 0 km/h
1625 16-07-2010 13:05:04 30 C 6.06 g/m*3 30 C 0 km/h
Sensor: Nr:Datum:Temp:Abs-Feuchte:Windchill:Wind:
Aussen-T/F 1626 16-07-2010 13:17:04 30.6 C 6.26 g/m*3 30.6 C 0 km/h
1627 16-07-2010 13:29:04 30.5 C 6.23 g/m*3 30.5 C 0 km/h
1628 16-07-2010 13:41:04 31.4 C 6.54 g/m*3 31.4 C 0 km/h
1629 16-07-2010 13:53:04 30.9 C 6.37 g/m*3 30.9 C 0 km/h
1630 16-07-2010 14:05:04 31.1 C 6.43 g/m*3 31.1 C 0 km/h
1631 16-07-2010 14:17:04 30.7 C 6.3 g/m*3 30.7 C 0 km/h
1632 16-07-2010 14:29:04 31.1 C 6.43 g/m*3 31.1 C 0 km/h
1633 16-07-2010 14:41:04 31.2 C 6.47 g/m*3 31.2 C 0 km/h
1634 16-07-2010 14:53:04 31.2 C 6.47 g/m*3 31.2 C 0 km/h
1635 16-07-2010 15:05:04 31.5 C 6.57 g/m*3 31.5 C 0 km/h
1636 16-07-2010 15:17:04 31.5 C 6.57 g/m*3 31.5 C 0 km/h
1637 16-07-2010 15:29:04 31.9 C 6.72 g/m*3 31.9 C 0 km/h
1638 16-07-2010 15:41:04 32.1 C 6.79 g/m*3 32.1 C 0 km/h
1639 16-07-2010 15:53:04 32.3 C 6.86 g/m*3 32.3 C 0 km/h
1640 16-07-2010 16:05:04 32.4 C 6.9 g/m*3 32.4 C 0 km/h
1641 16-07-2010 16:17:04 32.3 C 6.86 g/m*3 32.3 C 0 km/h
1642 16-07-2010 16:29:04 32.6 C 6.97 g/m*3 32.6 C 0 km/h
1643 16-07-2010 16:41:04 32.4 C 6.9 g/m*3 32.4 C 0 km/h
1644 16-07-2010 16:53:05 32.5 C 6.93 g/m*3 32.5 C 0 km/h
1645 16-07-2010 17:05:05 32.5 C 6.93 g/m*3 32.5 C 0 km/h
1646 16-07-2010 17:17:05 32.5 C 6.93 g/m*3 32.5 C 0 km/h
1647 16-07-2010 17:29:05 32.5 C 6.93 g/m*3 32.5 C 0 km/h
1648 16-07-2010 17:41:05 32.8 C 7.04 g/m*3 32.8 C 0 km/h
1649 16-07-2010 17:53:05 32.5 C 6.93 g/m*3 32.5 C 0 km/h
1650 16-07-2010 18:05:05 32.8 C 7.04 g/m*3 32.8 C 0 km/h
Sensor: Nr:Datum:Temp:Abs-Feuchte:Windchill:Wind:
Aussen-T/F 1651 16-07-2010 18:17:05 32.7 C 7.01 g/m*3 32.7 C 0 km/h
1652 16-07-2010 18:29:05 32.7 C 7.01 g/m*3 32.7 C 0 km/h
1653 16-07-2010 18:41:05 32.7 C 7.01 g/m*3 32.7 C 0 km/h
1654 16-07-2010 18:53:05 32.7 C 7.01 g/m*3 32.7 C 0 km/h
1655 16-07-2010 19:05:05 32 C 6.75 g/m*3 32 C 0 km/h
1656 16-07-2010 19:17:05 31.7 C 6.64 g/m*3 31.7 C 0 km/h
1657 16-07-2010 19:29:05 31.3 C 6.5 g/m*3 31.3 C 0 km/h
1658 16-07-2010 19:41:05 30.8 C 6.33 g/m*3 30.8 C 0 km/h
1659 16-07-2010 19:53:05 30.4 C 6.51 g/m*3 30.4 C 0 km/h
1660 16-07-2010 20:05:05 30 C 6.67 g/m*3 30 C 0 km/h
1661 16-07-2010 20:17:05 29.6 C 7.42 g/m*3 29.6 C 0 km/h
1662 16-07-2010 20:29:05 29.1 C 7.22 g/m*3 29.1 C 0 km/h
1663 16-07-2010 20:41:05 29.2 C 7.26 g/m*3 29.2 C 0 km/h
1664 16-07-2010 20:53:05 29.1 C 7.51 g/m*3 29.1 C 0 km/h
1665 16-07-2010 21:05:06 28.9 C 7.43 g/m*3 28.9 C 0 km/h
1666 16-07-2010 21:17:06 28.8 C 7.39 g/m*3 28.8 C 0 km/h
1667 16-07-2010 21:29:06 28.4 C 7.51 g/m*3 28.4 C 0 km/h
1668 16-07-2010 21:41:06 28 C 7.34 g/m*3 28 C 0 km/h
1669 16-07-2010 21:53:06 27.4 C 7.63 g/m*3 27.4 C 0 km/h
1670 16-07-2010 22:05:06 27.2 C 7.81 g/m*3 27.2 C 0 km/h
1671 16-07-2010 22:17:06 26.8 C 7.64 g/m*3 26.8 C 0 km/h
1672 16-07-2010 22:29:01 26.3 C 7.43 g/m*3 26.3 C 0 km/h
1673 16-07-2010 22:41:01 25.8 C 7.7 g/m*3 25.8 C 0 km/h
1674 16-07-2010 22:53:01 25.8 C 7.94 g/m*3 25.8 C 0 km/h
1675 16-07-2010 23:05:01 25.9 C 8.23 g/m*3 25.9 C 0 km/h
Sensor: Nr:Datum:Temp:Abs-Feuchte:Windchill:Wind:
Aussen-T/F 1676 16-07-2010 23:17:02 25.8 C 8.43 g/m*3 25.8 C 0 km/h
1677 16-07-2010 23:29:02 25.6 C 8.33 g/m*3 25.6 C 0 km/h
1678 16-07-2010 23:41:01 25.5 C 8.52 g/m*3 25.5 C 0 km/h
1679 16-07-2010 23:53:03 25 C 8.75 g/m*3 25 C 0 km/h
1680 17-07-2010 00:06:04 24.5 C 8.28 g/m*3 24.5 C 0 km/h
1681 17-07-2010 00:18:04 23.8 C 8.6 g/m*3 23.8 C 0 km/h
1682 17-07-2010 00:30:04 23.5 C 8.88 g/m*3 23.5 C 0 km/h
1683 17-07-2010 00:42:04 22.5 C 10.19 g/m*3 22.5 C 0 km/h
1684 17-07-2010 00:54:04 22.2 C 9.42 g/m*3 22.2 C 0 km/h
1685 17-07-2010 01:06:04 22.3 C 9.87 g/m*3 22.3 C 0 km/h
1686 17-07-2010 01:18:04 21.4 C 11.25 g/m*3 21.4 C 0 km/h
1687 17-07-2010 01:30:04 19.9 C 11.68 g/m*3 19.9 C 0 km/h
1688 17-07-2010 01:42:04 19.8 C 11.44 g/m*3 19.8 C 0 km/h
1689 17-07-2010 01:54:04 20.1 C 11.47 g/m*3 20.1 C 0 km/h
1690 17-07-2010 02:06:04 20.3 C 11.43 g/m*3 20.3 C 0 km/h
1691 17-07-2010 02:18:04 20.3 C 11.08 g/m*3 20.3 C 0 km/h
1692 17-07-2010 02:30:04 20.1 C 10.95 g/m*3 20.1 C 0 km/h
1693 17-07-2010 02:42:04 20.1 C 10.95 g/m*3 20.1 C 0 km/h
1694 17-07-2010 02:54:04 20.1 C 11.13 g/m*3 20.1 C 0 km/h
1695 17-07-2010 03:06:04 20.1 C 11.3 g/m*3 20.1 C 0 km/h
1696 17-07-2010 03:18:04 19.8 C 11.96 g/m*3 19.8 C 0 km/h
1697 17-07-2010 03:30:04 19.7 C 11.89 g/m*3 19.7 C 0 km/h
1698 17-07-2010 03:42:04 20 C 11.92 g/m*3 20 C 0 km/h
1699 17-07-2010 03:54:04 19.8 C 12.3 g/m*3 19.8 C 0 km/h
1700 17-07-2010 04:06:05 19.7 C 11.89 g/m*3 19.7 C 0 km/h
Sensor: Nr:Datum:Temp:Abs-Feuchte:Windchill:Wind:
Aussen-T/F 1701 17-07-2010 04:18:05 19.9 C 11.85 g/m*3 19.9 C 0 km/h
1702 17-07-2010 04:30:05 19.2 C 12.37 g/m*3 19.2 C 0 km/h
1703 17-07-2010 04:42:05 18.7 C 13.13 g/m*3 18.7 C 0 km/h
1704 17-07-2010 04:54:05 18.3 C 13.13 g/m*3 18.3 C 0 km/h
1705 17-07-2010 05:06:05 18.4 C 13.37 g/m*3 18.4 C 0 km/h
1706 17-07-2010 05:18:05 18.3 C 13.45 g/m*3 18.3 C 0 km/h
1707 17-07-2010 05:30:05 18.1 C 13.29 g/m*3 18.1 C 0 km/h
1708 17-07-2010 05:42:05 17.9 C 13.44 g/m*3 17.9 C 0 km/h
1709 17-07-2010 05:54:05 17.7 C 13.28 g/m*3 17.7 C 0 km/h
1710 17-07-2010 06:06:05 17.6 C 13.2 g/m*3 17.6 C 0 km/h
1711 17-07-2010 06:18:05 17.5 C 13.12 g/m*3 17.5 C 0 km/h
1712 17-07-2010 06:30:05 17.7 C 13.43 g/m*3 17.7 C 0 km/h
1713 17-07-2010 06:42:05 17.8 C 13.51 g/m*3 17.8 C 0 km/h
1714 17-07-2010 06:54:05 17.8 C 13.66 g/m*3 17.8 C 0 km/h
1715 17-07-2010 07:06:05 17.8 C 13.66 g/m*3 17.8 C 0 km/h
1716 17-07-2010 07:18:05 17.8 C 13.66 g/m*3 17.8 C 0 km/h
1717 17-07-2010 07:30:05 17.9 C 13.59 g/m*3 17.9 C 0 km/h
1718 17-07-2010 07:42:05 18 C 13.36 g/m*3 18 C 0 km/h
1719 17-07-2010 07:54:05 17.9 C 13.44 g/m*3 17.9 C 0 km/h
1720 17-07-2010 08:06:04 17.8 C 13.36 g/m*3 17.8 C 0 km/h
1721 17-07-2010 08:18:04 17.7 C 13.43 g/m*3 17.7 C 0 km/h
1722 17-07-2010 08:30:04 17.5 C 13.27 g/m*3 17.5 C 0 km/h
1723 17-07-2010 08:42:03 17.5 C 13.27 g/m*3 17.5 C 0 km/h
1724 17-07-2010 08:54:01 17.7 C 13.58 g/m*3 17.7 C 0 km/h
1725 17-07-2010 09:06:02 17.8 C 13.66 g/m*3 17.8 C 0 km/h
Sensor: Nr:Datum:Temp:Abs-Feuchte:Windchill:Wind:
Aussen-T/F 1726 17-07-2010 09:18:03 18.1 C 13.75 g/m*3 18.1 C 0 km/h
1727 17-07-2010 09:30:03 18.8 C 13.85 g/m*3 18.8 C 0 km/h
1728 17-07-2010 09:42:02 18.9 C 13.28 g/m*3 18.9 C 0 km/h
1729 17-07-2010 09:54:02 19.1 C 12.95 g/m*3 19.1 C 0 km/h
1730 17-07-2010 10:06:01 19 C 12.71 g/m*3 19 C 0 km/h
1731 17-07-2010 10:18:02 19.2 C 12.53 g/m*3 19.2 C 0 km/h
1732 17-07-2010 10:30:03 19.7 C 12.74 g/m*3 19.7 C 0 km/h
1733 17-07-2010 10:42:01 20 C 12.44 g/m*3 20 C 0 km/h
1734 17-07-2010 10:54:02 20.1 C 12.34 g/m*3 20.1 C 0 km/h
1735 17-07-2010 11:06:01 21 C 12.46 g/m*3 21 C 0 km/h
1736 17-07-2010 11:18:02 21.2 C 11.86 g/m*3 21.2 C 0 km/h
1737 17-07-2010 11:30:02 21.8 C 11.13 g/m*3 21.8 C 0 km/h
1738 17-07-2010 11:42:02 23.3 C 11.08 g/m*3 23.3 C 0 km/h
1739 17-07-2010 11:54:02 23.7 C 10.69 g/m*3 23.7 C 0 km/h
1740 17-07-2010 12:06:01 23.7 C 10.27 g/m*3 23.7 C 0 km/h
1741 17-07-2010 12:18:02 23.7 C 9.84 g/m*3 23.7 C 0 km/h
1742 17-07-2010 12:30:02 24.6 C 8.55 g/m*3 24.6 C 0 km/h
1743 17-07-2010 12:42:02 25.3 C 8.66 g/m*3 25.3 C 0 km/h
1744 17-07-2010 12:54:01 26 C 7.79 g/m*3 26 C 0 km/h
1745 17-07-2010 13:06:02 26.5 C 8.01 g/m*3 26.5 C 0 km/h
1746 17-07-2010 13:18:01 25 C 7.37 g/m*3 25 C 0 km/h
1747 17-07-2010 13:30:01 26.3 C 7.67 g/m*3 26.3 C 0 km/h
1748 17-07-2010 13:42:02 25.7 C 7.66 g/m*3 25.7 C 0 km/h
1749 17-07-2010 13:54:02 26.6 C 7.05 g/m*3 26.6 C 0 km/h
1750 17-07-2010 14:06:02 26 C 7.55 g/m*3 26 C 0 km/h
Sensor: Nr:Datum:Temp:Abs-Feuchte:Windchill:Wind:
Aussen-T/F 1751 17-07-2010 14:18:02 25.9 C 7.51 g/m*3 25.9 C 0 km/h
1752 17-07-2010 14:30:02 26.3 C 7.43 g/m*3 26.3 C 0 km/h
1753 17-07-2010 14:42:02 26 C 6.82 g/m*3 26 C 0 km/h
1754 17-07-2010 14:54:01 26.5 C 7.01 g/m*3 26.5 C 0 km/h
1755 17-07-2010 15:06:02 27 C 6.69 g/m*3 27 C 0 km/h
1756 17-07-2010 15:18:01 27.5 C 6.35 g/m*3 27.5 C 0 km/h
1757 17-07-2010 15:30:01 27.3 C 6.54 g/m*3 27.3 C 0 km/h
1758 17-07-2010 15:42:02 27.5 C 6.61 g/m*3 27.5 C 0 km/h
1759 17-07-2010 15:54:01 26.6 C 6.29 g/m*3 26.6 C 0 km/h
1760 17-07-2010 16:06:02 27.3 C 6.54 g/m*3 27.3 C 0 km/h
1761 17-07-2010 16:18:02 26.4 C 6.22 g/m*3 26.4 C 0 km/h
1762 17-07-2010 16:30:02 26 C 5.84 g/m*3 26 C 0 km/h
1763 17-07-2010 16:42:02 26.9 C 5.89 g/m*3 26.9 C 0 km/h
1764 17-07-2010 16:54:02 27 C 5.92 g/m*3 27 C 0 km/h
1765 17-07-2010 17:06:02 26.6 C 6.29 g/m*3 26.6 C 0 km/h
1766 17-07-2010 17:18:03 25.7 C 7.42 g/m*3 25.7 C 0 km/h
1767 17-07-2010 17:30:03 26 C 7.79 g/m*3 26 C 0 km/h
1768 17-07-2010 17:42:02 26.1 C 7.59 g/m*3 26.1 C 0 km/h
1769 17-07-2010 17:54:02 24.6 C 7.88 g/m*3 24.6 C 0 km/h
1770 17-07-2010 18:06:01 24.2 C 7.7 g/m*3 24.2 C 0 km/h
1771 17-07-2010 18:18:02 23.7 C 7.7 g/m*3 23.7 C 0 km/h
1772 17-07-2010 18:30:02 24 C 7.61 g/m*3 24 C 0 km/h
1773 17-07-2010 18:42:01 24.1 C 7.44 g/m*3 24.1 C 0 km/h
1774 17-07-2010 18:54:02 24 C 7.4 g/m*3 24 C 0 km/h
1775 17-07-2010 19:06:02 24.6 C 7.43 g/m*3 24.6 C 0 km/h
Sensor: Nr:Datum:Temp:Abs-Feuchte:Windchill:Wind:
Aussen-T/F 1776 17-07-2010 19:18:02 24.6 C 7.2 g/m*3 24.6 C 0 km/h
1777 17-07-2010 19:30:03 24.2 C 7.26 g/m*3 24.2 C 0 km/h
1778 17-07-2010 19:42:02 23.8 C 7.1 g/m*3 23.8 C 0 km/h
1779 17-07-2010 19:54:02 23.6 C 6.59 g/m*3 23.6 C 0 km/h
1780 17-07-2010 20:06:02 23.7 C 6.84 g/m*3 23.7 C 0 km/h
1781 17-07-2010 20:18:02 24.7 C 6.11 g/m*3 24.7 C 0 km/h
1782 17-07-2010 20:30:02 25.4 C 5.41 g/m*3 25.4 C 0 km/h
1783 17-07-2010 20:42:03 24.7 C 5.21 g/m*3 24.7 C 0 km/h
1784 17-07-2010 20:54:02 23.8 C 5.38 g/m*3 23.8 C 0 km/h
1785 17-07-2010 21:06:01 22.9 C 5.72 g/m*3 22.9 C 0 km/h
1786 17-07-2010 21:18:02 22.4 C 5.96 g/m*3 22.4 C 0 km/h
1787 17-07-2010 21:30:02 22.1 C 6.44 g/m*3 22.1 C 0 km/h
1788 17-07-2010 21:42:02 22 C 6.21 g/m*3 22 C 0 km/h
1789 17-07-2010 21:54:01 21.9 C 6.37 g/m*3 21.9 C 0 km/h
1790 17-07-2010 22:06:02 21.6 C 6.26 g/m*3 21.6 C 0 km/h
1791 17-07-2010 22:18:01 21.7 C 6.49 g/m*3 21.7 C 0 km/h
1792 17-07-2010 22:30:01 21.6 C 6.26 g/m*3 21.6 C 0 km/h
1793 17-07-2010 22:42:02 21.3 C 6.15 g/m*3 21.3 C 0 km/h
1794 17-07-2010 22:54:02 21 C 6.23 g/m*3 21 C 0 km/h
1795 17-07-2010 23:06:02 20.4 C 6.19 g/m*3 20.4 C 0 km/h
1796 17-07-2010 23:18:02 20.3 C 6.16 g/m*3 20.3 C 0 km/h
1797 17-07-2010 23:30:02 20.2 C 6.12 g/m*3 20.2 C 0 km/h
1798 17-07-2010 23:42:02 19.9 C 6.01 g/m*3 19.9 C 0 km/h
1799 17-07-2010 23:54:01 19.8 C 6.15 g/m*3 19.8 C 0 km/h
1800 18-07-2010 00:06:02 19.3 C 5.97 g/m*3 19.3 C 0 km/h
Sensor: Nr:Datum:Temp:Abs-Feuchte:Windchill:Wind:
Aussen-T/F 1801 18-07-2010 00:18:02 19 C 5.87 g/m*3 19 C 0 km/h
1802 18-07-2010 00:30:02 18.6 C 6.21 g/m*3 18.6 C 0 km/h
1803 18-07-2010 00:42:01 18.3 C 6.1 g/m*3 18.3 C 0 km/h
1804 18-07-2010 00:54:02 18 C 6.14 g/m*3 18 C 0 km/h
1805 18-07-2010 01:06:01 17.7 C 6.19 g/m*3 17.7 C 0 km/h
1806 18-07-2010 01:18:02 17.4 C 6.22 g/m*3 17.4 C 0 km/h
1807 18-07-2010 01:30:02 17.2 C 6.3 g/m*3 17.2 C 0 km/h
1808 18-07-2010 01:42:01 16.8 C 6.43 g/m*3 16.8 C 0 km/h
1809 18-07-2010 01:54:03 16.7 C 6.54 g/m*3 16.7 C 0 km/h
1810 18-07-2010 02:06:02 16.5 C 6.6 g/m*3 16.5 C 0 km/h
1811 18-07-2010 02:18:02 16.3 C 6.38 g/m*3 16.3 C 0 km/h
1812 18-07-2010 02:30:02 16 C 6.95 g/m*3 16 C 0 km/h
1813 18-07-2010 02:42:02 15.6 C 7.18 g/m*3 15.6 C 0 km/h
1814 18-07-2010 02:55:04 15.4 C 7.23 g/m*3 15.4 C 0 km/h
1815 18-07-2010 03:07:04 15.2 C 7.14 g/m*3 15.2 C 0 km/h
1816 18-07-2010 03:19:04 15 C 6.92 g/m*3 15 C 0 km/h
1817 18-07-2010 03:31:02 14.8 C 7.22 g/m*3 14.8 C 0 km/h
1818 18-07-2010 03:43:02 14.6 C 7.26 g/m*3 14.6 C 0 km/h
1819 18-07-2010 03:55:02 14.4 C 7.17 g/m*3 14.4 C 0 km/h
1820 18-07-2010 04:07:02 14.1 C 7.28 g/m*3 14.1 C 0 km/h
1821 18-07-2010 04:19:01 14.1 C 7.52 g/m*3 14.1 C 0 km/h
1822 18-07-2010 04:31:02 14 C 7.48 g/m*3 14 C 0 km/h
1823 18-07-2010 04:43:02 13.7 C 7.46 g/m*3 13.7 C 0 km/h
1824 18-07-2010 04:55:02 13.6 C 7.65 g/m*3 13.6 C 0 km/h
1825 18-07-2010 05:07:02 13.4 C 7.9 g/m*3 13.4 C 0 km/h
Sensor: Nr:Datum:Temp:Abs-Feuchte:Windchill:Wind:
Aussen-T/F 1826 18-07-2010 05:19:01 13.1 C 7.76 g/m*3 13.1 C 0 km/h
1827 18-07-2010 05:31:02 13 C 7.71 g/m*3 13 C 0 km/h
1828 18-07-2010 05:43:02 12.8 C 7.84 g/m*3 12.8 C 0 km/h
1829 18-07-2010 05:55:02 12.7 C 7.9 g/m*3 12.7 C 0 km/h
1830 18-07-2010 06:07:02 12.6 C 8.08 g/m*3 12.6 C 0 km/h
1831 18-07-2010 06:19:02 12.5 C 8.03 g/m*3 12.5 C 0 km/h
1832 18-07-2010 06:31:02 12.5 C 8.03 g/m*3 12.5 C 0 km/h
1833 18-07-2010 06:43:02 12.6 C 8.19 g/m*3 12.6 C 0 km/h
1834 18-07-2010 06:55:02 12.6 C 8.19 g/m*3 12.6 C 0 km/h
1835 18-07-2010 07:07:02 12.7 C 8.13 g/m*3 12.7 C 0 km/h
1836 18-07-2010 07:19:02 12.8 C 8.06 g/m*3 12.8 C 0 km/h
1837 18-07-2010 07:31:01 12.9 C 8 g/m*3 12.9 C 0 km/h
1838 18-07-2010 07:43:01 13.1 C 7.99 g/m*3 13.1 C 0 km/h
1839 18-07-2010 07:55:02 13.3 C 8.09 g/m*3 13.3 C 0 km/h
1840 18-07-2010 08:07:01 13.8 C 8.22 g/m*3 13.8 C 0 km/h
1841 18-07-2010 08:19:01 14.1 C 8.01 g/m*3 14.1 C 0 km/h
1842 18-07-2010 08:31:01 14.4 C 8.16 g/m*3 14.4 C 0 km/h
1843 18-07-2010 08:43:01 15 C 7.44 g/m*3 15 C 0 km/h
1844 18-07-2010 08:55:02 15.4 C 7.62 g/m*3 15.4 C 0 km/h
1845 18-07-2010 09:07:01 15.9 C 7.58 g/m*3 15.9 C 0 km/h
1846 18-07-2010 09:19:02 16.5 C 7.58 g/m*3 16.5 C 0 km/h
1847 18-07-2010 09:31:02 17.1 C 7.57 g/m*3 17.1 C 0 km/h
1848 18-07-2010 09:43:02 17.8 C 7.89 g/m*3 17.8 C 0 km/h
1849 18-07-2010 09:55:02 18.5 C 7.75 g/m*3 18.5 C 0 km/h
1850 18-07-2010 10:07:02 19 C 7.5 g/m*3 19 C 0 km/h
Sensor: Nr:Datum:Temp:Abs-Feuchte:Windchill:Wind:
Aussen-T/F 1851 18-07-2010 10:19:02 19.7 C 7.47 g/m*3 19.7 C 0 km/h
1852 18-07-2010 10:31:02 20.1 C 7.3 g/m*3 20.1 C 0 km/h
1853 18-07-2010 10:43:02 20.8 C 7.24 g/m*3 20.8 C 0 km/h
1854 18-07-2010 10:55:02 21.3 C 5.78 g/m*3 21.3 C 0 km/h
1855 18-07-2010 11:07:01 20.8 C 5.61 g/m*3 20.8 C 0 km/h
1856 18-07-2010 11:19:02 21.6 C 5.69 g/m*3 21.6 C 0 km/h
1857 18-07-2010 11:31:02 21.7 C 5.72 g/m*3 21.7 C 0 km/h
1858 18-07-2010 11:43:02 22.7 C 6.06 g/m*3 22.7 C 0 km/h
1859 18-07-2010 11:55:02 23.8 C 5.59 g/m*3 23.8 C 0 km/h
1860 18-07-2010 12:07:01 24.3 C 5.53 g/m*3 24.3 C 0 km/h
1861 18-07-2010 12:19:02 25.3 C 4.68 g/m*3 25.3 C 0 km/h
1862 18-07-2010 12:31:02 25.3 C 4.68 g/m*3 25.3 C 0 km/h
1863 18-07-2010 12:43:02 26.1 C 4.9 g/m*3 26.1 C 0 km/h
1864 18-07-2010 12:55:02 24.8 C 4.55 g/m*3 24.8 C 0 km/h
1865 18-07-2010 13:07:03 25.8 C 4.82 g/m*3 25.8 C 0 km/h
1866 18-07-2010 13:19:02 27.6 C 5.32 g/m*3 27.6 C 0 km/h
1867 18-07-2010 13:31:02 28.3 C 5.53 g/m*3 28.3 C 0 km/h
1868 18-07-2010 13:43:03 28 C 5.44 g/m*3 28 C 0 km/h
1869 18-07-2010 13:55:01 28.4 C 5.56 g/m*3 28.4 C 0 km/h
1870 18-07-2010 14:07:02 27.7 C 5.35 g/m*3 27.7 C 0 km/h
1871 18-07-2010 14:19:01 27.1 C 5.18 g/m*3 27.1 C 0 km/h
1872 18-07-2010 14:31:01 27.9 C 5.41 g/m*3 27.9 C 0 km/h
1873 18-07-2010 14:43:01 26.7 C 5.06 g/m*3 26.7 C 0 km/h
1874 18-07-2010 14:55:01 27.3 C 5.23 g/m*3 27.3 C 0 km/h
1875 18-07-2010 15:07:02 28.1 C 5.47 g/m*3 28.1 C 0 km/h
Sensor: Nr:Datum:Temp:Abs-Feuchte:Windchill:Wind:
Aussen-T/F 1876 18-07-2010 15:19:01 29.4 C 5.87 g/m*3 29.4 C 0 km/h
1877 18-07-2010 15:31:01 30 C 6.06 g/m*3 30 C 0 km/h
1878 18-07-2010 15:43:01 30.1 C 6.1 g/m*3 30.1 C 0 km/h
1879 18-07-2010 15:55:01 30.3 C 6.16 g/m*3 30.3 C 0 km/h
1880 18-07-2010 16:07:01 30.6 C 6.26 g/m*3 30.6 C 0 km/h
1881 18-07-2010 16:19:02 30.7 C 6.3 g/m*3 30.7 C 0 km/h
1882 18-07-2010 16:31:01 31 C 6.4 g/m*3 31 C 0 km/h
1883 18-07-2010 16:43:01 30.8 C 6.33 g/m*3 30.8 C 0 km/h
1884 18-07-2010 16:55:01 30.7 C 6.3 g/m*3 30.7 C 0 km/h
1885 18-07-2010 17:07:01 30.9 C 6.37 g/m*3 30.9 C 0 km/h
1886 18-07-2010 17:19:02 30.4 C 6.2 g/m*3 30.4 C 0 km/h
1887 18-07-2010 17:31:01 31.4 C 6.54 g/m*3 31.4 C 0 km/h
1888 18-07-2010 17:43:01 31.8 C 6.68 g/m*3 31.8 C 0 km/h
1889 18-07-2010 17:55:02 31.8 C 6.68 g/m*3 31.8 C 0 km/h
1890 18-07-2010 18:07:02 31.3 C 6.5 g/m*3 31.3 C 0 km/h
1891 18-07-2010 18:19:02 31.3 C 6.5 g/m*3 31.3 C 0 km/h
1892 18-07-2010 18:31:02 31.1 C 6.43 g/m*3 31.1 C 0 km/h
1893 18-07-2010 18:43:02 31.1 C 6.43 g/m*3 31.1 C 0 km/h
1894 18-07-2010 18:55:02 31.5 C 6.57 g/m*3 31.5 C 0 km/h
1895 18-07-2010 19:07:01 31.2 C 6.47 g/m*3 31.2 C 0 km/h
1896 18-07-2010 19:19:02 30.7 C 6.3 g/m*3 30.7 C 0 km/h
1897 18-07-2010 19:31:02 30 C 6.06 g/m*3 30 C 0 km/h
1898 18-07-2010 19:43:02 30.1 C 6.1 g/m*3 30.1 C 0 km/h
1899 18-07-2010 19:55:01 30.4 C 6.2 g/m*3 30.4 C 0 km/h
1900 18-07-2010 20:07:01 30.2 C 6.13 g/m*3 30.2 C 0 km/h
Sensor: Nr:Datum:Temp:Abs-Feuchte:Windchill:Wind:
Aussen-T/F 1901 18-07-2010 20:19:01 29.8 C 6 g/m*3 29.8 C 0 km/h
1902 18-07-2010 20:31:02 29.1 C 5.78 g/m*3 29.1 C 0 km/h
1903 18-07-2010 20:43:02 28.8 C 5.68 g/m*3 28.8 C 0 km/h
1904 18-07-2010 20:55:02 27.6 C 5.32 g/m*3 27.6 C 0 km/h
1905 18-07-2010 21:07:02 25.9 C 5.08 g/m*3 25.9 C 0 km/h
1906 18-07-2010 21:19:02 24.8 C 5.24 g/m*3 24.8 C 0 km/h
1907 18-07-2010 21:31:02 23.9 C 5.41 g/m*3 23.9 C 0 km/h
1908 18-07-2010 21:43:02 23.3 C 5.44 g/m*3 23.3 C 0 km/h
1909 18-07-2010 21:55:02 22.7 C 5.66 g/m*3 22.7 C 0 km/h
1910 18-07-2010 22:08:02 22.2 C 5.89 g/m*3 22.2 C 0 km/h
1911 18-07-2010 22:20:02 21.9 C 5.79 g/m*3 21.9 C 0 km/h
1912 18-07-2010 22:32:02 21.8 C 5.95 g/m*3 21.8 C 0 km/h
1913 18-07-2010 22:44:02 21.5 C 5.85 g/m*3 21.5 C 0 km/h
1914 18-07-2010 22:56:02 21.2 C 6.12 g/m*3 21.2 C 0 km/h
1915 18-07-2010 23:08:02 21 C 6.05 g/m*3 21 C 0 km/h
1916 18-07-2010 23:20:02 20.6 C 6.26 g/m*3 20.6 C 0 km/h
1917 18-07-2010 23:32:02 20.3 C 6.16 g/m*3 20.3 C 0 km/h
1918 18-07-2010 23:44:02 20.1 C 6.43 g/m*3 20.1 C 0 km/h
1919 18-07-2010 23:56:02 19.7 C 6.45 g/m*3 19.7 C 0 km/h
1920 19-07-2010 00:08:02 19.5 C 6.38 g/m*3 19.5 C 0 km/h
1921 19-07-2010 00:20:02 19.2 C 6.27 g/m*3 19.2 C 0 km/h
1922 19-07-2010 00:32:02 18.8 C 6.28 g/m*3 18.8 C 0 km/h
1923 19-07-2010 00:44:03 18.6 C 6.37 g/m*3 18.6 C 0 km/h
1924 19-07-2010 00:56:03 18.5 C 6.49 g/m*3 18.5 C 0 km/h
1925 19-07-2010 01:08:03 18.2 C 6.53 g/m*3 18.2 C 0 km/h
Sensor: Nr:Datum:Temp:Abs-Feuchte:Windchill:Wind:
Aussen-T/F 1926 19-07-2010 01:20:03 17.9 C 6.57 g/m*3 17.9 C 0 km/h
1927 19-07-2010 01:32:03 17.7 C 6.64 g/m*3 17.7 C 0 km/h
1928 19-07-2010 01:44:03 17.5 C 6.71 g/m*3 17.5 C 0 km/h
1929 19-07-2010 01:56:03 17.1 C 6.84 g/m*3 17.1 C 0 km/h
1930 19-07-2010 02:08:03 16.8 C 6.86 g/m*3 16.8 C 0 km/h
1931 19-07-2010 02:20:03 16.7 C 7.11 g/m*3 16.7 C 0 km/h
1932 19-07-2010 02:32:03 16.5 C 6.88 g/m*3 16.5 C 0 km/h
1933 19-07-2010 02:44:04 16.3 C 6.66 g/m*3 16.3 C 0 km/h
1934 19-07-2010 02:56:04 16 C 6.81 g/m*3 16 C 0 km/h
1935 19-07-2010 03:08:04 15.8 C 7 g/m*3 15.8 C 0 km/h
1936 19-07-2010 03:20:04 15.7 C 6.96 g/m*3 15.7 C 0 km/h
1937 19-07-2010 03:32:04 15.5 C 7.14 g/m*3 15.5 C 0 km/h
1938 19-07-2010 03:44:04 15.3 C 7.31 g/m*3 15.3 C 0 km/h
1939 19-07-2010 03:56:04 15.1 C 7.1 g/m*3 15.1 C 0 km/h
1940 19-07-2010 04:08:04 14.9 C 7.14 g/m*3 14.9 C 0 km/h
1941 19-07-2010 04:20:04 14.7 C 7.18 g/m*3 14.7 C 0 km/h
1942 19-07-2010 04:32:04 14.6 C 7.38 g/m*3 14.6 C 0 km/h
1943 19-07-2010 04:44:04 14.7 C 7.43 g/m*3 14.7 C 0 km/h
1944 19-07-2010 04:56:04 14.2 C 7.45 g/m*3 14.2 C 0 km/h
1945 19-07-2010 05:08:04 14.1 C 7.28 g/m*3 14.1 C 0 km/h
1946 19-07-2010 05:20:04 13.9 C 7.55 g/m*3 13.9 C 0 km/h
1947 19-07-2010 05:32:04 13.8 C 7.63 g/m*3 13.8 C 0 km/h
1948 19-07-2010 05:44:04 13.6 C 7.53 g/m*3 13.6 C 0 km/h
1949 19-07-2010 05:56:04 13.6 C 7.53 g/m*3 13.6 C 0 km/h
1950 19-07-2010 06:08:04 13.6 C 7.53 g/m*3 13.6 C 0 km/h
Sensor: Nr:Datum:Temp:Abs-Feuchte:Windchill:Wind:
Aussen-T/F 1951 19-07-2010 06:20:04 13.5 C 7.6 g/m*3 13.5 C 0 km/h
1952 19-07-2010 06:32:04 13.7 C 7.93 g/m*3 13.7 C 0 km/h
1953 19-07-2010 06:44:05 13.5 C 8.07 g/m*3 13.5 C 0 km/h
1954 19-07-2010 06:56:02 13.6 C 8.24 g/m*3 13.6 C 0 km/h
1955 19-07-2010 07:08:02 13.7 C 8.29 g/m*3 13.7 C 0 km/h
1956 19-07-2010 07:20:02 13.8 C 8.22 g/m*3 13.8 C 0 km/h
1957 19-07-2010 07:32:01 14 C 8.2 g/m*3 14 C 0 km/h
1958 19-07-2010 07:44:01 14.2 C 8.18 g/m*3 14.2 C 0 km/h
1959 19-07-2010 07:56:02 14.4 C 8.16 g/m*3 14.4 C 0 km/h
1960 19-07-2010 08:08:01 14.5 C 8.21 g/m*3 14.5 C 0 km/h
1961 19-07-2010 08:20:02 14.8 C 8.23 g/m*3 14.8 C 0 km/h
1962 19-07-2010 08:32:02 15.2 C 8.18 g/m*3 15.2 C 0 km/h
1963 19-07-2010 08:44:02 15.7 C 8.3 g/m*3 15.7 C 0 km/h
1964 19-07-2010 08:56:02 16.3 C 8.46 g/m*3 16.3 C 0 km/h
1965 19-07-2010 09:08:02 16.9 C 8.63 g/m*3 16.9 C 0 km/h
1966 19-07-2010 09:20:02 17.7 C 8.6 g/m*3 17.7 C 0 km/h
1967 19-07-2010 09:32:02 18.4 C 8.49 g/m*3 18.4 C 0 km/h
1968 19-07-2010 09:44:02 19.4 C 8.51 g/m*3 19.4 C 0 km/h
1969 19-07-2010 09:56:02 20.2 C 8.39 g/m*3 20.2 C 0 km/h
1970 19-07-2010 10:08:02 20.8 C 8.33 g/m*3 20.8 C 0 km/h
1971 19-07-2010 10:20:01 21.7 C 8.39 g/m*3 21.7 C 0 km/h
1972 19-07-2010 10:32:02 22.6 C 8.24 g/m*3 22.6 C 0 km/h
1973 19-07-2010 10:44:03 23.3 C 7.74 g/m*3 23.3 C 0 km/h
1974 19-07-2010 10:56:02 23.9 C 7.14 g/m*3 23.9 C 0 km/h
1975 19-07-2010 11:08:02 24.7 C 7.02 g/m*3 24.7 C 0 km/h
Sensor: Nr:Datum:Temp:Abs-Feuchte:Windchill:Wind:
Aussen-T/F 1976 19-07-2010 11:20:02 25.2 C 6.98 g/m*3 25.2 C 0 km/h
1977 19-07-2010 11:32:02 25.9 C 6.29 g/m*3 25.9 C 0 km/h
1978 19-07-2010 11:44:02 26.5 C 6.51 g/m*3 26.5 C 0 km/h
1979 19-07-2010 11:56:02 26.6 C 5.79 g/m*3 26.6 C 0 km/h
1980 19-07-2010 12:08:02 27.1 C 5.69 g/m*3 27.1 C 0 km/h
1981 19-07-2010 12:20:02 28.2 C 5.5 g/m*3 28.2 C 0 km/h
1982 19-07-2010 12:32:02 28.9 C 5.71 g/m*3 28.9 C 0 km/h
1983 19-07-2010 12:44:02 29.7 C 5.97 g/m*3 29.7 C 0 km/h
1984 19-07-2010 12:56:02 30.2 C 6.13 g/m*3 30.2 C 0 km/h
1985 19-07-2010 13:08:02 30.4 C 6.2 g/m*3 30.4 C 0 km/h
1986 19-07-2010 13:20:03 31.2 C 6.47 g/m*3 31.2 C 0 km/h
1987 19-07-2010 13:32:02 31.6 C 6.61 g/m*3 31.6 C 0 km/h
1988 19-07-2010 13:44:02 31.5 C 6.57 g/m*3 31.5 C 0 km/h
1989 19-07-2010 13:56:03 31.3 C 6.5 g/m*3 31.3 C 0 km/h
1990 19-07-2010 14:08:02 30.9 C 6.37 g/m*3 30.9 C 0 km/h
1991 19-07-2010 14:20:03 30.8 C 6.33 g/m*3 30.8 C 0 km/h
1992 19-07-2010 14:32:02 31 C 6.4 g/m*3 31 C 0 km/h
1993 19-07-2010 14:44:02 30.6 C 6.26 g/m*3 30.6 C 0 km/h
1994 19-07-2010 14:56:02 30.9 C 6.37 g/m*3 30.9 C 0 km/h
1995 19-07-2010 15:08:02 30.6 C 6.26 g/m*3 30.6 C 0 km/h
1996 19-07-2010 15:20:02 31.4 C 6.54 g/m*3 31.4 C 0 km/h
1997 19-07-2010 15:32:02 31.9 C 6.72 g/m*3 31.9 C 0 km/h
1998 19-07-2010 15:44:02 32.2 C 6.82 g/m*3 32.2 C 0 km/h
1999 19-07-2010 15:56:02 32.4 C 6.9 g/m*3 32.4 C 0 km/h
2000 19-07-2010 16:08:02 32.5 C 6.93 g/m*3 32.5 C 0 km/h
Sensor: Nr:Datum:Temp:Abs-Feuchte:Windchill:Wind:
Aussen-T/F 2001 19-07-2010 16:20:02 32.8 C 7.04 g/m*3 32.8 C 0 km/h
2002 19-07-2010 16:32:02 32.9 C 7.08 g/m*3 32.9 C 0 km/h
2003 19-07-2010 16:44:02 32.8 C 7.04 g/m*3 32.8 C 0 km/h
2004 19-07-2010 16:56:02 33.1 C 7.16 g/m*3 33.1 C 0 km/h
2005 19-07-2010 17:08:01 33.3 C 7.23 g/m*3 33.3 C 0 km/h
2006 19-07-2010 17:20:01 33.6 C 7.35 g/m*3 33.6 C 0 km/h
2007 19-07-2010 17:32:02 33.5 C 7.31 g/m*3 33.5 C 0 km/h
2008 19-07-2010 17:44:02 33.7 C 7.39 g/m*3 33.7 C 0 km/h
2009 19-07-2010 17:56:02 33.8 C 7.43 g/m*3 33.8 C 0 km/h
2010 19-07-2010 18:08:02 33.7 C 7.39 g/m*3 33.7 C 0 km/h
2011 19-07-2010 18:20:02 33.5 C 7.31 g/m*3 33.5 C 0 km/h
2012 19-07-2010 18:32:02 33.6 C 7.35 g/m*3 33.6 C 0 km/h
2013 19-07-2010 18:44:03 33.5 C 7.31 g/m*3 33.5 C 0 km/h
2014 19-07-2010 18:56:01 33.2 C 7.2 g/m*3 33.2 C 0 km/h
2015 19-07-2010 19:08:02 33.3 C 7.23 g/m*3 33.3 C 0 km/h
2016 19-07-2010 19:20:01 33 C 7.12 g/m*3 33 C 0 km/h
2017 19-07-2010 19:32:01 32.8 C 7.04 g/m*3 32.8 C 0 km/h
2018 19-07-2010 19:44:02 32.7 C 7.01 g/m*3 32.7 C 0 km/h
2019 19-07-2010 19:56:02 32.4 C 6.9 g/m*3 32.4 C 0 km/h
2020 19-07-2010 20:08:02 32 C 6.75 g/m*3 32 C 0 km/h
2021 19-07-2010 20:20:02 31.9 C 6.72 g/m*3 31.9 C 0 km/h
2022 19-07-2010 20:32:01 31.5 C 6.57 g/m*3 31.5 C 0 km/h
2023 19-07-2010 20:44:01 31.1 C 6.43 g/m*3 31.1 C 0 km/h
2024 19-07-2010 20:56:01 30.4 C 6.2 g/m*3 30.4 C 0 km/h
2025 19-07-2010 21:08:02 29.1 C 6.06 g/m*3 29.1 C 0 km/h
Sensor: Nr:Datum:Temp:Abs-Feuchte:Windchill:Wind:
Aussen-T/F 2026 19-07-2010 21:20:02 27.8 C 6.46 g/m*3 27.8 C 0 km/h
2027 19-07-2010 21:32:02 26.3 C 6.93 g/m*3 26.3 C 0 km/h
2028 19-07-2010 21:44:02 25.6 C 7.14 g/m*3 25.6 C 0 km/h
2029 19-07-2010 21:56:01 25.4 C 7.06 g/m*3 25.4 C 0 km/h
2030 19-07-2010 22:08:01 24.6 C 6.98 g/m*3 24.6 C 0 km/h
2031 19-07-2010 22:20:02 24.4 C 7.12 g/m*3 24.4 C 0 km/h
2032 19-07-2010 22:32:02 24 C 6.96 g/m*3 24 C 0 km/h
2033 19-07-2010 22:44:02 23.9 C 7.14 g/m*3 23.9 C 0 km/h
2034 19-07-2010 22:56:02 23.7 C 7.06 g/m*3 23.7 C 0 km/h
2035 19-07-2010 23:08:01 23.5 C 7.19 g/m*3 23.5 C 0 km/h
2036 19-07-2010 23:20:02 23.1 C 7.03 g/m*3 23.1 C 0 km/h
2037 19-07-2010 23:32:02 22.7 C 7.27 g/m*3 22.7 C 0 km/h
2038 19-07-2010 23:44:02 22.7 C 7.48 g/m*3 22.7 C 0 km/h
2039 19-07-2010 23:56:03 22.5 C 7.59 g/m*3 22.5 C 0 km/h
2040 20-07-2010 00:08:02 22.3 C 7.7 g/m*3 22.3 C 0 km/h
2041 20-07-2010 00:20:03 22 C 7.76 g/m*3 22 C 0 km/h
2042 20-07-2010 00:32:02 21.7 C 7.82 g/m*3 21.7 C 0 km/h
2043 20-07-2010 00:44:02 21.5 C 7.92 g/m*3 21.5 C 0 km/h
2044 20-07-2010 00:56:01 21.2 C 7.97 g/m*3 21.2 C 0 km/h
2045 20-07-2010 01:08:01 20.9 C 8.2 g/m*3 20.9 C 0 km/h
2046 20-07-2010 01:20:02 20.7 C 8.1 g/m*3 20.7 C 0 km/h
2047 20-07-2010 01:32:01 20.4 C 8.14 g/m*3 20.4 C 0 km/h
2048 20-07-2010 01:44:01 20.2 C 7.87 g/m*3 20.2 C 0 km/h
2049 20-07-2010 01:56:01 19.9 C 8.08 g/m*3 19.9 C 0 km/h
2050 20-07-2010 02:08:02 19.7 C 8.15 g/m*3 19.7 C 0 km/h
Sensor: Nr:Datum:Temp:Abs-Feuchte:Windchill:Wind:
Aussen-T/F 2051 20-07-2010 02:20:02 19.6 C 8.1 g/m*3 19.6 C 0 km/h
2052 20-07-2010 02:32:01 19.4 C 8.18 g/m*3 19.4 C 0 km/h
2053 20-07-2010 02:44:01 19.1 C 8.36 g/m*3 19.1 C 0 km/h
2054 20-07-2010 02:56:02 18.8 C 8.37 g/m*3 18.8 C 0 km/h
2055 20-07-2010 03:08:02 18.5 C 8.23 g/m*3 18.5 C 0 km/h
2056 20-07-2010 03:20:01 18.4 C 8.34 g/m*3 18.4 C 0 km/h
2057 20-07-2010 03:32:01 18.1 C 8.19 g/m*3 18.1 C 0 km/h
2058 20-07-2010 03:44:01 18.1 C 8.34 g/m*3 18.1 C 0 km/h
2059 20-07-2010 03:56:01 17.9 C 8.7 g/m*3 17.9 C 0 km/h
2060 20-07-2010 04:08:01 17.7 C 8.45 g/m*3 17.7 C 0 km/h
2061 20-07-2010 04:20:01 17.4 C 8.45 g/m*3 17.4 C 0 km/h
2062 20-07-2010 04:32:01 17.3 C 8.54 g/m*3 17.3 C 0 km/h
2063 20-07-2010 04:44:01 17 C 8.39 g/m*3 17 C 0 km/h
2064 20-07-2010 04:56:01 16.8 C 8.58 g/m*3 16.8 C 0 km/h
2065 20-07-2010 05:08:01 16.7 C 8.53 g/m*3 16.7 C 0 km/h
2066 20-07-2010 05:20:02 16.6 C 8.62 g/m*3 16.6 C 0 km/h
2067 20-07-2010 05:32:01 16.4 C 8.51 g/m*3 16.4 C 0 km/h
2068 20-07-2010 05:44:01 16.4 C 8.65 g/m*3 16.4 C 0 km/h
2069 20-07-2010 05:56:02 16.3 C 8.6 g/m*3 16.3 C 0 km/h
2070 20-07-2010 06:08:01 16.1 C 8.77 g/m*3 16.1 C 0 km/h
2071 20-07-2010 06:20:02 16 C 8.86 g/m*3 16 C 0 km/h
2072 20-07-2010 06:32:01 16.1 C 9.05 g/m*3 16.1 C 0 km/h
2073 20-07-2010 06:44:01 16.1 C 9.05 g/m*3 16.1 C 0 km/h
2074 20-07-2010 06:56:02 16.2 C 9.1 g/m*3 16.2 C 0 km/h
2075 20-07-2010 07:08:01 16.4 C 9.21 g/m*3 16.4 C 0 km/h
Sensor: Nr:Datum:Temp:Abs-Feuchte:Windchill:Wind:
Aussen-T/F 2076 20-07-2010 07:20:01 16.5 C 9.27 g/m*3 16.5 C 0 km/h
2077 20-07-2010 07:32:01 16.8 C 9.29 g/m*3 16.8 C 0 km/h
2078 20-07-2010 07:44:01 17.1 C 9.32 g/m*3 17.1 C 0 km/h
2079 20-07-2010 07:56:02 17.1 C 9.17 g/m*3 17.1 C 0 km/h
2080 20-07-2010 08:08:01 17.3 C 9.13 g/m*3 17.3 C 0 km/h
2081 20-07-2010 08:20:01 17.6 C 9.15 g/m*3 17.6 C 0 km/h
2082 20-07-2010 08:32:02 17.9 C 9.16 g/m*3 17.9 C 0 km/h
2083 20-07-2010 08:44:02 18.5 C 9.33 g/m*3 18.5 C 0 km/h
2084 20-07-2010 08:56:01 18.9 C 9.4 g/m*3 18.9 C 0 km/h
2085 20-07-2010 09:08:02 19.6 C 9.45 g/m*3 19.6 C 0 km/h
2086 20-07-2010 09:20:01 20.3 C 9.32 g/m*3 20.3 C 0 km/h
2087 20-07-2010 09:32:02 20.9 C 9.29 g/m*3 20.9 C 0 km/h
2088 20-07-2010 09:44:02 21.7 C 8.97 g/m*3 21.7 C 0 km/h
2089 20-07-2010 09:56:01 22.3 C 8.89 g/m*3 22.3 C 0 km/h
2090 20-07-2010 10:08:02 23.2 C 8.73 g/m*3 23.2 C 0 km/h
2091 20-07-2010 10:20:01 24.1 C 8.53 g/m*3 24.1 C 0 km/h
2092 20-07-2010 10:32:01 24.8 C 8.19 g/m*3 24.8 C 0 km/h
2093 20-07-2010 10:44:01 25.6 C 8.09 g/m*3 25.6 C 0 km/h
2094 20-07-2010 10:56:01 26.3 C 7.67 g/m*3 26.3 C 0 km/h
2095 20-07-2010 11:08:02 26.9 C 6.91 g/m*3 26.9 C 0 km/h
2096 20-07-2010 11:20:01 27.4 C 6.84 g/m*3 27.4 C 0 km/h
2097 20-07-2010 11:32:01 27.9 C 6.76 g/m*3 27.9 C 0 km/h
2098 20-07-2010 11:44:01 28.2 C 6.6 g/m*3 28.2 C 0 km/h
2099 20-07-2010 11:56:01 28.3 C 6.63 g/m*3 28.3 C 0 km/h
2100 20-07-2010 12:08:01 29 C 6.03 g/m*3 29 C 0 km/h
Sensor: Nr:Datum:Temp:Abs-Feuchte:Windchill:Wind:
Aussen-T/F 2101 20-07-2010 12:20:02 30 C 6.37 g/m*3 30 C 0 km/h
2102 20-07-2010 12:32:01 30.7 C 6.3 g/m*3 30.7 C 0 km/h
2103 20-07-2010 12:44:01 31 C 6.4 g/m*3 31 C 0 km/h
2104 20-07-2010 12:56:01 31.4 C 6.54 g/m*3 31.4 C 0 km/h
2105 20-07-2010 13:08:01 31.7 C 6.64 g/m*3 31.7 C 0 km/h
2106 20-07-2010 13:20:02 32.1 C 6.79 g/m*3 32.1 C 0 km/h
2107 20-07-2010 13:32:01 32.5 C 6.93 g/m*3 32.5 C 0 km/h
2108 20-07-2010 13:44:01 32.5 C 6.93 g/m*3 32.5 C 0 km/h
2109 20-07-2010 13:56:02 32.3 C 6.86 g/m*3 32.3 C 0 km/h
2110 20-07-2010 14:08:01 31.8 C 6.68 g/m*3 31.8 C 0 km/h
2111 20-07-2010 14:20:02 31.8 C 6.68 g/m*3 31.8 C 0 km/h
2112 20-07-2010 14:32:01 31.5 C 6.57 g/m*3 31.5 C 0 km/h
2113 20-07-2010 14:44:01 31.8 C 6.68 g/m*3 31.8 C 0 km/h
2114 20-07-2010 14:56:02 32 C 6.75 g/m*3 32 C 0 km/h
2115 20-07-2010 15:08:01 32 C 6.75 g/m*3 32 C 0 km/h
2116 20-07-2010 15:20:01 32.1 C 6.79 g/m*3 32.1 C 0 km/h
2117 20-07-2010 15:32:02 32.3 C 6.86 g/m*3 32.3 C 0 km/h
2118 20-07-2010 15:44:02 32.8 C 7.04 g/m*3 32.8 C 0 km/h
2119 20-07-2010 15:56:01 32.5 C 6.93 g/m*3 32.5 C 0 km/h
2120 20-07-2010 16:08:02 32.7 C 7.01 g/m*3 32.7 C 0 km/h
2121 20-07-2010 16:20:01 33.1 C 7.16 g/m*3 33.1 C 0 km/h
2122 20-07-2010 16:32:02 33 C 7.12 g/m*3 33 C 0 km/h
2123 20-07-2010 16:44:02 33 C 7.12 g/m*3 33 C 0 km/h
2124 20-07-2010 16:56:01 33.5 C 7.31 g/m*3 33.5 C 0 km/h
2125 20-07-2010 17:08:02 33.3 C 7.23 g/m*3 33.3 C 0 km/h
Sensor: Nr:Datum:Temp:Abs-Feuchte:Windchill:Wind:
Aussen-T/F 2126 20-07-2010 17:20:01 33.3 C 7.23 g/m*3 33.3 C 0 km/h
2127 20-07-2010 17:32:01 33.2 C 7.2 g/m*3 33.2 C 0 km/h
2128 20-07-2010 17:44:02 33.4 C 7.27 g/m*3 33.4 C 0 km/h
2129 20-07-2010 17:56:01 33.1 C 7.16 g/m*3 33.1 C 0 km/h
2130 20-07-2010 18:08:02 33.3 C 7.23 g/m*3 33.3 C 0 km/h
2131 20-07-2010 18:20:02 33.3 C 7.23 g/m*3 33.3 C 0 km/h
2132 20-07-2010 18:32:01 32.7 C 7.01 g/m*3 32.7 C 0 km/h
2133 20-07-2010 18:44:01 32.7 C 7.01 g/m*3 32.7 C 0 km/h
2134 20-07-2010 18:56:01 32.6 C 6.97 g/m*3 32.6 C 0 km/h
2135 20-07-2010 19:08:02 32.3 C 6.86 g/m*3 32.3 C 0 km/h
2136 20-07-2010 19:20:01 31.7 C 6.64 g/m*3 31.7 C 0 km/h
2137 20-07-2010 19:32:02 31.9 C 6.72 g/m*3 31.9 C 0 km/h
2138 20-07-2010 19:44:02 32.1 C 6.79 g/m*3 32.1 C 0 km/h
2139 20-07-2010 19:56:01 32.1 C 6.79 g/m*3 32.1 C 0 km/h
2140 20-07-2010 20:08:02 32 C 6.75 g/m*3 32 C 0 km/h
2141 20-07-2010 20:20:01 31.5 C 6.57 g/m*3 31.5 C 0 km/h
2142 20-07-2010 20:32:01 30.8 C 6.33 g/m*3 30.8 C 0 km/h
2143 20-07-2010 20:44:01 30 C 6.06 g/m*3 30 C 0 km/h
2144 20-07-2010 20:56:01 29.3 C 6.13 g/m*3 29.3 C 0 km/h
2145 20-07-2010 21:08:02 28.1 C 6.56 g/m*3 28.1 C 0 km/h
2146 20-07-2010 21:20:01 26.9 C 6.65 g/m*3 26.9 C 0 km/h
2147 20-07-2010 21:32:01 26.4 C 6.47 g/m*3 26.4 C 0 km/h
2148 20-07-2010 21:44:02 25.7 C 6.22 g/m*3 25.7 C 0 km/h
2149 20-07-2010 21:56:01 25.3 C 6.09 g/m*3 25.3 C 0 km/h
2150 20-07-2010 22:09:02 24.5 C 6.27 g/m*3 24.5 C 0 km/h
Sensor: Nr:Datum:Temp:Abs-Feuchte:Windchill:Wind:
Aussen-T/F 2151 20-07-2010 22:21:02 24.5 C 6.71 g/m*3 24.5 C 0 km/h
2152 20-07-2010 22:33:02 24.5 C 6.71 g/m*3 24.5 C 0 km/h
2153 20-07-2010 22:45:02 24.4 C 6.68 g/m*3 24.4 C 0 km/h
2154 20-07-2010 22:57:02 24.1 C 6.56 g/m*3 24.1 C 0 km/h
2155 20-07-2010 23:09:02 23.8 C 6.67 g/m*3 23.8 C 0 km/h
2156 20-07-2010 23:21:02 23.7 C 6.84 g/m*3 23.7 C 0 km/h
2157 20-07-2010 23:33:02 23.5 C 6.98 g/m*3 23.5 C 0 km/h
2158 20-07-2010 23:45:02 23.4 C 6.94 g/m*3 23.4 C 0 km/h
2159 20-07-2010 23:57:02 23 C 7.19 g/m*3 23 C 0 km/h
2160 21-07-2010 00:09:02 22.5 C 7.39 g/m*3 22.5 C 0 km/h
2161 21-07-2010 00:21:02 22.3 C 7.5 g/m*3 22.3 C 0 km/h
2162 21-07-2010 00:33:02 21.9 C 7.72 g/m*3 21.9 C 0 km/h
2163 21-07-2010 00:45:02 21.7 C 7.63 g/m*3 21.7 C 0 km/h
2164 21-07-2010 00:57:02 21.5 C 7.73 g/m*3 21.5 C 0 km/h
2165 21-07-2010 01:09:03 21.3 C 7.83 g/m*3 21.3 C 0 km/h
2166 21-07-2010 01:21:03 21.1 C 7.92 g/m*3 21.1 C 0 km/h
2167 21-07-2010 01:33:03 20.9 C 8.01 g/m*3 20.9 C 0 km/h
2168 21-07-2010 01:45:03 20.6 C 8.05 g/m*3 20.6 C 0 km/h
2169 21-07-2010 01:57:03 20.4 C 8.31 g/m*3 20.4 C 0 km/h
2170 21-07-2010 02:09:03 20 C 8.12 g/m*3 20 C 0 km/h
2171 21-07-2010 02:21:03 20 C 8.3 g/m*3 20 C 0 km/h
2172 21-07-2010 02:33:03 19.7 C 8.49 g/m*3 19.7 C 0 km/h
2173 21-07-2010 02:45:03 19.4 C 8.34 g/m*3 19.4 C 0 km/h
2174 21-07-2010 02:57:03 19.3 C 8.29 g/m*3 19.3 C 0 km/h
2175 21-07-2010 03:09:03 19.2 C 8.41 g/m*3 19.2 C 0 km/h
Sensor: Nr:Datum:Temp:Abs-Feuchte:Windchill:Wind:
Aussen-T/F 2176 21-07-2010 03:21:03 19 C 8.31 g/m*3 19 C 0 km/h
2177 21-07-2010 03:33:03 18.7 C 8.33 g/m*3 18.7 C 0 km/h
2178 21-07-2010 03:45:03 18.6 C 8.44 g/m*3 18.6 C 0 km/h
2179 21-07-2010 03:57:03 18.4 C 8.49 g/m*3 18.4 C 0 km/h
2180 21-07-2010 04:09:03 18.4 C 8.49 g/m*3 18.4 C 0 km/h
2181 21-07-2010 04:21:03 18.3 C 8.44 g/m*3 18.3 C 0 km/h
2182 21-07-2010 04:33:03 18.1 C 8.65 g/m*3 18.1 C 0 km/h
2183 21-07-2010 04:45:03 17.9 C 8.7 g/m*3 17.9 C 0 km/h
2184 21-07-2010 04:57:03 17.7 C 8.6 g/m*3 17.7 C 0 km/h
2185 21-07-2010 05:09:03 17.6 C 8.55 g/m*3 17.6 C 0 km/h
2186 21-07-2010 05:21:04 17.4 C 8.6 g/m*3 17.4 C 0 km/h
2187 21-07-2010 05:33:04 17.4 C 8.74 g/m*3 17.4 C 0 km/h
2188 21-07-2010 05:45:04 17.2 C 8.93 g/m*3 17.2 C 0 km/h
2189 21-07-2010 05:57:04 17.3 C 8.99 g/m*3 17.3 C 0 km/h
2190 21-07-2010 06:09:04 17.1 C 8.88 g/m*3 17.1 C 0 km/h
2191 21-07-2010 06:21:04 17 C 8.68 g/m*3 17 C 0 km/h
2192 21-07-2010 06:33:04 17.1 C 8.88 g/m*3 17.1 C 0 km/h
2193 21-07-2010 06:45:04 17.2 C 8.93 g/m*3 17.2 C 0 km/h
2194 21-07-2010 06:57:04 17.4 C 9.19 g/m*3 17.4 C 0 km/h
2195 21-07-2010 07:09:02 17.4 C 9.19 g/m*3 17.4 C 0 km/h
2196 21-07-2010 07:21:01 17.6 C 9.45 g/m*3 17.6 C 0 km/h
2197 21-07-2010 07:33:02 17.7 C 9.35 g/m*3 17.7 C 0 km/h
2198 21-07-2010 07:45:02 18 C 9.22 g/m*3 18 C 0 km/h
2199 21-07-2010 07:57:02 18.3 C 9.38 g/m*3 18.3 C 0 km/h
2200 21-07-2010 08:09:02 18.5 C 9.18 g/m*3 18.5 C 0 km/h
Sensor: Nr:Datum:Temp:Abs-Feuchte:Windchill:Wind:
Aussen-T/F 2201 21-07-2010 08:21:01 18.8 C 9.18 g/m*3 18.8 C 0 km/h
2202 21-07-2010 08:33:02 19.2 C 9.07 g/m*3 19.2 C 0 km/h
2203 21-07-2010 08:45:01 19.4 C 9.01 g/m*3 19.4 C 0 km/h
2204 21-07-2010 08:57:01 20.1 C 8.87 g/m*3 20.1 C 0 km/h
2205 21-07-2010 09:09:02 20.6 C 9.31 g/m*3 20.6 C 0 km/h
2206 21-07-2010 09:21:02 21.4 C 9.37 g/m*3 21.4 C 0 km/h
2207 21-07-2010 09:33:02 22.4 C 9.53 g/m*3 22.4 C 0 km/h
2208 21-07-2010 09:45:01 23.3 C 9.41 g/m*3 23.3 C 0 km/h
2209 21-07-2010 09:57:01 23.9 C 9.3 g/m*3 23.9 C 0 km/h
2210 21-07-2010 10:09:02 24.7 C 9.28 g/m*3 24.7 C 0 km/h
2211 21-07-2010 10:21:02 25.7 C 9.1 g/m*3 25.7 C 0 km/h
2212 21-07-2010 10:33:01 26.6 C 8.56 g/m*3 26.6 C 0 km/h
2213 21-07-2010 10:45:02 27.3 C 8.11 g/m*3 27.3 C 0 km/h
2214 21-07-2010 10:57:02 28.4 C 7.78 g/m*3 28.4 C 0 km/h
2215 21-07-2010 11:09:01 28.9 C 7.43 g/m*3 28.9 C 0 km/h
2216 21-07-2010 11:21:02 29.3 C 7.3 g/m*3 29.3 C 0 km/h
2217 21-07-2010 11:33:01 29.7 C 7.46 g/m*3 29.7 C 0 km/h
2218 21-07-2010 11:45:02 30 C 7.58 g/m*3 30 C 0 km/h
2219 21-07-2010 11:57:02 30.4 C 7.13 g/m*3 30.4 C 0 km/h
2220 21-07-2010 12:09:02 30.7 C 6.61 g/m*3 30.7 C 0 km/h
2221 21-07-2010 12:21:02 31.2 C 6.47 g/m*3 31.2 C 0 km/h
2222 21-07-2010 12:33:02 31.6 C 6.61 g/m*3 31.6 C 0 km/h
2223 21-07-2010 12:45:02 31.6 C 6.61 g/m*3 31.6 C 0 km/h
2224 21-07-2010 12:57:02 31.7 C 6.64 g/m*3 31.7 C 0 km/h
2225 21-07-2010 13:09:01 32.1 C 6.79 g/m*3 32.1 C 0 km/h
Sensor: Nr:Datum:Temp:Abs-Feuchte:Windchill:Wind:
Aussen-T/F 2226 21-07-2010 13:21:02 32.5 C 6.93 g/m*3 32.5 C 0 km/h
2227 21-07-2010 13:33:02 32.6 C 6.97 g/m*3 32.6 C 0 km/h
2228 21-07-2010 13:45:02 32.6 C 6.97 g/m*3 32.6 C 0 km/h
2229 21-07-2010 13:57:02 32.8 C 7.04 g/m*3 32.8 C 0 km/h
2230 21-07-2010 14:09:02 32.6 C 6.97 g/m*3 32.6 C 0 km/h
2231 21-07-2010 14:21:02 32.4 C 6.9 g/m*3 32.4 C 0 km/h
2232 21-07-2010 14:33:02 32.5 C 6.93 g/m*3 32.5 C 0 km/h
2233 21-07-2010 14:45:01 32.6 C 6.97 g/m*3 32.6 C 0 km/h
2234 21-07-2010 14:57:01 32.8 C 7.04 g/m*3 32.8 C 0 km/h
2235 21-07-2010 15:09:02 32.6 C 6.97 g/m*3 32.6 C 0 km/h
2236 21-07-2010 15:21:01 32.6 C 6.97 g/m*3 32.6 C 0 km/h
2237 21-07-2010 15:33:01 32.4 C 6.9 g/m*3 32.4 C 0 km/h
2238 21-07-2010 15:45:01 32.8 C 7.04 g/m*3 32.8 C 0 km/h
2239 21-07-2010 15:57:01 32.4 C 6.9 g/m*3 32.4 C 0 km/h
2240 21-07-2010 16:09:02 32.3 C 6.86 g/m*3 32.3 C 0 km/h
2241 21-07-2010 16:21:01 32.3 C 6.86 g/m*3 32.3 C 0 km/h
2242 21-07-2010 16:33:02 32.3 C 6.86 g/m*3 32.3 C 0 km/h
2243 21-07-2010 16:45:02 32.8 C 7.04 g/m*3 32.8 C 0 km/h
2244 21-07-2010 16:57:02 32.5 C 6.93 g/m*3 32.5 C 0 km/h
2245 21-07-2010 17:09:02 32.1 C 6.79 g/m*3 32.1 C 0 km/h
2246 21-07-2010 17:21:02 31.9 C 6.72 g/m*3 31.9 C 0 km/h
2247 21-07-2010 17:33:02 31.7 C 6.64 g/m*3 31.7 C 0 km/h
2248 21-07-2010 17:45:02 31.1 C 6.76 g/m*3 31.1 C 0 km/h
2249 21-07-2010 17:57:02 30.7 C 6.93 g/m*3 30.7 C 0 km/h
2250 21-07-2010 18:09:02 30.4 C 7.13 g/m*3 30.4 C 0 km/h
Sensor: Nr:Datum:Temp:Abs-Feuchte:Windchill:Wind:
Aussen-T/F 2251 21-07-2010 18:21:02 30.3 C 7.4 g/m*3 30.3 C 0 km/h
2252 21-07-2010 18:33:02 30.3 C 7.4 g/m*3 30.3 C 0 km/h
2253 21-07-2010 18:45:02 30 C 7.28 g/m*3 30 C 0 km/h
2254 21-07-2010 18:57:02 29.6 C 7.42 g/m*3 29.6 C 0 km/h
2255 21-07-2010 19:09:02 29.5 C 7.67 g/m*3 29.5 C 0 km/h
2256 21-07-2010 19:21:02 29.4 C 7.63 g/m*3 29.4 C 0 km/h
2257 21-07-2010 19:33:02 28.9 C 7.71 g/m*3 28.9 C 0 km/h
2258 21-07-2010 19:45:01 28.5 C 7.83 g/m*3 28.5 C 0 km/h
2259 21-07-2010 19:57:01 27.3 C 9.16 g/m*3 27.3 C 0 km/h
2260 21-07-2010 20:09:02 23.7 C 11.55 g/m*3 23.7 C 0 km/h
2261 21-07-2010 20:21:01 23.4 C 12.41 g/m*3 23.4 C 0 km/h
2262 21-07-2010 20:33:01 23.7 C 12.62 g/m*3 23.7 C 0 km/h
2263 21-07-2010 20:45:01 23.9 C 12.33 g/m*3 23.9 C 0 km/h
2264 21-07-2010 20:57:01 23.2 C 11.85 g/m*3 23.2 C 0 km/h
2265 21-07-2010 21:09:01 23.3 C 11.71 g/m*3 23.3 C 0 km/h
2266 21-07-2010 21:21:02 23.1 C 11.78 g/m*3 23.1 C 0 km/h
2267 21-07-2010 21:33:01 22.6 C 12.05 g/m*3 22.6 C 0 km/h
2268 21-07-2010 21:45:01 23 C 11.92 g/m*3 23 C 0 km/h
2269 21-07-2010 21:57:01 23.1 C 11.78 g/m*3 23.1 C 0 km/h
2270 21-07-2010 22:10:03 23.3 C 11.92 g/m*3 23.3 C 0 km/h
2271 21-07-2010 22:22:03 23 C 11.51 g/m*3 23 C 0 km/h
2272 21-07-2010 22:34:03 22.9 C 11.85 g/m*3 22.9 C 0 km/h
2273 21-07-2010 22:46:03 22.9 C 11.85 g/m*3 22.9 C 0 km/h
2274 21-07-2010 22:58:03 22.9 C 11.65 g/m*3 22.9 C 0 km/h
2275 21-07-2010 23:10:03 23 C 11.51 g/m*3 23 C 0 km/h
Sensor: Nr:Datum:Temp:Abs-Feuchte:Windchill:Wind:
Aussen-T/F 2276 21-07-2010 23:22:03 23 C 11.3 g/m*3 23 C 0 km/h
2277 21-07-2010 23:34:03 22.9 C 11.44 g/m*3 22.9 C 0 km/h
2278 21-07-2010 23:46:03 22.7 C 11.52 g/m*3 22.7 C 0 km/h
2279 21-07-2010 23:58:03 22.8 C 11.58 g/m*3 22.8 C 0 km/h
2280 22-07-2010 00:10:03 22.7 C 11.52 g/m*3 22.7 C 0 km/h
2281 22-07-2010 00:22:03 22.6 C 11.65 g/m*3 22.6 C 0 km/h
2282 22-07-2010 00:34:03 22.5 C 11.58 g/m*3 22.5 C 0 km/h
2283 22-07-2010 00:46:04 22.5 C 11.58 g/m*3 22.5 C 0 km/h
2284 22-07-2010 00:58:04 22.5 C 11.58 g/m*3 22.5 C 0 km/h
2285 22-07-2010 01:10:04 22.4 C 11.72 g/m*3 22.4 C 0 km/h
2286 22-07-2010 01:22:04 22.4 C 11.72 g/m*3 22.4 C 0 km/h
2287 22-07-2010 01:34:04 22.3 C 11.65 g/m*3 22.3 C 0 km/h
2288 22-07-2010 01:46:04 22 C 11.45 g/m*3 22 C 0 km/h
2289 22-07-2010 01:58:04 21.7 C 11.64 g/m*3 21.7 C 0 km/h
2290 22-07-2010 02:10:04 21.5 C 11.69 g/m*3 21.5 C 0 km/h
2291 22-07-2010 02:22:04 21.3 C 11.56 g/m*3 21.3 C 0 km/h
2292 22-07-2010 02:34:04 21.2 C 11.49 g/m*3 21.2 C 0 km/h
2293 22-07-2010 02:46:04 21.2 C 11.49 g/m*3 21.2 C 0 km/h
2294 22-07-2010 02:58:04 21.2 C 11.3 g/m*3 21.2 C 0 km/h
2295 22-07-2010 03:10:04 21.1 C 11.42 g/m*3 21.1 C 0 km/h
2296 22-07-2010 03:22:04 21.1 C 11.42 g/m*3 21.1 C 0 km/h
2297 22-07-2010 03:34:04 20.9 C 11.29 g/m*3 20.9 C 0 km/h
2298 22-07-2010 03:46:04 20.8 C 11.05 g/m*3 20.8 C 0 km/h
2299 22-07-2010 03:58:04 20.7 C 10.62 g/m*3 20.7 C 0 km/h
2300 22-07-2010 04:10:04 20.7 C 10.62 g/m*3 20.7 C 0 km/h
Sensor: Nr:Datum:Temp:Abs-Feuchte:Windchill:Wind:
Aussen-T/F 2301 22-07-2010 04:22:04 20.8 C 10.5 g/m*3 20.8 C 0 km/h
2302 22-07-2010 04:34:04 20.5 C 10.5 g/m*3 20.5 C 0 km/h
2303 22-07-2010 04:46:04 20.3 C 10.2 g/m*3 20.3 C 0 km/h
2304 22-07-2010 04:58:05 20.2 C 9.97 g/m*3 20.2 C 0 km/h
2305 22-07-2010 05:10:05 20.1 C 9.73 g/m*3 20.1 C 0 km/h
2306 22-07-2010 05:22:05 20.1 C 9.73 g/m*3 20.1 C 0 km/h
2307 22-07-2010 05:34:05 20 C 9.68 g/m*3 20 C 0 km/h
2308 22-07-2010 05:46:05 19.9 C 9.79 g/m*3 19.9 C 0 km/h
2309 22-07-2010 05:58:05 19.4 C 10.18 g/m*3 19.4 C 0 km/h
2310 22-07-2010 06:10:05 19.4 C 10.01 g/m*3 19.4 C 0 km/h
2311 22-07-2010 06:22:05 19.1 C 10.33 g/m*3 19.1 C 0 km/h
2312 22-07-2010 06:34:05 18.6 C 11.14 g/m*3 18.6 C 0 km/h
2313 22-07-2010 06:46:01 18.5 C 11.39 g/m*3 18.5 C 0 km/h
2314 22-07-2010 06:58:01 19 C 11.73 g/m*3 19 C 0 km/h
2315 22-07-2010 07:10:02 19 C 11.57 g/m*3 19 C 0 km/h
2316 22-07-2010 07:22:01 18.8 C 11.76 g/m*3 18.8 C 0 km/h
2317 22-07-2010 07:34:01 18.9 C 11.66 g/m*3 18.9 C 0 km/h
2318 22-07-2010 07:46:01 19.5 C 11.58 g/m*3 19.5 C 0 km/h
2319 22-07-2010 07:58:01 20 C 11.06 g/m*3 20 C 0 km/h
2320 22-07-2010 08:10:02 20.3 C 11.08 g/m*3 20.3 C 0 km/h
2321 22-07-2010 08:22:02 20.7 C 11.16 g/m*3 20.7 C 0 km/h
2322 22-07-2010 08:34:01 21 C 10.81 g/m*3 21 C 0 km/h
2323 22-07-2010 08:46:02 21.4 C 10.87 g/m*3 21.4 C 0 km/h
2324 22-07-2010 08:58:02 21.8 C 10.74 g/m*3 21.8 C 0 km/h
2325 22-07-2010 09:10:01 21.6 C 10.62 g/m*3 21.6 C 0 km/h
Sensor: Nr:Datum:Temp:Abs-Feuchte:Windchill:Wind:
Aussen-T/F 2326 22-07-2010 09:22:02 21.5 C 10.56 g/m*3 21.5 C 0 km/h
2327 22-07-2010 09:34:01 22.2 C 10.21 g/m*3 22.2 C 0 km/h
2328 22-07-2010 09:46:02 22.4 C 10.13 g/m*3 22.4 C 0 km/h
2329 22-07-2010 09:58:02 22.6 C 10.04 g/m*3 22.6 C 0 km/h
2330 22-07-2010 10:10:02 22.3 C 10.07 g/m*3 22.3 C 0 km/h
2331 22-07-2010 10:22:02 22.2 C 10.21 g/m*3 22.2 C 0 km/h
2332 22-07-2010 10:34:02 22.1 C 10.15 g/m*3 22.1 C 0 km/h
2333 22-07-2010 10:46:02 20.9 C 11.11 g/m*3 20.9 C 0 km/h
2334 22-07-2010 10:58:03 20.4 C 11.68 g/m*3 20.4 C 0 km/h
2335 22-07-2010 11:10:01 20.4 C 11.85 g/m*3 20.4 C 0 km/h
2336 22-07-2010 11:22:02 21.4 C 12.19 g/m*3 21.4 C 0 km/h
2337 22-07-2010 11:34:02 22 C 11.84 g/m*3 22 C 0 km/h
2338 22-07-2010 11:46:02 22.4 C 11.72 g/m*3 22.4 C 0 km/h
2339 22-07-2010 11:58:02 22.7 C 11.52 g/m*3 22.7 C 0 km/h
2340 22-07-2010 12:10:02 22.9 C 11.24 g/m*3 22.9 C 0 km/h
2341 22-07-2010 12:22:02 22.4 C 11.32 g/m*3 22.4 C 0 km/h
2342 22-07-2010 12:34:02 22.5 C 11.58 g/m*3 22.5 C 0 km/h
2343 22-07-2010 12:46:01 22.4 C 11.32 g/m*3 22.4 C 0 km/h
2344 22-07-2010 12:58:01 21.7 C 11.83 g/m*3 21.7 C 0 km/h
2345 22-07-2010 13:10:02 21.5 C 12.63 g/m*3 21.5 C 0 km/h
2346 22-07-2010 13:22:01 21 C 12.09 g/m*3 21 C 0 km/h
2347 22-07-2010 13:34:01 20.1 C 12.69 g/m*3 20.1 C 0 km/h
2348 22-07-2010 13:46:01 20.4 C 13.44 g/m*3 20.4 C 0 km/h
2349 22-07-2010 13:58:01 21.5 C 13.01 g/m*3 21.5 C 0 km/h
2350 22-07-2010 14:10:02 21.4 C 12.56 g/m*3 21.4 C 0 km/h
Sensor: Nr:Datum:Temp:Abs-Feuchte:Windchill:Wind:
Aussen-T/F 2351 22-07-2010 14:22:01 21.3 C 12.68 g/m*3 21.3 C 0 km/h
2352 22-07-2010 14:34:01 21.8 C 12.28 g/m*3 21.8 C 0 km/h
2353 22-07-2010 14:46:01 20.9 C 12.38 g/m*3 20.9 C 0 km/h
2354 22-07-2010 14:58:01 20.9 C 12.75 g/m*3 20.9 C 0 km/h
2355 22-07-2010 15:10:02 20.8 C 12.86 g/m*3 20.8 C 0 km/h
2356 22-07-2010 15:22:01 20.4 C 12.91 g/m*3 20.4 C 0 km/h
2357 22-07-2010 15:34:01 21.2 C 13.34 g/m*3 21.2 C 0 km/h
2358 22-07-2010 15:46:01 22 C 13 g/m*3 22 C 0 km/h
2359 22-07-2010 15:58:01 22.5 C 12.38 g/m*3 22.5 C 0 km/h
2360 22-07-2010 16:10:01 23.3 C 11.71 g/m*3 23.3 C 0 km/h
2361 22-07-2010 16:22:02 23.4 C 11.57 g/m*3 23.4 C 0 km/h
2362 22-07-2010 16:34:01 23.2 C 11.43 g/m*3 23.2 C 0 km/h
2363 22-07-2010 16:46:03 23.3 C 11.29 g/m*3 23.3 C 0 km/h
2364 22-07-2010 16:58:03 22.8 C 11.79 g/m*3 22.8 C 0 km/h
2365 22-07-2010 17:10:02 21.7 C 12.97 g/m*3 21.7 C 0 km/h
2366 22-07-2010 17:22:02 21.9 C 13.7 g/m*3 21.9 C 0 km/h
2367 22-07-2010 17:34:02 21.8 C 13.43 g/m*3 21.8 C 0 km/h
2368 22-07-2010 17:46:02 22.1 C 13.27 g/m*3 22.1 C 0 km/h
2369 22-07-2010 17:58:03 22.7 C 13.13 g/m*3 22.7 C 0 km/h
2370 22-07-2010 18:10:02 22.5 C 12.78 g/m*3 22.5 C 0 km/h
2371 22-07-2010 18:22:02 23.1 C 12.2 g/m*3 23.1 C 0 km/h
2372 22-07-2010 18:34:01 23.1 C 11.78 g/m*3 23.1 C 0 km/h
2373 22-07-2010 18:46:02 23 C 11.92 g/m*3 23 C 0 km/h
2374 22-07-2010 18:58:02 23.3 C 11.71 g/m*3 23.3 C 0 km/h
2375 22-07-2010 19:10:02 23.1 C 11.58 g/m*3 23.1 C 0 km/h
Sensor: Nr:Datum:Temp:Abs-Feuchte:Windchill:Wind:
Aussen-T/F 2376 22-07-2010 19:22:01 22.8 C 11.99 g/m*3 22.8 C 0 km/h
2377 22-07-2010 19:34:01 22.7 C 11.92 g/m*3 22.7 C 0 km/h
2378 22-07-2010 19:46:02 22.5 C 11.98 g/m*3 22.5 C 0 km/h
2379 22-07-2010 19:58:02 22.3 C 12.05 g/m*3 22.3 C 0 km/h
2380 22-07-2010 20:10:01 22.1 C 11.91 g/m*3 22.1 C 0 km/h
2381 22-07-2010 20:22:01 22 C 12.03 g/m*3 22 C 0 km/h
2382 22-07-2010 20:34:00 21.9 C 12.16 g/m*3 21.9 C 0 km/h
2383 22-07-2010 20:46:02 21.7 C 12.02 g/m*3 21.7 C 0 km/h
2384 22-07-2010 20:58:02 21.6 C 11.95 g/m*3 21.6 C 0 km/h
2385 22-07-2010 21:10:02 21.4 C 12 g/m*3 21.4 C 0 km/h
2386 22-07-2010 21:22:02 21.2 C 11.86 g/m*3 21.2 C 0 km/h
2387 22-07-2010 21:34:03 21 C 11.91 g/m*3 21 C 0 km/h
2388 22-07-2010 21:46:02 20.9 C 11.84 g/m*3 20.9 C 0 km/h
2389 22-07-2010 21:58:02 20.8 C 11.95 g/m*3 20.8 C 0 km/h
2390 22-07-2010 22:10:02 20.7 C 11.88 g/m*3 20.7 C 0 km/h
2391 22-07-2010 22:22:02 20.6 C 11.81 g/m*3 20.6 C 0 km/h
2392 22-07-2010 22:34:02 20.4 C 11.68 g/m*3 20.4 C 0 km/h
2393 22-07-2010 22:46:02 20.4 C 11.85 g/m*3 20.4 C 0 km/h
2394 22-07-2010 22:58:02 20.3 C 11.78 g/m*3 20.3 C 0 km/h
2395 22-07-2010 23:10:02 20.2 C 11.71 g/m*3 20.2 C 0 km/h
2396 22-07-2010 23:22:03 20.3 C 11.78 g/m*3 20.3 C 0 km/h
2397 22-07-2010 23:34:03 20.2 C 11.89 g/m*3 20.2 C 0 km/h
2398 22-07-2010 23:46:02 20.1 C 11.82 g/m*3 20.1 C 0 km/h
2399 22-07-2010 23:58:02 20.2 C 11.89 g/m*3 20.2 C 0 km/h
2400 23-07-2010 00:10:02 20.2 C 11.89 g/m*3 20.2 C 0 km/h
Sensor: Nr:Datum:Temp:Abs-Feuchte:Windchill:Wind:
Aussen-T/F 2401 23-07-2010 00:22:02 20.1 C 11.99 g/m*3 20.1 C 0 km/h
2402 23-07-2010 00:34:02 20 C 12.1 g/m*3 20 C 0 km/h
2403 23-07-2010 00:46:02 20.1 C 12.17 g/m*3 20.1 C 0 km/h
2404 23-07-2010 00:58:02 20.1 C 12.17 g/m*3 20.1 C 0 km/h
2405 23-07-2010 01:10:03 20 C 12.1 g/m*3 20 C 0 km/h
2406 23-07-2010 01:22:02 20 C 12.27 g/m*3 20 C 0 km/h
2407 23-07-2010 01:34:02 20 C 12.27 g/m*3 20 C 0 km/h
2408 23-07-2010 01:46:01 20 C 12.44 g/m*3 20 C 0 km/h
2409 23-07-2010 01:58:01 20 C 12.44 g/m*3 20 C 0 km/h
2410 23-07-2010 02:10:02 19.8 C 12.3 g/m*3 19.8 C 0 km/h
2411 23-07-2010 02:22:01 19.7 C 12.4 g/m*3 19.7 C 0 km/h
2412 23-07-2010 02:34:01 19.4 C 12.68 g/m*3 19.4 C 0 km/h
2413 23-07-2010 02:47:03 19 C 12.39 g/m*3 19 C 0 km/h
2414 23-07-2010 02:59:03 18.2 C 11.35 g/m*3 18.2 C 0 km/h
2415 23-07-2010 03:11:03 16.9 C 11.51 g/m*3 16.9 C 0 km/h
2416 23-07-2010 03:23:03 16.4 C 11.58 g/m*3 16.4 C 0 km/h
2417 23-07-2010 03:35:01 16.2 C 11.72 g/m*3 16.2 C 0 km/h
2418 23-07-2010 03:47:01 16.2 C 11.72 g/m*3 16.2 C 0 km/h
2419 23-07-2010 03:59:01 16 C 11.58 g/m*3 16 C 0 km/h
2420 23-07-2010 04:11:02 15.9 C 11.65 g/m*3 15.9 C 0 km/h
2421 23-07-2010 04:23:02 16 C 11.72 g/m*3 16 C 0 km/h
2422 23-07-2010 04:35:01 16.1 C 11.79 g/m*3 16.1 C 0 km/h
2423 23-07-2010 04:47:02 16.1 C 11.65 g/m*3 16.1 C 0 km/h
2424 23-07-2010 04:59:02 16.1 C 11.65 g/m*3 16.1 C 0 km/h
2425 23-07-2010 05:11:01 16 C 11.58 g/m*3 16 C 0 km/h
Sensor: Nr:Datum:Temp:Abs-Feuchte:Windchill:Wind:
Aussen-T/F 2426 23-07-2010 05:23:01 15.9 C 11.51 g/m*3 15.9 C 0 km/h
2427 23-07-2010 05:35:01 15.9 C 11.51 g/m*3 15.9 C 0 km/h
2428 23-07-2010 05:47:02 15.9 C 11.51 g/m*3 15.9 C 0 km/h
2429 23-07-2010 05:59:02 15.8 C 11.44 g/m*3 15.8 C 0 km/h
2430 23-07-2010 06:11:01 15.6 C 11.3 g/m*3 15.6 C 0 km/h
2431 23-07-2010 06:23:01 15.6 C 11.3 g/m*3 15.6 C 0 km/h
2432 23-07-2010 06:35:02 15.7 C 11.51 g/m*3 15.7 C 0 km/h
2433 23-07-2010 06:47:02 16 C 11.58 g/m*3 16 C 0 km/h
2434 23-07-2010 06:59:02 16.4 C 12 g/m*3 16.4 C 0 km/h
2435 23-07-2010 07:11:02 16.7 C 12.08 g/m*3 16.7 C 0 km/h
2436 23-07-2010 07:23:01 17 C 12.15 g/m*3 17 C 0 km/h
2437 23-07-2010 07:35:00 17.4 C 12.45 g/m*3 17.4 C 0 km/h
2438 23-07-2010 07:47:01 17.5 C 12.37 g/m*3 17.5 C 0 km/h
2439 23-07-2010 07:59:01 17.7 C 12.22 g/m*3 17.7 C 0 km/h
2440 23-07-2010 08:11:01 17.8 C 12.14 g/m*3 17.8 C 0 km/h
2441 23-07-2010 08:23:01 18 C 12.13 g/m*3 18 C 0 km/h
2442 23-07-2010 08:35:00 18 C 11.98 g/m*3 18 C 0 km/h
2443 23-07-2010 08:47:03 18.1 C 12.05 g/m*3 18.1 C 0 km/h
2444 23-07-2010 08:59:03 18.2 C 12.12 g/m*3 18.2 C 0 km/h
2445 23-07-2010 09:11:02 18.4 C 12.27 g/m*3 18.4 C 0 km/h
2446 23-07-2010 09:23:03 18.6 C 12.26 g/m*3 18.6 C 0 km/h
2447 23-07-2010 09:35:02 18.9 C 12.15 g/m*3 18.9 C 0 km/h
2448 23-07-2010 09:47:02 19.5 C 11.41 g/m*3 19.5 C 0 km/h
2449 23-07-2010 09:59:02 20 C 10.89 g/m*3 20 C 0 km/h
2450 23-07-2010 10:11:02 20.4 C 10.44 g/m*3 20.4 C 0 km/h
Sensor: Nr:Datum:Temp:Abs-Feuchte:Windchill:Wind:
Aussen-T/F 2451 23-07-2010 10:23:02 20.9 C 10.56 g/m*3 20.9 C 0 km/h
2452 23-07-2010 10:35:03 21.5 C 10.75 g/m*3 21.5 C 0 km/h
2453 23-07-2010 10:47:02 22 C 10.29 g/m*3 22 C 0 km/h
2454 23-07-2010 10:59:02 22.2 C 10.21 g/m*3 22.2 C 0 km/h
2455 23-07-2010 11:11:03 23.2 C 10.19 g/m*3 23.2 C 0 km/h
2456 23-07-2010 11:23:02 23.7 C 10.05 g/m*3 23.7 C 0 km/h
2457 23-07-2010 11:35:02 24.4 C 9.57 g/m*3 24.4 C 0 km/h
2458 23-07-2010 11:47:01 24.6 C 9.45 g/m*3 24.6 C 0 km/h
2459 23-07-2010 11:59:01 24.8 C 9.1 g/m*3 24.8 C 0 km/h
2460 23-07-2010 12:11:02 25.9 C 9.2 g/m*3 25.9 C 0 km/h
2461 23-07-2010 12:23:01 26.4 C 7.97 g/m*3 26.4 C 0 km/h
2462 23-07-2010 12:35:01 27.2 C 7.81 g/m*3 27.2 C 0 km/h
2463 23-07-2010 12:47:01 26.9 C 7.68 g/m*3 26.9 C 0 km/h
2464 23-07-2010 12:59:01 25.9 C 7.75 g/m*3 25.9 C 0 km/h
2465 23-07-2010 13:11:01 26.4 C 7.22 g/m*3 26.4 C 0 km/h
2466 23-07-2010 13:23:02 28.2 C 6.87 g/m*3 28.2 C 0 km/h
2467 23-07-2010 13:35:01 28.7 C 6.22 g/m*3 28.7 C 0 km/h
2468 23-07-2010 13:47:02 28 C 5.98 g/m*3 28 C 0 km/h
2469 23-07-2010 13:59:02 27.8 C 6.72 g/m*3 27.8 C 0 km/h
2470 23-07-2010 14:11:02 28.8 C 6.82 g/m*3 28.8 C 0 km/h
2471 23-07-2010 14:23:02 28.6 C 6.74 g/m*3 28.6 C 0 km/h
2472 23-07-2010 14:35:02 29.5 C 6.49 g/m*3 29.5 C 0 km/h
2473 23-07-2010 14:47:03 29.7 C 6.56 g/m*3 29.7 C 0 km/h
2474 23-07-2010 14:59:03 30.1 C 6.1 g/m*3 30.1 C 0 km/h
2475 23-07-2010 15:11:02 28.9 C 5.71 g/m*3 28.9 C 0 km/h
Sensor: Nr:Datum:Temp:Abs-Feuchte:Windchill:Wind:
Aussen-T/F 2476 23-07-2010 15:23:02 28.9 C 6.57 g/m*3 28.9 C 0 km/h
2477 23-07-2010 15:35:02 28.5 C 6.43 g/m*3 28.5 C 0 km/h
2478 23-07-2010 15:47:02 27.8 C 6.46 g/m*3 27.8 C 0 km/h
2479 23-07-2010 15:59:02 27.9 C 6.76 g/m*3 27.9 C 0 km/h
2480 23-07-2010 16:11:02 28.8 C 6.25 g/m*3 28.8 C 0 km/h
2481 23-07-2010 16:23:03 29.5 C 6.2 g/m*3 29.5 C 0 km/h
2482 23-07-2010 16:35:02 28.7 C 6.22 g/m*3 28.7 C 0 km/h
2483 23-07-2010 16:47:02 28.2 C 6.32 g/m*3 28.2 C 0 km/h
2484 23-07-2010 16:59:02 27.5 C 6.61 g/m*3 27.5 C 0 km/h
2485 23-07-2010 17:11:02 26.4 C 7.22 g/m*3 26.4 C 0 km/h
2486 23-07-2010 17:23:02 24.5 C 6.94 g/m*3 24.5 C 0 km/h
2487 23-07-2010 17:35:03 21.9 C 8.88 g/m*3 21.9 C 0 km/h
2488 23-07-2010 17:47:02 20.1 C 10.26 g/m*3 20.1 C 0 km/h
2489 23-07-2010 17:59:02 18.7 C 11.37 g/m*3 18.7 C 0 km/h
2490 23-07-2010 18:11:02 18.3 C 11.26 g/m*3 18.3 C 0 km/h
2491 23-07-2010 18:23:02 18 C 11.52 g/m*3 18 C 0 km/h
2492 23-07-2010 18:35:02 18 C 11.67 g/m*3 18 C 0 km/h
2493 23-07-2010 18:47:02 18.2 C 11.66 g/m*3 18.2 C 0 km/h
2494 23-07-2010 18:59:02 18 C 11.52 g/m*3 18 C 0 km/h
2495 23-07-2010 19:11:01 17.3 C 11.79 g/m*3 17.3 C 0 km/h
2496 23-07-2010 19:23:02 17.5 C 12.37 g/m*3 17.5 C 0 km/h
2497 23-07-2010 19:35:01 17 C 12.15 g/m*3 17 C 0 km/h
2498 23-07-2010 19:47:01 16.8 C 12.44 g/m*3 16.8 C 0 km/h
2499 23-07-2010 19:59:01 16.2 C 12.14 g/m*3 16.2 C 0 km/h
2500 23-07-2010 20:11:01 16 C 12.13 g/m*3 16 C 0 km/h
Sensor: Nr:Datum:Temp:Abs-Feuchte:Windchill:Wind:
Aussen-T/F 2501 23-07-2010 20:23:02 15.9 C 12.19 g/m*3 15.9 C 0 km/h
2502 23-07-2010 20:35:01 16 C 12.26 g/m*3 16 C 0 km/h
2503 23-07-2010 20:47:02 16.1 C 12.47 g/m*3 16.1 C 0 km/h
2504 23-07-2010 20:59:02 15.9 C 12.46 g/m*3 15.9 C 0 km/h
2505 23-07-2010 21:11:01 15.9 C 12.46 g/m*3 15.9 C 0 km/h
2506 23-07-2010 21:23:02 15.8 C 12.38 g/m*3 15.8 C 0 km/h
2507 23-07-2010 21:35:01 15.6 C 12.23 g/m*3 15.6 C 0 km/h
2508 23-07-2010 21:47:01 15.4 C 12.09 g/m*3 15.4 C 0 km/h
2509 23-07-2010 21:59:01 15.2 C 12.07 g/m*3 15.2 C 0 km/h
2510 23-07-2010 22:11:01 15.1 C 12 g/m*3 15.1 C 0 km/h
2511 23-07-2010 22:23:02 15.2 C 12.07 g/m*3 15.2 C 0 km/h
2512 23-07-2010 22:35:01 15.1 C 12 g/m*3 15.1 C 0 km/h
2513 23-07-2010 22:48:02 15.1 C 12 g/m*3 15.1 C 0 km/h
2514 23-07-2010 23:00:02 15.3 C 12.14 g/m*3 15.3 C 0 km/h
2515 23-07-2010 23:12:02 15.1 C 12 g/m*3 15.1 C 0 km/h
2516 23-07-2010 23:24:02 15.1 C 12.13 g/m*3 15.1 C 0 km/h
2517 23-07-2010 23:36:02 15 C 12.05 g/m*3 15 C 0 km/h
2518 23-07-2010 23:48:02 15 C 12.05 g/m*3 15 C 0 km/h
2519 24-07-2010 00:00:02 15 C 12.05 g/m*3 15 C 0 km/h
2520 24-07-2010 00:12:02 15 C 12.05 g/m*3 15 C 0 km/h
2521 24-07-2010 00:24:02 15 C 12.05 g/m*3 15 C 0 km/h
2522 24-07-2010 00:36:02 15 C 12.05 g/m*3 15 C 0 km/h
2523 24-07-2010 00:48:03 15.1 C 12.13 g/m*3 15.1 C 0 km/h
2524 24-07-2010 01:00:03 15 C 12.05 g/m*3 15 C 0 km/h
2525 24-07-2010 01:12:03 15 C 12.05 g/m*3 15 C 0 km/h
Sensor: Nr:Datum:Temp:Abs-Feuchte:Windchill:Wind:
Aussen-T/F 2526 24-07-2010 01:24:03 15.2 C 12.2 g/m*3 15.2 C 0 km/h
2527 24-07-2010 01:36:03 15.2 C 12.2 g/m*3 15.2 C 0 km/h
2528 24-07-2010 01:48:03 15.2 C 12.2 g/m*3 15.2 C 0 km/h
2529 24-07-2010 02:00:03 15.2 C 12.33 g/m*3 15.2 C 0 km/h
2530 24-07-2010 02:12:03 15.2 C 12.33 g/m*3 15.2 C 0 km/h
2531 24-07-2010 02:24:03 15.2 C 12.33 g/m*3 15.2 C 0 km/h
2532 24-07-2010 02:36:03 15.3 C 12.41 g/m*3 15.3 C 0 km/h
2533 24-07-2010 02:48:03 15.4 C 12.48 g/m*3 15.4 C 0 km/h
2534 24-07-2010 03:00:03 15.4 C 12.48 g/m*3 15.4 C 0 km/h
2535 24-07-2010 03:12:03 15.4 C 12.48 g/m*3 15.4 C 0 km/h
2536 24-07-2010 03:24:03 15.6 C 12.63 g/m*3 15.6 C 0 km/h
2537 24-07-2010 03:36:03 15.7 C 12.71 g/m*3 15.7 C 0 km/h
2538 24-07-2010 03:48:03 15.7 C 12.71 g/m*3 15.7 C 0 km/h
2539 24-07-2010 04:00:03 15.7 C 12.71 g/m*3 15.7 C 0 km/h
2540 24-07-2010 04:12:03 15.6 C 12.5 g/m*3 15.6 C 0 km/h
2541 24-07-2010 04:24:03 15.7 C 12.44 g/m*3 15.7 C 0 km/h
2542 24-07-2010 04:36:03 15.6 C 12.23 g/m*3 15.6 C 0 km/h
2543 24-07-2010 04:48:03 15.6 C 12.1 g/m*3 15.6 C 0 km/h
2544 24-07-2010 05:00:03 15.6 C 12.1 g/m*3 15.6 C 0 km/h
2545 24-07-2010 05:12:04 15.6 C 11.97 g/m*3 15.6 C 0 km/h
2546 24-07-2010 05:24:04 15.5 C 11.9 g/m*3 15.5 C 0 km/h
2547 24-07-2010 05:36:04 15.5 C 11.9 g/m*3 15.5 C 0 km/h
2548 24-07-2010 05:48:04 15.5 C 11.9 g/m*3 15.5 C 0 km/h
2549 24-07-2010 06:00:04 15.4 C 11.82 g/m*3 15.4 C 0 km/h
2550 24-07-2010 06:12:04 15.4 C 11.69 g/m*3 15.4 C 0 km/h
Sensor: Nr:Datum:Temp:Abs-Feuchte:Windchill:Wind:
Aussen-T/F 2551 24-07-2010 06:24:04 15.4 C 11.56 g/m*3 15.4 C 0 km/h
2552 24-07-2010 06:36:04 15.5 C 11.63 g/m*3 15.5 C 0 km/h
2553 24-07-2010 06:48:04 15.4 C 11.56 g/m*3 15.4 C 0 km/h
2554 24-07-2010 07:00:04 15.4 C 11.56 g/m*3 15.4 C 0 km/h
2555 24-07-2010 07:12:04 15.4 C 11.56 g/m*3 15.4 C 0 km/h
2556 24-07-2010 07:24:04 15.5 C 11.63 g/m*3 15.5 C 0 km/h
2557 24-07-2010 07:36:04 15.6 C 11.57 g/m*3 15.6 C 0 km/h
2558 24-07-2010 07:48:04 15.6 C 11.57 g/m*3 15.6 C 0 km/h
2559 24-07-2010 08:00:04 15.8 C 11.58 g/m*3 15.8 C 0 km/h
2560 24-07-2010 08:12:04 16 C 11.31 g/m*3 16 C 0 km/h
2561 24-07-2010 08:24:04 16.1 C 11.24 g/m*3 16.1 C 0 km/h
2562 24-07-2010 08:36:02 16.4 C 11.31 g/m*3 16.4 C 0 km/h
2563 24-07-2010 08:48:02 16.5 C 11.09 g/m*3 16.5 C 0 km/h
2564 24-07-2010 09:00:02 16.6 C 11.02 g/m*3 16.6 C 0 km/h
2565 24-07-2010 09:12:02 17 C 11 g/m*3 17 C 0 km/h
2566 24-07-2010 09:24:02 17.4 C 11.12 g/m*3 17.4 C 0 km/h
2567 24-07-2010 09:36:03 17.6 C 10.65 g/m*3 17.6 C 0 km/h
2568 24-07-2010 09:48:02 17.6 C 10.2 g/m*3 17.6 C 0 km/h
2569 24-07-2010 10:00:02 17.6 C 9.9 g/m*3 17.6 C 0 km/h
2570 24-07-2010 10:12:02 18.4 C 10.22 g/m*3 18.4 C 0 km/h
2571 24-07-2010 10:24:02 18.9 C 9.88 g/m*3 18.9 C 0 km/h
2572 24-07-2010 10:36:02 19.2 C 9.56 g/m*3 19.2 C 0 km/h
2573 24-07-2010 10:48:02 19 C 8.64 g/m*3 19 C 0 km/h
2574 24-07-2010 11:00:02 19.8 C 9.39 g/m*3 19.8 C 0 km/h
2575 24-07-2010 11:12:02 19.9 C 8.76 g/m*3 19.9 C 0 km/h
Sensor: Nr:Datum:Temp:Abs-Feuchte:Windchill:Wind:
Aussen-T/F 2576 24-07-2010 11:24:02 18.7 C 8.97 g/m*3 18.7 C 0 km/h
2577 24-07-2010 11:36:02 19.4 C 8.51 g/m*3 19.4 C 0 km/h
2578 24-07-2010 11:48:02 19.4 C 8.51 g/m*3 19.4 C 0 km/h
2579 24-07-2010 12:00:02 19.5 C 8.39 g/m*3 19.5 C 0 km/h
2580 24-07-2010 12:12:01 20.5 C 8.36 g/m*3 20.5 C 0 km/h
2581 24-07-2010 12:24:01 20.3 C 8.09 g/m*3 20.3 C 0 km/h
2582 24-07-2010 12:36:01 20.8 C 8.33 g/m*3 20.8 C 0 km/h
2583 24-07-2010 12:48:02 21.5 C 7.73 g/m*3 21.5 C 0 km/h
2584 24-07-2010 13:00:02 20.9 C 7.1 g/m*3 20.9 C 0 km/h
2585 24-07-2010 13:12:02 22.9 C 6.95 g/m*3 22.9 C 0 km/h
2586 24-07-2010 13:24:02 24.3 C 6.2 g/m*3 24.3 C 0 km/h
2587 24-07-2010 13:36:01 23.4 C 6.31 g/m*3 23.4 C 0 km/h
2588 24-07-2010 13:48:02 22.1 C 6.44 g/m*3 22.1 C 0 km/h
2589 24-07-2010 14:00:02 23.8 C 6.02 g/m*3 23.8 C 0 km/h
2590 24-07-2010 14:12:01 23.4 C 5.89 g/m*3 23.4 C 0 km/h
2591 24-07-2010 14:24:02 23.1 C 6.41 g/m*3 23.1 C 0 km/h
2592 24-07-2010 14:36:01 22.8 C 6.3 g/m*3 22.8 C 0 km/h
2593 24-07-2010 14:48:02 24.3 C 6.2 g/m*3 24.3 C 0 km/h
2594 24-07-2010 15:00:02 24 C 5.66 g/m*3 24 C 0 km/h
2595 24-07-2010 15:12:02 23.2 C 5.61 g/m*3 23.2 C 0 km/h
2596 24-07-2010 15:24:02 24.5 C 6.27 g/m*3 24.5 C 0 km/h
2597 24-07-2010 15:36:02 25.1 C 5.32 g/m*3 25.1 C 0 km/h
2598 24-07-2010 15:48:01 23.7 C 4.49 g/m*3 23.7 C 0 km/h
2599 24-07-2010 16:00:01 23.2 C 5.2 g/m*3 23.2 C 0 km/h
2600 24-07-2010 16:12:02 23.6 C 4.68 g/m*3 23.6 C 0 km/h
Sensor: Nr:Datum:Temp:Abs-Feuchte:Windchill:Wind:
Aussen-T/F 2601 24-07-2010 16:24:01 24.8 C 4.55 g/m*3 24.8 C 0 km/h
2602 24-07-2010 16:36:01 23.6 C 4.47 g/m*3 23.6 C 0 km/h
2603 24-07-2010 16:48:01 24.1 C 4.38 g/m*3 24.1 C 0 km/h
2604 24-07-2010 17:00:01 24.2 C 4.4 g/m*3 24.2 C 0 km/h
2605 24-07-2010 17:12:02 25.5 C 4.73 g/m*3 25.5 C 0 km/h
2606 24-07-2010 17:24:02 25.1 C 4.63 g/m*3 25.1 C 0 km/h
2607 24-07-2010 17:36:01 24.1 C 4.38 g/m*3 24.1 C 0 km/h
2608 24-07-2010 17:48:02 22.9 C 4.09 g/m*3 22.9 C 0 km/h
2609 24-07-2010 18:00:02 23 C 4.11 g/m*3 23 C 0 km/h
2610 24-07-2010 18:12:01 23.8 C 4.3 g/m*3 23.8 C 0 km/h
2611 24-07-2010 18:24:02 24.1 C 4.38 g/m*3 24.1 C 0 km/h
2612 24-07-2010 18:36:01 23.4 C 4.21 g/m*3 23.4 C 0 km/h
2613 24-07-2010 18:48:02 23.1 C 4.13 g/m*3 23.1 C 0 km/h
2614 24-07-2010 19:00:02 23.6 C 4.25 g/m*3 23.6 C 0 km/h
2615 24-07-2010 19:12:02 23.5 C 4.23 g/m*3 23.5 C 0 km/h
2616 24-07-2010 19:24:02 23.4 C 4.21 g/m*3 23.4 C 0 km/h
2617 24-07-2010 19:36:02 22.7 C 4.04 g/m*3 22.7 C 0 km/h
2618 24-07-2010 19:48:02 22.9 C 4.09 g/m*3 22.9 C 0 km/h
2619 24-07-2010 20:00:02 23 C 4.11 g/m*3 23 C 0 km/h
2620 24-07-2010 20:12:02 23.1 C 4.13 g/m*3 23.1 C 0 km/h
2621 24-07-2010 20:24:01 22.8 C 4.06 g/m*3 22.8 C 0 km/h
2622 24-07-2010 20:36:02 22.6 C 4.02 g/m*3 22.6 C 0 km/h
2623 24-07-2010 20:48:02 22.1 C 3.9 g/m*3 22.1 C 0 km/h
2624 24-07-2010 21:00:02 21.2 C 3.71 g/m*3 21.2 C 0 km/h
2625 24-07-2010 21:12:02 20.3 C 4.4 g/m*3 20.3 C 0 km/h
Sensor: Nr:Datum:Temp:Abs-Feuchte:Windchill:Wind:
Aussen-T/F 2626 24-07-2010 21:24:01 19.7 C 4.58 g/m*3 19.7 C 0 km/h
2627 24-07-2010 21:36:02 19 C 4.73 g/m*3 19 C 0 km/h
2628 24-07-2010 21:48:01 18.6 C 4.93 g/m*3 18.6 C 0 km/h
2629 24-07-2010 22:00:01 18.1 C 5.1 g/m*3 18.1 C 0 km/h
2630 24-07-2010 22:12:02 17.6 C 5.25 g/m*3 17.6 C 0 km/h
2631 24-07-2010 22:24:01 17.5 C 5.07 g/m*3 17.5 C 0 km/h
2632 24-07-2010 22:36:02 17.2 C 5.13 g/m*3 17.2 C 0 km/h
2633 24-07-2010 22:49:02 17.1 C 5.39 g/m*3 17.1 C 0 km/h
2634 24-07-2010 23:01:02 16.7 C 5.83 g/m*3 16.7 C 0 km/h
2635 24-07-2010 23:13:02 16.3 C 5.83 g/m*3 16.3 C 0 km/h
2636 24-07-2010 23:25:02 15.9 C 6.23 g/m*3 15.9 C 0 km/h
2637 24-07-2010 23:37:02 15.5 C 6.34 g/m*3 15.5 C 0 km/h
2638 24-07-2010 23:49:02 15.2 C 6.23 g/m*3 15.2 C 0 km/h
2639 25-07-2010 00:01:02 15 C 6.41 g/m*3 15 C 0 km/h
2640 25-07-2010 00:13:02 14.8 C 6.71 g/m*3 14.8 C 0 km/h
2641 25-07-2010 00:25:02 14.6 C 6.76 g/m*3 14.6 C 0 km/h
2642 25-07-2010 00:37:02 14.2 C 6.47 g/m*3 14.2 C 0 km/h
2643 25-07-2010 00:49:02 14.1 C 6.55 g/m*3 14.1 C 0 km/h
2644 25-07-2010 01:01:02 13.8 C 6.79 g/m*3 13.8 C 0 km/h
2645 25-07-2010 01:13:03 13.7 C 6.87 g/m*3 13.7 C 0 km/h
2646 25-07-2010 01:25:03 13.5 C 6.78 g/m*3 13.5 C 0 km/h
2647 25-07-2010 01:37:03 13.3 C 6.82 g/m*3 13.3 C 0 km/h
2648 25-07-2010 01:49:03 13.2 C 6.77 g/m*3 13.2 C 0 km/h
2649 25-07-2010 02:01:03 13.1 C 6.96 g/m*3 13.1 C 0 km/h
2650 25-07-2010 02:13:03 12.9 C 6.99 g/m*3 12.9 C 0 km/h
Sensor: Nr:Datum:Temp:Abs-Feuchte:Windchill:Wind:
Aussen-T/F 2651 25-07-2010 02:25:03 12.7 C 7.01 g/m*3 12.7 C 0 km/h
2652 25-07-2010 02:37:03 12.5 C 6.93 g/m*3 12.5 C 0 km/h
2653 25-07-2010 02:49:03 12.3 C 6.95 g/m*3 12.3 C 0 km/h
2654 25-07-2010 03:01:03 12.2 C 7.01 g/m*3 12.2 C 0 km/h
2655 25-07-2010 03:13:03 12 C 7.14 g/m*3 12 C 0 km/h
2656 25-07-2010 03:25:03 11.8 C 7.05 g/m*3 11.8 C 0 km/h
2657 25-07-2010 03:37:03 11.8 C 7.05 g/m*3 11.8 C 0 km/h
2658 25-07-2010 03:49:03 11.5 C 7.02 g/m*3 11.5 C 0 km/h
2659 25-07-2010 04:01:03 11.3 C 7.14 g/m*3 11.3 C 0 km/h
2660 25-07-2010 04:13:03 11.1 C 7.25 g/m*3 11.1 C 0 km/h
2661 25-07-2010 04:25:03 11 C 7.31 g/m*3 11 C 0 km/h
2662 25-07-2010 04:37:03 10.8 C 7.41 g/m*3 10.8 C 0 km/h
2663 25-07-2010 04:49:03 10.6 C 7.42 g/m*3 10.6 C 0 km/h
2664 25-07-2010 05:01:03 10.5 C 7.47 g/m*3 10.5 C 0 km/h
2665 25-07-2010 05:13:03 10.3 C 7.37 g/m*3 10.3 C 0 km/h
2666 25-07-2010 05:25:03 10.1 C 7.38 g/m*3 10.1 C 0 km/h
2667 25-07-2010 05:37:04 10 C 7.33 g/m*3 10 C 0 km/h
2668 25-07-2010 05:49:04 9.9 C 7.38 g/m*3 9.9 C 0 km/h
2669 25-07-2010 06:01:04 10 C 7.33 g/m*3 10 C 0 km/h
2670 25-07-2010 06:13:04 10 C 7.42 g/m*3 10 C 0 km/h
2671 25-07-2010 06:25:04 10 C 7.42 g/m*3 10 C 0 km/h
2672 25-07-2010 06:37:04 10 C 7.42 g/m*3 10 C 0 km/h
2673 25-07-2010 06:49:04 10.2 C 7.42 g/m*3 10.2 C 0 km/h
2674 25-07-2010 07:01:04 10.3 C 7.47 g/m*3 10.3 C 0 km/h
2675 25-07-2010 07:13:04 10.7 C 7.56 g/m*3 10.7 C 0 km/h
Sensor: Nr:Datum:Temp:Abs-Feuchte:Windchill:Wind:
Aussen-T/F 2676 25-07-2010 07:25:04 11 C 7.61 g/m*3 11 C 0 km/h
2677 25-07-2010 07:37:04 11.2 C 7.5 g/m*3 11.2 C 0 km/h
2678 25-07-2010 07:49:04 11.4 C 7.6 g/m*3 11.4 C 0 km/h
2679 25-07-2010 08:01:04 11.5 C 7.75 g/m*3 11.5 C 0 km/h
2680 25-07-2010 08:13:04 11.5 C 7.95 g/m*3 11.5 C 0 km/h
2681 25-07-2010 08:25:04 12 C 7.99 g/m*3 12 C 0 km/h
2682 25-07-2010 08:37:04 12.5 C 7.92 g/m*3 12.5 C 0 km/h
2683 25-07-2010 08:49:04 13.1 C 7.87 g/m*3 13.1 C 0 km/h
2684 25-07-2010 09:01:04 13.8 C 7.86 g/m*3 13.8 C 0 km/h
2685 25-07-2010 09:13:04 14.3 C 7.49 g/m*3 14.3 C 0 km/h
2686 25-07-2010 09:25:04 14.8 C 7.6 g/m*3 14.8 C 0 km/h
2687 25-07-2010 09:37:04 15.6 C 7.58 g/m*3 15.6 C 0 km/h
2688 25-07-2010 09:49:02 16.2 C 7.45 g/m*3 16.2 C 0 km/h
2689 25-07-2010 10:01:02 16.6 C 7.2 g/m*3 16.6 C 0 km/h
2690 25-07-2010 10:13:02 17.5 C 7.01 g/m*3 17.5 C 0 km/h
2691 25-07-2010 10:25:02 17.8 C 6.68 g/m*3 17.8 C 0 km/h
2692 25-07-2010 10:37:02 18.4 C 6.45 g/m*3 18.4 C 0 km/h
2693 25-07-2010 10:49:02 18.7 C 6.4 g/m*3 18.7 C 0 km/h
2694 25-07-2010 11:01:02 19.3 C 6.3 g/m*3 19.3 C 0 km/h
2695 25-07-2010 11:13:02 20.9 C 6.37 g/m*3 20.9 C 0 km/h
2696 25-07-2010 11:25:03 21.2 C 5.93 g/m*3 21.2 C 0 km/h
2697 25-07-2010 11:37:02 21.2 C 5.93 g/m*3 21.2 C 0 km/h
2698 25-07-2010 11:49:03 21.7 C 6.1 g/m*3 21.7 C 0 km/h
2699 25-07-2010 12:01:02 21.5 C 6.03 g/m*3 21.5 C 0 km/h
2700 25-07-2010 12:13:03 22.3 C 6.12 g/m*3 22.3 C 0 km/h
Sensor: Nr:Datum:Temp:Abs-Feuchte:Windchill:Wind:
Aussen-T/F 2701 25-07-2010 12:25:02 23.2 C 5.82 g/m*3 23.2 C 0 km/h
2702 25-07-2010 12:37:02 24.2 C 5.72 g/m*3 24.2 C 0 km/h
2703 25-07-2010 12:49:02 23.5 C 5.71 g/m*3 23.5 C 0 km/h
2704 25-07-2010 13:01:02 23.5 C 6.13 g/m*3 23.5 C 0 km/h
2705 25-07-2010 13:13:02 23.3 C 6.06 g/m*3 23.3 C 0 km/h
2706 25-07-2010 13:25:03 23.2 C 6.24 g/m*3 23.2 C 0 km/h
2707 25-07-2010 13:37:02 23.5 C 6.34 g/m*3 23.5 C 0 km/h
2708 25-07-2010 13:49:03 23.4 C 6.31 g/m*3 23.4 C 0 km/h
2709 25-07-2010 14:01:02 23.2 C 6.44 g/m*3 23.2 C 0 km/h
2710 25-07-2010 14:13:02 22.6 C 7.43 g/m*3 22.6 C 0 km/h
2711 25-07-2010 14:25:02 21.5 C 6.79 g/m*3 21.5 C 0 km/h
2712 25-07-2010 14:37:02 21.6 C 7.21 g/m*3 21.6 C 0 km/h
2713 25-07-2010 14:49:02 22.1 C 6.83 g/m*3 22.1 C 0 km/h
2714 25-07-2010 15:01:02 22.2 C 6.87 g/m*3 22.2 C 0 km/h
2715 25-07-2010 15:13:02 22.2 C 6.68 g/m*3 22.2 C 0 km/h
2716 25-07-2010 15:25:02 21.6 C 6.83 g/m*3 21.6 C 0 km/h
2717 25-07-2010 15:37:01 21 C 7.14 g/m*3 21 C 0 km/h
2718 25-07-2010 15:49:02 20.9 C 7.47 g/m*3 20.9 C 0 km/h
2719 25-07-2010 16:01:01 21.6 C 7.21 g/m*3 21.6 C 0 km/h
2720 25-07-2010 16:13:01 21.9 C 7.14 g/m*3 21.9 C 0 km/h
2721 25-07-2010 16:25:02 22.1 C 6.83 g/m*3 22.1 C 0 km/h
2722 25-07-2010 16:37:02 22.1 C 7.03 g/m*3 22.1 C 0 km/h
2723 25-07-2010 16:49:02 22.2 C 7.46 g/m*3 22.2 C 0 km/h
2724 25-07-2010 17:01:03 23.5 C 6.77 g/m*3 23.5 C 0 km/h
2725 25-07-2010 17:13:03 23.7 C 6.63 g/m*3 23.7 C 0 km/h
Sensor: Nr:Datum:Temp:Abs-Feuchte:Windchill:Wind:
Aussen-T/F 2726 25-07-2010 17:25:02 23.3 C 6.69 g/m*3 23.3 C 0 km/h
2727 25-07-2010 17:37:02 23.4 C 6.31 g/m*3 23.4 C 0 km/h
2728 25-07-2010 17:49:01 23.1 C 6.61 g/m*3 23.1 C 0 km/h
2729 25-07-2010 18:01:02 22.8 C 7.32 g/m*3 22.8 C 0 km/h
2730 25-07-2010 18:13:02 22.5 C 7.39 g/m*3 22.5 C 0 km/h
2731 25-07-2010 18:25:01 22.4 C 7.35 g/m*3 22.4 C 0 km/h
2732 25-07-2010 18:37:01 22 C 7.57 g/m*3 22 C 0 km/h
2733 25-07-2010 18:49:01 21.6 C 7.97 g/m*3 21.6 C 0 km/h
2734 25-07-2010 19:01:02 21.3 C 8.2 g/m*3 21.3 C 0 km/h
2735 25-07-2010 19:13:02 20.9 C 8.2 g/m*3 20.9 C 0 km/h
2736 25-07-2010 19:25:02 20.6 C 8.59 g/m*3 20.6 C 0 km/h
2737 25-07-2010 19:37:01 20.6 C 7.34 g/m*3 20.6 C 0 km/h
2738 25-07-2010 19:49:01 20.6 C 7.16 g/m*3 20.6 C 0 km/h
2739 25-07-2010 20:01:01 20.6 C 7.34 g/m*3 20.6 C 0 km/h
2740 25-07-2010 20:13:01 20.5 C 7.3 g/m*3 20.5 C 0 km/h
2741 25-07-2010 20:25:02 20.4 C 7.43 g/m*3 20.4 C 0 km/h
2742 25-07-2010 20:37:01 19.9 C 8.08 g/m*3 19.9 C 0 km/h
2743 25-07-2010 20:49:02 19.4 C 8.84 g/m*3 19.4 C 0 km/h
2744 25-07-2010 21:01:01 19.1 C 9.18 g/m*3 19.1 C 0 km/h
2745 25-07-2010 21:13:01 19.2 C 9.23 g/m*3 19.2 C 0 km/h
2746 25-07-2010 21:25:02 19.1 C 9.51 g/m*3 19.1 C 0 km/h
2747 25-07-2010 21:37:01 19.1 C 9.51 g/m*3 19.1 C 0 km/h
2748 25-07-2010 21:49:01 18.9 C 9.72 g/m*3 18.9 C 0 km/h
2749 25-07-2010 22:01:01 18.8 C 9.82 g/m*3 18.8 C 0 km/h
2750 25-07-2010 22:13:01 18.5 C 9.97 g/m*3 18.5 C 0 km/h
Sensor: Nr:Datum:Temp:Abs-Feuchte:Windchill:Wind:
Aussen-T/F 2751 25-07-2010 22:26:02 18.3 C 10.16 g/m*3 18.3 C 0 km/h
2752 25-07-2010 22:38:02 18.2 C 10.41 g/m*3 18.2 C 0 km/h
2753 25-07-2010 22:50:02 18.1 C 10.51 g/m*3 18.1 C 0 km/h
2754 25-07-2010 23:02:03 17.9 C 10.54 g/m*3 17.9 C 0 km/h
2755 25-07-2010 23:14:03 18 C 10.29 g/m*3 18 C 0 km/h
2756 25-07-2010 23:26:03 17.9 C 10.23 g/m*3 17.9 C 0 km/h
2757 25-07-2010 23:38:03 17.8 C 10.17 g/m*3 17.8 C 0 km/h
2758 25-07-2010 23:50:03 17.8 C 10.17 g/m*3 17.8 C 0 km/h
2759 26-07-2010 00:02:03 17.6 C 9.9 g/m*3 17.6 C 0 km/h
2760 26-07-2010 00:14:03 17.6 C 9.9 g/m*3 17.6 C 0 km/h
2761 26-07-2010 00:26:03 17.6 C 9.9 g/m*3 17.6 C 0 km/h
2762 26-07-2010 00:38:03 17.6 C 10.05 g/m*3 17.6 C 0 km/h
2763 26-07-2010 00:50:03 17.4 C 9.93 g/m*3 17.4 C 0 km/h
2764 26-07-2010 01:02:03 17.3 C 9.87 g/m*3 17.3 C 0 km/h
2765 26-07-2010 01:14:03 17.2 C 9.96 g/m*3 17.2 C 0 km/h
2766 26-07-2010 01:26:03 17.2 C 9.96 g/m*3 17.2 C 0 km/h
2767 26-07-2010 01:38:03 17.3 C 10.02 g/m*3 17.3 C 0 km/h
2768 26-07-2010 01:50:03 17.3 C 10.16 g/m*3 17.3 C 0 km/h
2769 26-07-2010 02:02:03 17 C 9.98 g/m*3 17 C 0 km/h
2770 26-07-2010 02:14:03 16.9 C 10.07 g/m*3 16.9 C 0 km/h
2771 26-07-2010 02:26:03 16.8 C 10.01 g/m*3 16.8 C 0 km/h
2772 26-07-2010 02:38:03 16.8 C 10.15 g/m*3 16.8 C 0 km/h
2773 26-07-2010 02:50:03 16.5 C 9.97 g/m*3 16.5 C 0 km/h
2774 26-07-2010 03:02:03 16.4 C 10.05 g/m*3 16.4 C 0 km/h
2775 26-07-2010 03:14:03 16.4 C 10.19 g/m*3 16.4 C 0 km/h
Sensor: Nr:Datum:Temp:Abs-Feuchte:Windchill:Wind:
Aussen-T/F 2776 26-07-2010 03:26:03 16.4 C 10.33 g/m*3 16.4 C 0 km/h
2777 26-07-2010 03:38:04 16.4 C 10.33 g/m*3 16.4 C 0 km/h
2778 26-07-2010 03:50:04 16.5 C 10.11 g/m*3 16.5 C 0 km/h
2779 26-07-2010 04:02:04 16.6 C 10.17 g/m*3 16.6 C 0 km/h
2780 26-07-2010 04:14:04 16.4 C 10.47 g/m*3 16.4 C 0 km/h
2781 26-07-2010 04:26:04 16.4 C 10.61 g/m*3 16.4 C 0 km/h
2782 26-07-2010 04:38:04 16.1 C 10.69 g/m*3 16.1 C 0 km/h
2783 26-07-2010 04:50:04 15.7 C 10.97 g/m*3 15.7 C 0 km/h
2784 26-07-2010 05:02:04 15.6 C 11.04 g/m*3 15.6 C 0 km/h
2785 26-07-2010 05:14:04 15.6 C 11.3 g/m*3 15.6 C 0 km/h
2786 26-07-2010 05:26:04 15.5 C 11.37 g/m*3 15.5 C 0 km/h
2787 26-07-2010 05:38:04 15.6 C 11.44 g/m*3 15.6 C 0 km/h
2788 26-07-2010 05:50:04 15.3 C 11.23 g/m*3 15.3 C 0 km/h
2789 26-07-2010 06:02:04 15.4 C 11.3 g/m*3 15.4 C 0 km/h
2790 26-07-2010 06:14:04 15.4 C 11.43 g/m*3 15.4 C 0 km/h
2791 26-07-2010 06:26:04 15.4 C 11.43 g/m*3 15.4 C 0 km/h
2792 26-07-2010 06:38:04 15.4 C 11.56 g/m*3 15.4 C 0 km/h
2793 26-07-2010 06:50:04 15.4 C 11.56 g/m*3 15.4 C 0 km/h
2794 26-07-2010 07:02:02 15.7 C 11.91 g/m*3 15.7 C 0 km/h
2795 26-07-2010 07:14:02 16 C 11.99 g/m*3 16 C 0 km/h
2796 26-07-2010 07:26:03 16 C 11.99 g/m*3 16 C 0 km/h
2797 26-07-2010 07:38:02 16.1 C 11.93 g/m*3 16.1 C 0 km/h
2798 26-07-2010 07:50:02 16.3 C 11.93 g/m*3 16.3 C 0 km/h
2799 26-07-2010 08:02:02 16.5 C 11.94 g/m*3 16.5 C 0 km/h
2800 26-07-2010 08:14:02 16.6 C 11.87 g/m*3 16.6 C 0 km/h
Sensor: Nr:Datum:Temp:Abs-Feuchte:Windchill:Wind:
Aussen-T/F 2801 26-07-2010 08:26:02 16.9 C 11.94 g/m*3 16.9 C 0 km/h
2802 26-07-2010 08:38:02 17.5 C 12.08 g/m*3 17.5 C 0 km/h
2803 26-07-2010 08:50:01 17.4 C 11.71 g/m*3 17.4 C 0 km/h
2804 26-07-2010 09:02:02 17.8 C 11.84 g/m*3 17.8 C 0 km/h
2805 26-07-2010 09:14:02 18.2 C 11.81 g/m*3 18.2 C 0 km/h
2806 26-07-2010 09:26:01 18.3 C 11.57 g/m*3 18.3 C 0 km/h
2807 26-07-2010 09:38:01 18.8 C 11.92 g/m*3 18.8 C 0 km/h
2808 26-07-2010 09:50:02 18.8 C 11.43 g/m*3 18.8 C 0 km/h
2809 26-07-2010 10:02:02 18.7 C 11.37 g/m*3 18.7 C 0 km/h
2810 26-07-2010 10:14:02 19.1 C 10.98 g/m*3 19.1 C 0 km/h
2811 26-07-2010 10:26:02 20.2 C 11.02 g/m*3 20.2 C 0 km/h
2812 26-07-2010 10:38:02 21.1 C 10.32 g/m*3 21.1 C 0 km/h
2813 26-07-2010 10:50:02 22.1 C 9.76 g/m*3 22.1 C 0 km/h
2814 26-07-2010 11:02:01 21.8 C 9.78 g/m*3 21.8 C 0 km/h
2815 26-07-2010 11:14:01 22.6 C 10.04 g/m*3 22.6 C 0 km/h
2816 26-07-2010 11:26:02 22.5 C 9.59 g/m*3 22.5 C 0 km/h
2817 26-07-2010 11:38:02 19.4 C 10.68 g/m*3 19.4 C 0 km/h
2818 26-07-2010 11:50:02 18.4 C 12.11 g/m*3 18.4 C 0 km/h
2819 26-07-2010 12:02:02 19.1 C 13.11 g/m*3 19.1 C 0 km/h
2820 26-07-2010 12:14:02 19.5 C 12.59 g/m*3 19.5 C 0 km/h
2821 26-07-2010 12:26:02 19.5 C 12.25 g/m*3 19.5 C 0 km/h
2822 26-07-2010 12:38:02 18.5 C 12.18 g/m*3 18.5 C 0 km/h
2823 26-07-2010 12:50:01 18.6 C 12.57 g/m*3 18.6 C 0 km/h
2824 26-07-2010 13:02:01 19 C 13.04 g/m*3 19 C 0 km/h
2825 26-07-2010 13:14:01 18.5 C 12.34 g/m*3 18.5 C 0 km/h
Sensor: Nr:Datum:Temp:Abs-Feuchte:Windchill:Wind:
Aussen-T/F 2826 26-07-2010 13:26:01 18 C 12.44 g/m*3 18 C 0 km/h
2827 26-07-2010 13:38:01 17.8 C 12.9 g/m*3 17.8 C 0 km/h
2828 26-07-2010 13:50:01 17.5 C 12.82 g/m*3 17.5 C 0 km/h
2829 26-07-2010 14:02:01 17.5 C 12.97 g/m*3 17.5 C 0 km/h
2830 26-07-2010 14:14:01 17.7 C 13.43 g/m*3 17.7 C 0 km/h
2831 26-07-2010 14:26:02 17.3 C 13.11 g/m*3 17.3 C 0 km/h
2832 26-07-2010 14:38:01 17.1 C 13.1 g/m*3 17.1 C 0 km/h
2833 26-07-2010 14:50:02 17.2 C 13.18 g/m*3 17.2 C 0 km/h
2834 26-07-2010 15:02:02 17.4 C 13.49 g/m*3 17.4 C 0 km/h
2835 26-07-2010 15:14:02 17.3 C 13.41 g/m*3 17.3 C 0 km/h
2836 26-07-2010 15:26:02 17.6 C 13.65 g/m*3 17.6 C 0 km/h
2837 26-07-2010 15:38:03 18.2 C 13.83 g/m*3 18.2 C 0 km/h
2838 26-07-2010 15:50:02 19.1 C 14.1 g/m*3 19.1 C 0 km/h
2839 26-07-2010 16:02:02 19.1 C 13.77 g/m*3 19.1 C 0 km/h
2840 26-07-2010 16:14:02 19.5 C 13.26 g/m*3 19.5 C 0 km/h
2841 26-07-2010 16:26:02 19.1 C 12.79 g/m*3 19.1 C 0 km/h
2842 26-07-2010 16:38:02 19.5 C 13.43 g/m*3 19.5 C 0 km/h
2843 26-07-2010 16:50:02 21.2 C 13.71 g/m*3 21.2 C 0 km/h
2844 26-07-2010 17:02:02 21 C 12.64 g/m*3 21 C 0 km/h
2845 26-07-2010 17:14:02 19.5 C 10.74 g/m*3 19.5 C 0 km/h
2846 26-07-2010 17:26:02 18.7 C 10.73 g/m*3 18.7 C 0 km/h
2847 26-07-2010 17:38:02 18.1 C 11.28 g/m*3 18.1 C 0 km/h
2848 26-07-2010 17:50:02 18.1 C 11.28 g/m*3 18.1 C 0 km/h
2849 26-07-2010 18:02:02 18.2 C 11.19 g/m*3 18.2 C 0 km/h
2850 26-07-2010 18:14:02 17.3 C 11.05 g/m*3 17.3 C 0 km/h
Sensor: Nr:Datum:Temp:Abs-Feuchte:Windchill:Wind:
Aussen-T/F 2851 26-07-2010 18:26:03 16.8 C 11.29 g/m*3 16.8 C 0 km/h
2852 26-07-2010 18:38:02 16.8 C 11.44 g/m*3 16.8 C 0 km/h
2853 26-07-2010 18:50:03 16.7 C 11.65 g/m*3 16.7 C 0 km/h
2854 26-07-2010 19:02:02 16.8 C 11.72 g/m*3 16.8 C 0 km/h
2855 26-07-2010 19:14:02 17.1 C 11.79 g/m*3 17.1 C 0 km/h
2856 26-07-2010 19:26:02 17.1 C 11.65 g/m*3 17.1 C 0 km/h
2857 26-07-2010 19:38:02 16.8 C 11.58 g/m*3 16.8 C 0 km/h
2858 26-07-2010 19:50:02 16.8 C 11.29 g/m*3 16.8 C 0 km/h
2859 26-07-2010 20:02:01 16.7 C 10.94 g/m*3 16.7 C 0 km/h
2860 26-07-2010 20:14:01 16.4 C 11.03 g/m*3 16.4 C 0 km/h
2861 26-07-2010 20:26:02 16.2 C 11.17 g/m*3 16.2 C 0 km/h
2862 26-07-2010 20:38:02 15.9 C 11.24 g/m*3 15.9 C 0 km/h
2863 26-07-2010 20:50:01 15.6 C 11.17 g/m*3 15.6 C 0 km/h
2864 26-07-2010 21:02:02 15.4 C 11.04 g/m*3 15.4 C 0 km/h
2865 26-07-2010 21:14:02 15.4 C 11.3 g/m*3 15.4 C 0 km/h
2866 26-07-2010 21:26:01 15.3 C 11.36 g/m*3 15.3 C 0 km/h
2867 26-07-2010 21:38:01 15.2 C 11.29 g/m*3 15.2 C 0 km/h
2868 26-07-2010 21:50:01 15.2 C 11.42 g/m*3 15.2 C 0 km/h
2869 26-07-2010 22:02:02 15.3 C 11.36 g/m*3 15.3 C 0 km/h
2870 26-07-2010 22:14:02 15.3 C 10.97 g/m*3 15.3 C 0 km/h
2871 26-07-2010 22:27:04 15.2 C 10.77 g/m*3 15.2 C 0 km/h
2872 26-07-2010 22:39:04 15.2 C 10.64 g/m*3 15.2 C 0 km/h
2873 26-07-2010 22:51:04 15.1 C 10.58 g/m*3 15.1 C 0 km/h
2874 26-07-2010 23:03:04 15.1 C 10.58 g/m*3 15.1 C 0 km/h
2875 26-07-2010 23:15:04 15.1 C 10.71 g/m*3 15.1 C 0 km/h
Sensor: Nr:Datum:Temp:Abs-Feuchte:Windchill:Wind:
Aussen-T/F 2876 26-07-2010 23:27:04 15.3 C 10.84 g/m*3 15.3 C 0 km/h
2877 26-07-2010 23:39:04 15.4 C 11.04 g/m*3 15.4 C 0 km/h
2878 26-07-2010 23:51:04 15.4 C 11.04 g/m*3 15.4 C 0 km/h
2879 27-07-2010 00:03:04 15.4 C 11.04 g/m*3 15.4 C 0 km/h
2880 27-07-2010 00:15:04 15.4 C 11.04 g/m*3 15.4 C 0 km/h
2881 27-07-2010 00:27:04 15.3 C 11.1 g/m*3 15.3 C 0 km/h
2882 27-07-2010 00:39:05 15.4 C 11.3 g/m*3 15.4 C 0 km/h
2883 27-07-2010 00:51:05 15.2 C 11.16 g/m*3 15.2 C 0 km/h
2884 27-07-2010 01:03:05 15.3 C 11.23 g/m*3 15.3 C 0 km/h
2885 27-07-2010 01:15:05 15.3 C 11.23 g/m*3 15.3 C 0 km/h
2886 27-07-2010 01:27:05 15.6 C 11.3 g/m*3 15.6 C 0 km/h
2887 27-07-2010 01:39:05 15.6 C 11.17 g/m*3 15.6 C 0 km/h
2888 27-07-2010 01:51:05 15.6 C 11.04 g/m*3 15.6 C 0 km/h
2889 27-07-2010 02:03:05 15.6 C 11.04 g/m*3 15.6 C 0 km/h
2890 27-07-2010 02:15:05 15.6 C 11.04 g/m*3 15.6 C 0 km/h
2891 27-07-2010 02:27:05 15.6 C 11.04 g/m*3 15.6 C 0 km/h
2892 27-07-2010 02:39:05 15.6 C 11.04 g/m*3 15.6 C 0 km/h
2893 27-07-2010 02:51:05 15.6 C 11.04 g/m*3 15.6 C 0 km/h
2894 27-07-2010 03:03:05 15.6 C 11.04 g/m*3 15.6 C 0 km/h
2895 27-07-2010 03:15:05 15.5 C 10.97 g/m*3 15.5 C 0 km/h
2896 27-07-2010 03:27:05 15.4 C 10.9 g/m*3 15.4 C 0 km/h
2897 27-07-2010 03:39:05 15.3 C 10.84 g/m*3 15.3 C 0 km/h
2898 27-07-2010 03:51:05 15.3 C 11.1 g/m*3 15.3 C 0 km/h
2899 27-07-2010 04:03:05 15.4 C 11.04 g/m*3 15.4 C 0 km/h
2900 27-07-2010 04:15:05 15.3 C 10.84 g/m*3 15.3 C 0 km/h
Sensor: Nr:Datum:Temp:Abs-Feuchte:Windchill:Wind:
Aussen-T/F 2901 27-07-2010 04:27:05 15.4 C 10.9 g/m*3 15.4 C 0 km/h
2902 27-07-2010 04:39:06 15.2 C 10.77 g/m*3 15.2 C 0 km/h
2903 27-07-2010 04:51:06 15 C 10.64 g/m*3 15 C 0 km/h
2904 27-07-2010 05:03:06 15.2 C 10.9 g/m*3 15.2 C 0 km/h
2905 27-07-2010 05:15:06 15.2 C 10.9 g/m*3 15.2 C 0 km/h
2906 27-07-2010 05:27:06 15.2 C 10.9 g/m*3 15.2 C 0 km/h
2907 27-07-2010 05:39:06 15 C 10.77 g/m*3 15 C 0 km/h
2908 27-07-2010 05:51:06 15.1 C 10.71 g/m*3 15.1 C 0 km/h
2909 27-07-2010 06:03:06 15.2 C 10.77 g/m*3 15.2 C 0 km/h
2910 27-07-2010 06:15:06 15.3 C 10.84 g/m*3 15.3 C 0 km/h
2911 27-07-2010 06:27:06 15.3 C 10.84 g/m*3 15.3 C 0 km/h
2912 27-07-2010 06:39:06 15.3 C 10.71 g/m*3 15.3 C 0 km/h
2913 27-07-2010 06:51:02 15.3 C 10.71 g/m*3 15.3 C 0 km/h
2914 27-07-2010 07:03:01 15.4 C 10.64 g/m*3 15.4 C 0 km/h
2915 27-07-2010 07:15:01 15.6 C 10.77 g/m*3 15.6 C 0 km/h
2916 27-07-2010 07:27:01 15.6 C 10.51 g/m*3 15.6 C 0 km/h
2917 27-07-2010 07:39:02 15.8 C 10.63 g/m*3 15.8 C 0 km/h
2918 27-07-2010 07:51:02 16 C 10.63 g/m*3 16 C 0 km/h
2919 27-07-2010 08:03:02 16.1 C 10.55 g/m*3 16.1 C 0 km/h
2920 27-07-2010 08:15:02 16.1 C 10.55 g/m*3 16.1 C 0 km/h
2921 27-07-2010 08:27:02 16.4 C 10.75 g/m*3 16.4 C 0 km/h
2922 27-07-2010 08:39:02 16.3 C 10.54 g/m*3 16.3 C 0 km/h
2923 27-07-2010 08:51:02 16.2 C 10.62 g/m*3 16.2 C 0 km/h
2924 27-07-2010 09:03:02 16.5 C 10.67 g/m*3 16.5 C 0 km/h
2925 27-07-2010 09:15:03 16.6 C 10.59 g/m*3 16.6 C 0 km/h
Sensor: Nr:Datum:Temp:Abs-Feuchte:Windchill:Wind:
Aussen-T/F 2926 27-07-2010 09:27:03 16.6 C 10.45 g/m*3 16.6 C 0 km/h
2927 27-07-2010 09:39:02 17.3 C 10.61 g/m*3 17.3 C 0 km/h
2928 27-07-2010 09:51:01 17.4 C 10.37 g/m*3 17.4 C 0 km/h
2929 27-07-2010 10:03:01 18 C 10.29 g/m*3 18 C 0 km/h
2930 27-07-2010 10:15:02 17.9 C 10.23 g/m*3 17.9 C 0 km/h
2931 27-07-2010 10:27:02 18.5 C 10.28 g/m*3 18.5 C 0 km/h
2932 27-07-2010 10:39:01 19.2 C 9.89 g/m*3 19.2 C 0 km/h
2933 27-07-2010 10:51:01 19 C 9.61 g/m*3 19 C 0 km/h
2934 27-07-2010 11:03:01 19.2 C 9.73 g/m*3 19.2 C 0 km/h
2935 27-07-2010 11:15:02 19.8 C 9.74 g/m*3 19.8 C 0 km/h
2936 27-07-2010 11:27:02 20.4 C 9.73 g/m*3 20.4 C 0 km/h
2937 27-07-2010 11:39:01 20.5 C 9.25 g/m*3 20.5 C 0 km/h
2938 27-07-2010 11:51:02 21 C 9.34 g/m*3 21 C 0 km/h
2939 27-07-2010 12:03:02 21.8 C 9.4 g/m*3 21.8 C 0 km/h
2940 27-07-2010 12:15:02 22.5 C 8.99 g/m*3 22.5 C 0 km/h
2941 27-07-2010 12:27:02 21.8 C 8.83 g/m*3 21.8 C 0 km/h
2942 27-07-2010 12:39:02 21.6 C 9.29 g/m*3 21.6 C 0 km/h
2943 27-07-2010 12:51:02 22.7 C 8.89 g/m*3 22.7 C 0 km/h
2944 27-07-2010 13:03:02 23.5 C 8.46 g/m*3 23.5 C 0 km/h
2945 27-07-2010 13:15:01 22.7 C 7.88 g/m*3 22.7 C 0 km/h
2946 27-07-2010 13:27:01 23.1 C 8.27 g/m*3 23.1 C 0 km/h
2947 27-07-2010 13:39:02 25.5 C 7.1 g/m*3 25.5 C 0 km/h
2948 27-07-2010 13:51:02 25 C 7.6 g/m*3 25 C 0 km/h
2949 27-07-2010 14:03:02 23.8 C 7.53 g/m*3 23.8 C 0 km/h
2950 27-07-2010 14:15:01 24.4 C 7.79 g/m*3 24.4 C 0 km/h
Sensor: Nr:Datum:Temp:Abs-Feuchte:Windchill:Wind:
Aussen-T/F 2951 27-07-2010 14:27:01 25.2 C 7.68 g/m*3 25.2 C 0 km/h
2952 27-07-2010 14:39:02 24.4 C 7.57 g/m*3 24.4 C 0 km/h
2953 27-07-2010 14:51:01 24.3 C 7.75 g/m*3 24.3 C 0 km/h
2954 27-07-2010 15:03:02 24.3 C 7.75 g/m*3 24.3 C 0 km/h
2955 27-07-2010 15:15:02 25.6 C 7.86 g/m*3 25.6 C 0 km/h
2956 27-07-2010 15:27:02 25.4 C 7.53 g/m*3 25.4 C 0 km/h
2957 27-07-2010 15:39:01 25.7 C 7.42 g/m*3 25.7 C 0 km/h
2958 27-07-2010 15:51:02 25.9 C 7.26 g/m*3 25.9 C 0 km/h
2959 27-07-2010 16:03:01 26.6 C 7.05 g/m*3 26.6 C 0 km/h
2960 27-07-2010 16:15:02 28.5 C 7.27 g/m*3 28.5 C 0 km/h
2961 27-07-2010 16:27:03 28.2 C 6.87 g/m*3 28.2 C 0 km/h
2962 27-07-2010 16:39:01 28 C 6.8 g/m*3 28 C 0 km/h
2963 27-07-2010 16:51:02 28.2 C 6.05 g/m*3 28.2 C 0 km/h
2964 27-07-2010 17:03:02 28.7 C 5.93 g/m*3 28.7 C 0 km/h
2965 27-07-2010 17:15:02 29.4 C 6.16 g/m*3 29.4 C 0 km/h
2966 27-07-2010 17:27:02 28 C 5.71 g/m*3 28 C 0 km/h
2967 27-07-2010 17:39:03 28.2 C 5.77 g/m*3 28.2 C 0 km/h
2968 27-07-2010 17:51:02 27.3 C 7.33 g/m*3 27.3 C 0 km/h
2969 27-07-2010 18:03:02 26.1 C 6.37 g/m*3 26.1 C 0 km/h
2970 27-07-2010 18:15:01 25.8 C 7.46 g/m*3 25.8 C 0 km/h
2971 27-07-2010 18:27:01 24.8 C 8.19 g/m*3 24.8 C 0 km/h
2972 27-07-2010 18:39:02 24.3 C 7.97 g/m*3 24.3 C 0 km/h
2973 27-07-2010 18:51:02 24.3 C 8.19 g/m*3 24.3 C 0 km/h
2974 27-07-2010 19:03:02 24.2 C 8.58 g/m*3 24.2 C 0 km/h
2975 27-07-2010 19:15:01 23.6 C 8.72 g/m*3 23.6 C 0 km/h
Sensor: Nr:Datum:Temp:Abs-Feuchte:Windchill:Wind:
Aussen-T/F 2976 27-07-2010 19:27:01 23.3 C 8.78 g/m*3 23.3 C 0 km/h
2977 27-07-2010 19:39:02 23 C 8.63 g/m*3 23 C 0 km/h
2978 27-07-2010 19:51:01 23 C 8.43 g/m*3 23 C 0 km/h
2979 27-07-2010 20:03:02 22.9 C 8.38 g/m*3 22.9 C 0 km/h
2980 27-07-2010 20:15:02 22.2 C 8.25 g/m*3 22.2 C 0 km/h
2981 27-07-2010 20:27:02 21.7 C 8.2 g/m*3 21.7 C 0 km/h
2982 27-07-2010 20:39:01 21.7 C 8.58 g/m*3 21.7 C 0 km/h
2983 27-07-2010 20:51:02 21.5 C 8.49 g/m*3 21.5 C 0 km/h
2984 27-07-2010 21:03:01 21.2 C 8.52 g/m*3 21.2 C 0 km/h
2985 27-07-2010 21:15:02 21 C 8.79 g/m*3 21 C 0 km/h
2986 27-07-2010 21:27:03 20.4 C 8.49 g/m*3 20.4 C 0 km/h
2987 27-07-2010 21:39:01 20 C 8.47 g/m*3 20 C 0 km/h
2988 27-07-2010 21:51:03 19.7 C 9.17 g/m*3 19.7 C 0 km/h
2989 27-07-2010 22:04:04 19.7 C 9.34 g/m*3 19.7 C 0 km/h
2990 27-07-2010 22:16:04 19.3 C 9.12 g/m*3 19.3 C 0 km/h
2991 27-07-2010 22:28:04 19 C 8.8 g/m*3 19 C 0 km/h
2992 27-07-2010 22:40:05 18.8 C 9.18 g/m*3 18.8 C 0 km/h
2993 27-07-2010 22:52:05 18.8 C 9.34 g/m*3 18.8 C 0 km/h
2994 27-07-2010 23:04:05 18.6 C 9.39 g/m*3 18.6 C 0 km/h
2995 27-07-2010 23:16:05 18.4 C 9.28 g/m*3 18.4 C 0 km/h
2996 27-07-2010 23:28:05 18.4 C 9.44 g/m*3 18.4 C 0 km/h
2997 27-07-2010 23:40:05 18.4 C 9.12 g/m*3 18.4 C 0 km/h
2998 27-07-2010 23:52:05 18.4 C 9.44 g/m*3 18.4 C 0 km/h
2999 28-07-2010 00:04:05 18.5 C 9.65 g/m*3 18.5 C 0 km/h
3000 28-07-2010 00:16:05 18.5 C 9.81 g/m*3 18.5 C 0 km/h
Sensor: Nr:Datum:Temp:Abs-Feuchte:Windchill:Wind:
Aussen-T/F 3001 28-07-2010 00:28:05 18.3 C 9.85 g/m*3 18.3 C 0 km/h
3002 28-07-2010 00:40:05 18 C 9.83 g/m*3 18 C 0 km/h
3003 28-07-2010 00:52:05 17.7 C 9.81 g/m*3 17.7 C 0 km/h
3004 28-07-2010 01:04:05 17.5 C 9.69 g/m*3 17.5 C 0 km/h
3005 28-07-2010 01:16:05 17.3 C 9.58 g/m*3 17.3 C 0 km/h
3006 28-07-2010 01:28:05 17.2 C 9.81 g/m*3 17.2 C 0 km/h
3007 28-07-2010 01:40:05 17.1 C 10.04 g/m*3 17.1 C 0 km/h
3008 28-07-2010 01:52:05 16.7 C 10.09 g/m*3 16.7 C 0 km/h
3009 28-07-2010 02:04:05 16.9 C 10.21 g/m*3 16.9 C 0 km/h
3010 28-07-2010 02:16:05 17 C 9.98 g/m*3 17 C 0 km/h
3011 28-07-2010 02:28:05 16.9 C 10.36 g/m*3 16.9 C 0 km/h
3012 28-07-2010 02:40:05 17 C 10.27 g/m*3 17 C 0 km/h
3013 28-07-2010 02:52:06 17 C 10.27 g/m*3 17 C 0 km/h
3014 28-07-2010 03:04:06 17 C 10.27 g/m*3 17 C 0 km/h
3015 28-07-2010 03:16:06 17 C 10.13 g/m*3 17 C 0 km/h
3016 28-07-2010 03:28:06 17 C 10.27 g/m*3 17 C 0 km/h
3017 28-07-2010 03:40:06 17.1 C 10.48 g/m*3 17.1 C 0 km/h
3018 28-07-2010 03:52:06 17.1 C 10.48 g/m*3 17.1 C 0 km/h
3019 28-07-2010 04:04:06 17 C 10.42 g/m*3 17 C 0 km/h
3020 28-07-2010 04:16:06 17.1 C 10.48 g/m*3 17.1 C 0 km/h
3021 28-07-2010 04:28:06 17 C 10.42 g/m*3 17 C 0 km/h
3022 28-07-2010 04:40:06 16.9 C 10.5 g/m*3 16.9 C 0 km/h
3023 28-07-2010 04:52:06 16.8 C 10.58 g/m*3 16.8 C 0 km/h
3024 28-07-2010 05:04:06 16.8 C 10.58 g/m*3 16.8 C 0 km/h
3025 28-07-2010 05:16:06 16.8 C 10.58 g/m*3 16.8 C 0 km/h
Sensor: Nr:Datum:Temp:Abs-Feuchte:Windchill:Wind:
Aussen-T/F 3026 28-07-2010 05:28:06 16.8 C 10.58 g/m*3 16.8 C 0 km/h
3027 28-07-2010 05:40:06 16.8 C 10.58 g/m*3 16.8 C 0 km/h
3028 28-07-2010 05:52:06 17 C 10.56 g/m*3 17 C 0 km/h
3029 28-07-2010 06:04:06 17.1 C 10.48 g/m*3 17.1 C 0 km/h
3030 28-07-2010 06:16:06 17.2 C 10.54 g/m*3 17.2 C 0 km/h
3031 28-07-2010 06:28:06 17.2 C 10.54 g/m*3 17.2 C 0 km/h
3032 28-07-2010 06:40:06 16.9 C 11.08 g/m*3 16.9 C 0 km/h
3033 28-07-2010 06:52:07 16.7 C 11.37 g/m*3 16.7 C 0 km/h
3034 28-07-2010 07:04:04 16.4 C 11.58 g/m*3 16.4 C 0 km/h
3035 28-07-2010 07:16:03 16.2 C 11.86 g/m*3 16.2 C 0 km/h
3036 28-07-2010 07:28:03 16.3 C 12.21 g/m*3 16.3 C 0 km/h
3037 28-07-2010 07:40:04 16.3 C 12.35 g/m*3 16.3 C 0 km/h
3038 28-07-2010 07:52:01 16.4 C 12.56 g/m*3 16.4 C 0 km/h
3039 28-07-2010 08:04:02 16.5 C 12.64 g/m*3 16.5 C 0 km/h
3040 28-07-2010 08:16:02 16.6 C 12.71 g/m*3 16.6 C 0 km/h
3041 28-07-2010 08:28:02 17 C 13.02 g/m*3 17 C 0 km/h
3042 28-07-2010 08:40:01 17.6 C 13.5 g/m*3 17.6 C 0 km/h
3043 28-07-2010 08:52:02 17.8 C 13.2 g/m*3 17.8 C 0 km/h
3044 28-07-2010 09:04:01 18.1 C 12.98 g/m*3 18.1 C 0 km/h
3045 28-07-2010 09:16:02 17.9 C 12.83 g/m*3 17.9 C 0 km/h
3046 28-07-2010 09:28:02 17.4 C 12.6 g/m*3 17.4 C 0 km/h
3047 28-07-2010 09:40:01 17.1 C 12.66 g/m*3 17.1 C 0 km/h
3048 28-07-2010 09:52:02 17.3 C 12.82 g/m*3 17.3 C 0 km/h
3049 28-07-2010 10:04:02 17.3 C 12.96 g/m*3 17.3 C 0 km/h
3050 28-07-2010 10:16:02 17.6 C 13.2 g/m*3 17.6 C 0 km/h
Sensor: Nr:Datum:Temp:Abs-Feuchte:Windchill:Wind:
Aussen-T/F 3051 28-07-2010 10:28:02 17.6 C 13.05 g/m*3 17.6 C 0 km/h
3052 28-07-2010 10:40:02 17.9 C 13.59 g/m*3 17.9 C 0 km/h
3053 28-07-2010 10:52:01 18.1 C 13.44 g/m*3 18.1 C 0 km/h
3054 28-07-2010 11:04:02 18.8 C 14.01 g/m*3 18.8 C 0 km/h
3055 28-07-2010 11:16:01 19.7 C 13.92 g/m*3 19.7 C 0 km/h
3056 28-07-2010 11:28:01 20.6 C 13.24 g/m*3 20.6 C 0 km/h
3057 28-07-2010 11:40:01 20.7 C 13.14 g/m*3 20.7 C 0 km/h
3058 28-07-2010 11:52:01 21.5 C 13.39 g/m*3 21.5 C 0 km/h
3059 28-07-2010 12:04:01 21.3 C 13.23 g/m*3 21.3 C 0 km/h
3060 28-07-2010 12:16:02 20.8 C 12.86 g/m*3 20.8 C 0 km/h
3061 28-07-2010 12:28:02 21.5 C 12.82 g/m*3 21.5 C 0 km/h
3062 28-07-2010 12:40:01 21.4 C 13.12 g/m*3 21.4 C 0 km/h
3063 28-07-2010 12:52:02 21.1 C 13.08 g/m*3 21.1 C 0 km/h
3064 28-07-2010 13:04:02 21 C 12.82 g/m*3 21 C 0 km/h
3065 28-07-2010 13:16:02 21.5 C 13.39 g/m*3 21.5 C 0 km/h
3066 28-07-2010 13:28:02 24.7 C 12.9 g/m*3 24.7 C 0 km/h
3067 28-07-2010 13:40:02 25.7 C 11.25 g/m*3 25.7 C 0 km/h
3068 28-07-2010 13:52:02 25.8 C 9.87 g/m*3 25.8 C 0 km/h
3069 28-07-2010 14:04:02 24.7 C 10.41 g/m*3 24.7 C 0 km/h
3070 28-07-2010 14:16:02 25.4 C 9.89 g/m*3 25.4 C 0 km/h
3071 28-07-2010 14:28:02 25.8 C 9.15 g/m*3 25.8 C 0 km/h
3072 28-07-2010 14:40:02 26.3 C 8.66 g/m*3 26.3 C 0 km/h
3073 28-07-2010 14:52:02 26.5 C 8.26 g/m*3 26.5 C 0 km/h
3074 28-07-2010 15:04:02 26.4 C 8.21 g/m*3 26.4 C 0 km/h
3075 28-07-2010 15:16:02 26.4 C 8.46 g/m*3 26.4 C 0 km/h
Sensor: Nr:Datum:Temp:Abs-Feuchte:Windchill:Wind:
Aussen-T/F 3076 28-07-2010 15:28:02 25.8 C 7.46 g/m*3 25.8 C 0 km/h
3077 28-07-2010 15:40:02 25.2 C 7.22 g/m*3 25.2 C 0 km/h
3078 28-07-2010 15:52:02 26.2 C 7.14 g/m*3 26.2 C 0 km/h
3079 28-07-2010 16:04:02 27.1 C 6.73 g/m*3 27.1 C 0 km/h
3080 28-07-2010 16:16:03 27.2 C 7.29 g/m*3 27.2 C 0 km/h
3081 28-07-2010 16:28:03 27.7 C 7.22 g/m*3 27.7 C 0 km/h
3082 28-07-2010 16:40:02 28.2 C 6.87 g/m*3 28.2 C 0 km/h
3083 28-07-2010 16:52:03 28.7 C 7.06 g/m*3 28.7 C 0 km/h
3084 28-07-2010 17:04:02 28.7 C 6.78 g/m*3 28.7 C 0 km/h
3085 28-07-2010 17:16:02 29.6 C 7.12 g/m*3 29.6 C 0 km/h
3086 28-07-2010 17:28:02 29 C 6.61 g/m*3 29 C 0 km/h
3087 28-07-2010 17:40:02 28.9 C 6.57 g/m*3 28.9 C 0 km/h
3088 28-07-2010 17:52:02 27.8 C 6.19 g/m*3 27.8 C 0 km/h
3089 28-07-2010 18:04:01 28.4 C 6.67 g/m*3 28.4 C 0 km/h
3090 28-07-2010 18:16:02 28.2 C 6.6 g/m*3 28.2 C 0 km/h
3091 28-07-2010 18:28:02 26.2 C 6.4 g/m*3 26.2 C 0 km/h
3092 28-07-2010 18:40:02 25.6 C 6.67 g/m*3 25.6 C 0 km/h
3093 28-07-2010 18:52:01 25.3 C 7.02 g/m*3 25.3 C 0 km/h
3094 28-07-2010 19:04:02 24.5 C 8.73 g/m*3 24.5 C 0 km/h
3095 28-07-2010 19:16:01 22.6 C 9.44 g/m*3 22.6 C 0 km/h
3096 28-07-2010 19:28:01 21.7 C 10.87 g/m*3 21.7 C 0 km/h
3097 28-07-2010 19:40:01 21.8 C 10.55 g/m*3 21.8 C 0 km/h
3098 28-07-2010 19:52:01 21.9 C 10.42 g/m*3 21.9 C 0 km/h
3099 28-07-2010 20:04:02 21.9 C 10.23 g/m*3 21.9 C 0 km/h
3100 28-07-2010 20:16:01 22 C 9.9 g/m*3 22 C 0 km/h
Sensor: Nr:Datum:Temp:Abs-Feuchte:Windchill:Wind:
Aussen-T/F 3101 28-07-2010 20:28:01 22.1 C 9.96 g/m*3 22.1 C 0 km/h
3102 28-07-2010 20:40:02 21.6 C 10.24 g/m*3 21.6 C 0 km/h
3103 28-07-2010 20:52:02 21.3 C 10.62 g/m*3 21.3 C 0 km/h
3104 28-07-2010 21:04:02 21 C 10.44 g/m*3 21 C 0 km/h
3105 28-07-2010 21:16:02 20.8 C 10.5 g/m*3 20.8 C 0 km/h
3106 28-07-2010 21:28:02 20.7 C 10.62 g/m*3 20.7 C 0 km/h
3107 28-07-2010 21:40:02 20.4 C 10.79 g/m*3 20.4 C 0 km/h
3108 28-07-2010 21:52:02 20.1 C 10.78 g/m*3 20.1 C 0 km/h
3109 28-07-2010 22:04:02 20 C 11.06 g/m*3 20 C 0 km/h
3110 28-07-2010 22:17:02 19.8 C 11.44 g/m*3 19.8 C 0 km/h
3111 28-07-2010 22:29:02 19.8 C 11.1 g/m*3 19.8 C 0 km/h
3112 28-07-2010 22:41:02 19.7 C 11.38 g/m*3 19.7 C 0 km/h
3113 28-07-2010 22:53:02 19.6 C 11.31 g/m*3 19.6 C 0 km/h
3114 28-07-2010 23:05:02 19.3 C 11.78 g/m*3 19.3 C 0 km/h
3115 28-07-2010 23:17:02 18.3 C 12.98 g/m*3 18.3 C 0 km/h
3116 28-07-2010 23:29:02 18.2 C 13.37 g/m*3 18.2 C 0 km/h
3117 28-07-2010 23:41:02 18.1 C 13.44 g/m*3 18.1 C 0 km/h
3118 28-07-2010 23:53:02 18 C 13.36 g/m*3 18 C 0 km/h
3119 29-07-2010 00:05:02 17.7 C 13.43 g/m*3 17.7 C 0 km/h
3120 29-07-2010 00:17:02 17.5 C 13.27 g/m*3 17.5 C 0 km/h
3121 29-07-2010 00:29:02 17.2 C 13.03 g/m*3 17.2 C 0 km/h
3122 29-07-2010 00:41:02 16.9 C 13.09 g/m*3 16.9 C 0 km/h
3123 29-07-2010 00:53:02 16.5 C 12.78 g/m*3 16.5 C 0 km/h
3124 29-07-2010 01:05:02 16.4 C 12.84 g/m*3 16.4 C 0 km/h
3125 29-07-2010 01:17:02 16.2 C 12.69 g/m*3 16.2 C 0 km/h
Sensor: Nr:Datum:Temp:Abs-Feuchte:Windchill:Wind:
Aussen-T/F 3126 29-07-2010 01:29:02 16.1 C 12.61 g/m*3 16.1 C 0 km/h
3127 29-07-2010 01:41:02 15.9 C 12.59 g/m*3 15.9 C 0 km/h
3128 29-07-2010 01:53:02 15.7 C 12.44 g/m*3 15.7 C 0 km/h
3129 29-07-2010 02:05:02 15.4 C 12.22 g/m*3 15.4 C 0 km/h
3130 29-07-2010 02:17:03 15.2 C 12.07 g/m*3 15.2 C 0 km/h
3131 29-07-2010 02:29:03 15.1 C 12 g/m*3 15.1 C 0 km/h
3132 29-07-2010 02:41:03 15 C 11.93 g/m*3 15 C 0 km/h
3133 29-07-2010 02:53:03 15.1 C 12 g/m*3 15.1 C 0 km/h
3134 29-07-2010 03:05:03 15 C 11.93 g/m*3 15 C 0 km/h
3135 29-07-2010 03:17:03 14.8 C 11.91 g/m*3 14.8 C 0 km/h
3136 29-07-2010 03:29:03 14.7 C 11.83 g/m*3 14.7 C 0 km/h
3137 29-07-2010 03:41:03 14.6 C 11.76 g/m*3 14.6 C 0 km/h
3138 29-07-2010 03:53:03 14.7 C 11.83 g/m*3 14.7 C 0 km/h
3139 29-07-2010 04:05:03 14.6 C 11.76 g/m*3 14.6 C 0 km/h
3140 29-07-2010 04:17:03 14.4 C 11.62 g/m*3 14.4 C 0 km/h
3141 29-07-2010 04:29:03 14.3 C 11.55 g/m*3 14.3 C 0 km/h
3142 29-07-2010 04:41:03 14.6 C 11.76 g/m*3 14.6 C 0 km/h
3143 29-07-2010 04:53:03 14.3 C 11.55 g/m*3 14.3 C 0 km/h
3144 29-07-2010 05:05:03 14.1 C 11.41 g/m*3 14.1 C 0 km/h
3145 29-07-2010 05:17:03 14.1 C 11.41 g/m*3 14.1 C 0 km/h
3146 29-07-2010 05:29:03 14.4 C 11.62 g/m*3 14.4 C 0 km/h
3147 29-07-2010 05:41:03 14.7 C 11.83 g/m*3 14.7 C 0 km/h
3148 29-07-2010 05:53:03 14.4 C 11.74 g/m*3 14.4 C 0 km/h
3149 29-07-2010 06:05:03 14.5 C 11.82 g/m*3 14.5 C 0 km/h
3150 29-07-2010 06:17:03 14.6 C 11.89 g/m*3 14.6 C 0 km/h
Sensor: Nr:Datum:Temp:Abs-Feuchte:Windchill:Wind:
Aussen-T/F 3151 29-07-2010 06:29:04 14.7 C 11.96 g/m*3 14.7 C 0 km/h
3152 29-07-2010 06:41:04 14.7 C 11.96 g/m*3 14.7 C 0 km/h
3153 29-07-2010 06:53:04 14.6 C 11.89 g/m*3 14.6 C 0 km/h
3154 29-07-2010 07:05:02 14.7 C 11.96 g/m*3 14.7 C 0 km/h
3155 29-07-2010 07:17:02 14.8 C 12.03 g/m*3 14.8 C 0 km/h
3156 29-07-2010 07:29:02 15 C 12.05 g/m*3 15 C 0 km/h
3157 29-07-2010 07:41:02 15 C 12.18 g/m*3 15 C 0 km/h
3158 29-07-2010 07:53:02 14.9 C 12.11 g/m*3 14.9 C 0 km/h
3159 29-07-2010 08:05:02 14.8 C 12.03 g/m*3 14.8 C 0 km/h
3160 29-07-2010 08:17:02 15.2 C 12.33 g/m*3 15.2 C 0 km/h
3161 29-07-2010 08:29:02 15.7 C 12.71 g/m*3 15.7 C 0 km/h
3162 29-07-2010 08:41:02 15.6 C 12.63 g/m*3 15.6 C 0 km/h
3163 29-07-2010 08:53:02 15.6 C 12.63 g/m*3 15.6 C 0 km/h
3164 29-07-2010 09:05:02 15.6 C 12.5 g/m*3 15.6 C 0 km/h
3165 29-07-2010 09:17:02 15.3 C 12.14 g/m*3 15.3 C 0 km/h
3166 29-07-2010 09:29:02 15.4 C 12.22 g/m*3 15.4 C 0 km/h
3167 29-07-2010 09:41:02 15.7 C 12.31 g/m*3 15.7 C 0 km/h
3168 29-07-2010 09:53:02 15.4 C 11.96 g/m*3 15.4 C 0 km/h
3169 29-07-2010 10:05:01 15.2 C 11.68 g/m*3 15.2 C 0 km/h
3170 29-07-2010 10:17:02 15.4 C 11.82 g/m*3 15.4 C 0 km/h
3171 29-07-2010 10:29:02 15.7 C 12.04 g/m*3 15.7 C 0 km/h
3172 29-07-2010 10:41:02 15.1 C 11.48 g/m*3 15.1 C 0 km/h
3173 29-07-2010 10:53:02 14.7 C 11.33 g/m*3 14.7 C 0 km/h
3174 29-07-2010 11:05:03 14.8 C 11.53 g/m*3 14.8 C 0 km/h
3175 29-07-2010 11:17:02 13.9 C 10.91 g/m*3 13.9 C 0 km/h
Sensor: Nr:Datum:Temp:Abs-Feuchte:Windchill:Wind:
Aussen-T/F 3176 29-07-2010 11:29:02 14.3 C 11.18 g/m*3 14.3 C 0 km/h
3177 29-07-2010 11:41:02 15.1 C 11.74 g/m*3 15.1 C 0 km/h
3178 29-07-2010 11:53:01 15.1 C 11.74 g/m*3 15.1 C 0 km/h
3179 29-07-2010 12:05:02 16.2 C 12.41 g/m*3 16.2 C 0 km/h
3180 29-07-2010 12:17:01 17.2 C 12.89 g/m*3 17.2 C 0 km/h
3181 29-07-2010 12:29:01 17.5 C 12.82 g/m*3 17.5 C 0 km/h
3182 29-07-2010 12:41:01 17.7 C 12.52 g/m*3 17.7 C 0 km/h
3183 29-07-2010 12:53:01 17.8 C 12.29 g/m*3 17.8 C 0 km/h
3184 29-07-2010 13:05:01 18.1 C 12.05 g/m*3 18.1 C 0 km/h
3185 29-07-2010 13:17:02 19.1 C 11.97 g/m*3 19.1 C 0 km/h
3186 29-07-2010 13:29:02 19.9 C 11 g/m*3 19.9 C 0 km/h
3187 29-07-2010 13:41:01 18.7 C 10.25 g/m*3 18.7 C 0 km/h
3188 29-07-2010 13:53:03 16.4 C 10.19 g/m*3 16.4 C 0 km/h
3189 29-07-2010 14:05:02 16.4 C 11.03 g/m*3 16.4 C 0 km/h
3190 29-07-2010 14:17:02 16.6 C 11.16 g/m*3 16.6 C 0 km/h
3191 29-07-2010 14:29:02 17.4 C 11.12 g/m*3 17.4 C 0 km/h
3192 29-07-2010 14:41:02 19.1 C 11.31 g/m*3 19.1 C 0 km/h
3193 29-07-2010 14:53:02 19.3 C 9.79 g/m*3 19.3 C 0 km/h
3194 29-07-2010 15:05:01 19.2 C 9.73 g/m*3 19.2 C 0 km/h
3195 29-07-2010 15:17:02 19 C 9.94 g/m*3 19 C 0 km/h
3196 29-07-2010 15:29:02 17.5 C 10.59 g/m*3 17.5 C 0 km/h
3197 29-07-2010 15:41:02 17.3 C 11.05 g/m*3 17.3 C 0 km/h
3198 29-07-2010 15:53:02 18.2 C 12.28 g/m*3 18.2 C 0 km/h
3199 29-07-2010 16:05:03 19.7 C 12.57 g/m*3 19.7 C 0 km/h
3200 29-07-2010 16:17:02 21.1 C 11.61 g/m*3 21.1 C 0 km/h
Sensor: Nr:Datum:Temp:Abs-Feuchte:Windchill:Wind:
Aussen-T/F 3201 29-07-2010 16:29:02 21.8 C 11.13 g/m*3 21.8 C 0 km/h
3202 29-07-2010 16:41:02 18.8 C 9.66 g/m*3 18.8 C 0 km/h
3203 29-07-2010 16:53:01 16.8 C 9.72 g/m*3 16.8 C 0 km/h
3204 29-07-2010 17:05:02 16.1 C 10.01 g/m*3 16.1 C 0 km/h
3205 29-07-2010 17:17:01 16.7 C 11.37 g/m*3 16.7 C 0 km/h
3206 29-07-2010 17:29:01 17.7 C 11.92 g/m*3 17.7 C 0 km/h
3207 29-07-2010 17:41:01 17.8 C 11.38 g/m*3 17.8 C 0 km/h
3208 29-07-2010 17:53:01 17.3 C 11.2 g/m*3 17.3 C 0 km/h
3209 29-07-2010 18:05:01 17.3 C 11.05 g/m*3 17.3 C 0 km/h
3210 29-07-2010 18:17:02 17.4 C 11.12 g/m*3 17.4 C 0 km/h
3211 29-07-2010 18:29:02 17.8 C 11.38 g/m*3 17.8 C 0 km/h
3212 29-07-2010 18:41:01 18.1 C 11.59 g/m*3 18.1 C 0 km/h
3213 29-07-2010 18:53:03 18.5 C 11.39 g/m*3 18.5 C 0 km/h
3214 29-07-2010 19:05:02 18.1 C 10.51 g/m*3 18.1 C 0 km/h
3215 29-07-2010 19:17:02 18 C 9.52 g/m*3 18 C 0 km/h
3216 29-07-2010 19:29:02 18.5 C 9.65 g/m*3 18.5 C 0 km/h
3217 29-07-2010 19:41:02 18.7 C 9.45 g/m*3 18.7 C 0 km/h
3218 29-07-2010 19:53:02 18.4 C 9.28 g/m*3 18.4 C 0 km/h
3219 29-07-2010 20:05:02 17.9 C 9.77 g/m*3 17.9 C 0 km/h
3220 29-07-2010 20:17:02 17.7 C 9.66 g/m*3 17.7 C 0 km/h
3221 29-07-2010 20:29:02 17.7 C 9.66 g/m*3 17.7 C 0 km/h
3222 29-07-2010 20:41:02 17.5 C 9.39 g/m*3 17.5 C 0 km/h
3223 29-0